<?xml version="1.0" encoding="UTF-8" standalone="no" ?>
<gpx xmlns="http://www.topografix.com/GPX/1/1" xmlns:xsi="http://www.w3.org/2001/XMLSchema-instance" xsi:schemaLocation="http://www.topografix.com/GPX/1/1 http://www.topografix.com/GPX/1/1/gpx.xsd" version="1.1" creator="VisuGPX - https://www.visugpx.com">
  <metadata>
    <name>vélo ussh jeunes 14/01/12</name>
    <desc><![CDATA[vélo ussh jeunes 14/01/12]]></desc>
  </metadata>
  <trk>
    <name><![CDATA[vélo ussh jeunes 14/01/12_1]]></name>
    <trkseg>
      <trkpt lat="47.23701" lon="-1.6118">
        <ele>-62</ele>
        <time>2012-01-14T13:32:39Z</time>
      </trkpt>
      <trkpt lat="47.23699" lon="-1.61167">
        <ele>-81</ele>
        <time>2012-01-14T13:33:33Z</time>
      </trkpt>
      <trkpt lat="47.23705" lon="-1.61177">
        <ele>-81.75</ele>
        <time>2012-01-14T13:33:52Z</time>
      </trkpt>
      <trkpt lat="47.23709" lon="-1.61192">
        <ele>-70.75</ele>
        <time>2012-01-14T13:34:05Z</time>
      </trkpt>
      <trkpt lat="47.23705" lon="-1.6118">
        <ele>-72</ele>
        <time>2012-01-14T13:34:27Z</time>
      </trkpt>
      <trkpt lat="47.237" lon="-1.61191">
        <ele>-60.25</ele>
        <time>2012-01-14T13:36:00Z</time>
      </trkpt>
      <trkpt lat="47.23708" lon="-1.61197">
        <ele>-83.5</ele>
        <time>2012-01-14T13:37:34Z</time>
      </trkpt>
      <trkpt lat="47.23702" lon="-1.61209">
        <ele>-70</ele>
        <time>2012-01-14T13:40:06Z</time>
      </trkpt>
      <trkpt lat="47.23704" lon="-1.61227">
        <ele>-70.75</ele>
        <time>2012-01-14T13:40:10Z</time>
      </trkpt>
      <trkpt lat="47.23699" lon="-1.61239">
        <ele>-69.75</ele>
        <time>2012-01-14T13:40:13Z</time>
      </trkpt>
      <trkpt lat="47.23689" lon="-1.61239">
        <ele>-66.5</ele>
        <time>2012-01-14T13:40:16Z</time>
      </trkpt>
      <trkpt lat="47.23687" lon="-1.61256">
        <ele>-64</ele>
        <time>2012-01-14T13:40:25Z</time>
      </trkpt>
      <trkpt lat="47.23692" lon="-1.61269">
        <ele>-64.75</ele>
        <time>2012-01-14T13:40:29Z</time>
      </trkpt>
      <trkpt lat="47.23701" lon="-1.6128">
        <ele>-66.75</ele>
        <time>2012-01-14T13:40:32Z</time>
      </trkpt>
      <trkpt lat="47.23711" lon="-1.61289">
        <ele>-65.75</ele>
        <time>2012-01-14T13:40:35Z</time>
      </trkpt>
      <trkpt lat="47.23722" lon="-1.61291">
        <ele>-68.25</ele>
        <time>2012-01-14T13:40:40Z</time>
      </trkpt>
      <trkpt lat="47.23734" lon="-1.61293">
        <ele>-72.75</ele>
        <time>2012-01-14T13:40:44Z</time>
      </trkpt>
      <trkpt lat="47.23744" lon="-1.61302">
        <ele>-75.5</ele>
        <time>2012-01-14T13:40:47Z</time>
      </trkpt>
      <trkpt lat="47.23753" lon="-1.61312">
        <ele>-78.25</ele>
        <time>2012-01-14T13:40:51Z</time>
      </trkpt>
      <trkpt lat="47.23761" lon="-1.61326">
        <ele>-77.75</ele>
        <time>2012-01-14T13:40:54Z</time>
      </trkpt>
      <trkpt lat="47.23768" lon="-1.61337">
        <ele>-77.25</ele>
        <time>2012-01-14T13:40:57Z</time>
      </trkpt>
      <trkpt lat="47.23774" lon="-1.61349">
        <ele>-79</ele>
        <time>2012-01-14T13:41:01Z</time>
      </trkpt>
      <trkpt lat="47.23777" lon="-1.61362">
        <ele>-80.25</ele>
        <time>2012-01-14T13:41:03Z</time>
      </trkpt>
      <trkpt lat="47.23779" lon="-1.61376">
        <ele>-83.25</ele>
        <time>2012-01-14T13:41:05Z</time>
      </trkpt>
      <trkpt lat="47.23778" lon="-1.6139">
        <ele>-85.75</ele>
        <time>2012-01-14T13:41:07Z</time>
      </trkpt>
      <trkpt lat="47.23777" lon="-1.61407">
        <ele>-86.5</ele>
        <time>2012-01-14T13:41:11Z</time>
      </trkpt>
      <trkpt lat="47.23775" lon="-1.61426">
        <ele>-88.25</ele>
        <time>2012-01-14T13:41:14Z</time>
      </trkpt>
      <trkpt lat="47.23771" lon="-1.61443">
        <ele>-88.5</ele>
        <time>2012-01-14T13:41:17Z</time>
      </trkpt>
      <trkpt lat="47.23768" lon="-1.61456">
        <ele>-86.75</ele>
        <time>2012-01-14T13:41:20Z</time>
      </trkpt>
      <trkpt lat="47.23763" lon="-1.61467">
        <ele>-86.5</ele>
        <time>2012-01-14T13:41:22Z</time>
      </trkpt>
      <trkpt lat="47.23758" lon="-1.61484">
        <ele>-92.25</ele>
        <time>2012-01-14T13:41:25Z</time>
      </trkpt>
      <trkpt lat="47.23759" lon="-1.61499">
        <ele>-87</ele>
        <time>2012-01-14T13:41:31Z</time>
      </trkpt>
      <trkpt lat="47.23764" lon="-1.61513">
        <ele>-84.5</ele>
        <time>2012-01-14T13:41:34Z</time>
      </trkpt>
      <trkpt lat="47.23766" lon="-1.61526">
        <ele>-83</ele>
        <time>2012-01-14T13:41:39Z</time>
      </trkpt>
      <trkpt lat="47.23763" lon="-1.61542">
        <ele>-81.5</ele>
        <time>2012-01-14T13:41:43Z</time>
      </trkpt>
      <trkpt lat="47.23762" lon="-1.61557">
        <ele>-80.75</ele>
        <time>2012-01-14T13:41:46Z</time>
      </trkpt>
      <trkpt lat="47.23761" lon="-1.61573">
        <ele>-82.75</ele>
        <time>2012-01-14T13:41:50Z</time>
      </trkpt>
      <trkpt lat="47.2376" lon="-1.61588">
        <ele>-89</ele>
        <time>2012-01-14T13:41:55Z</time>
      </trkpt>
      <trkpt lat="47.23757" lon="-1.61601">
        <ele>-92.75</ele>
        <time>2012-01-14T13:41:58Z</time>
      </trkpt>
      <trkpt lat="47.23751" lon="-1.61615">
        <ele>-95.75</ele>
        <time>2012-01-14T13:42:01Z</time>
      </trkpt>
      <trkpt lat="47.23747" lon="-1.61628">
        <ele>-99.5</ele>
        <time>2012-01-14T13:42:06Z</time>
      </trkpt>
      <trkpt lat="47.23745" lon="-1.61644">
        <ele>-105.5</ele>
        <time>2012-01-14T13:42:09Z</time>
      </trkpt>
      <trkpt lat="47.23744" lon="-1.61661">
        <ele>-108.5</ele>
        <time>2012-01-14T13:42:12Z</time>
      </trkpt>
      <trkpt lat="47.23743" lon="-1.61679">
        <ele>-106</ele>
        <time>2012-01-14T13:42:16Z</time>
      </trkpt>
      <trkpt lat="47.23745" lon="-1.61692">
        <ele>-103.5</ele>
        <time>2012-01-14T13:42:18Z</time>
      </trkpt>
      <trkpt lat="47.23745" lon="-1.61707">
        <ele>-98</ele>
        <time>2012-01-14T13:42:21Z</time>
      </trkpt>
      <trkpt lat="47.23744" lon="-1.61722">
        <ele>-90.25</ele>
        <time>2012-01-14T13:42:25Z</time>
      </trkpt>
      <trkpt lat="47.23748" lon="-1.61736">
        <ele>-85</ele>
        <time>2012-01-14T13:42:28Z</time>
      </trkpt>
      <trkpt lat="47.23754" lon="-1.6175">
        <ele>-82</ele>
        <time>2012-01-14T13:42:31Z</time>
      </trkpt>
      <trkpt lat="47.2376" lon="-1.61762">
        <ele>-81.25</ele>
        <time>2012-01-14T13:42:34Z</time>
      </trkpt>
      <trkpt lat="47.23766" lon="-1.61776">
        <ele>-81</ele>
        <time>2012-01-14T13:42:36Z</time>
      </trkpt>
      <trkpt lat="47.23772" lon="-1.6179">
        <ele>-82</ele>
        <time>2012-01-14T13:42:38Z</time>
      </trkpt>
      <trkpt lat="47.23778" lon="-1.61802">
        <ele>-85.25</ele>
        <time>2012-01-14T13:42:40Z</time>
      </trkpt>
      <trkpt lat="47.23784" lon="-1.61812">
        <ele>-89</ele>
        <time>2012-01-14T13:42:43Z</time>
      </trkpt>
      <trkpt lat="47.23791" lon="-1.61824">
        <ele>-92.25</ele>
        <time>2012-01-14T13:42:45Z</time>
      </trkpt>
      <trkpt lat="47.23803" lon="-1.61837">
        <ele>-94.5</ele>
        <time>2012-01-14T13:42:47Z</time>
      </trkpt>
      <trkpt lat="47.23815" lon="-1.61849">
        <ele>-94.75</ele>
        <time>2012-01-14T13:42:49Z</time>
      </trkpt>
      <trkpt lat="47.23827" lon="-1.61863">
        <ele>-95.75</ele>
        <time>2012-01-14T13:42:52Z</time>
      </trkpt>
      <trkpt lat="47.23835" lon="-1.61872">
        <ele>-97.5</ele>
        <time>2012-01-14T13:42:54Z</time>
      </trkpt>
      <trkpt lat="47.23847" lon="-1.61886">
        <ele>-99.75</ele>
        <time>2012-01-14T13:42:56Z</time>
      </trkpt>
      <trkpt lat="47.23855" lon="-1.61893">
        <ele>-101</ele>
        <time>2012-01-14T13:42:57Z</time>
      </trkpt>
      <trkpt lat="47.23864" lon="-1.61903">
        <ele>-102.75</ele>
        <time>2012-01-14T13:42:58Z</time>
      </trkpt>
      <trkpt lat="47.23876" lon="-1.61912">
        <ele>-103.75</ele>
        <time>2012-01-14T13:43:00Z</time>
      </trkpt>
      <trkpt lat="47.23887" lon="-1.61919">
        <ele>-103.75</ele>
        <time>2012-01-14T13:43:03Z</time>
      </trkpt>
      <trkpt lat="47.23897" lon="-1.61924">
        <ele>-102.5</ele>
        <time>2012-01-14T13:43:05Z</time>
      </trkpt>
      <trkpt lat="47.23907" lon="-1.61931">
        <ele>-100.25</ele>
        <time>2012-01-14T13:43:07Z</time>
      </trkpt>
      <trkpt lat="47.23916" lon="-1.61938">
        <ele>-100.25</ele>
        <time>2012-01-14T13:43:09Z</time>
      </trkpt>
      <trkpt lat="47.23925" lon="-1.61944">
        <ele>-101</ele>
        <time>2012-01-14T13:43:11Z</time>
      </trkpt>
      <trkpt lat="47.23935" lon="-1.61952">
        <ele>-101</ele>
        <time>2012-01-14T13:43:15Z</time>
      </trkpt>
      <trkpt lat="47.23945" lon="-1.61961">
        <ele>-102</ele>
        <time>2012-01-14T13:43:18Z</time>
      </trkpt>
      <trkpt lat="47.23954" lon="-1.6197">
        <ele>-102.75</ele>
        <time>2012-01-14T13:43:20Z</time>
      </trkpt>
      <trkpt lat="47.23964" lon="-1.61981">
        <ele>-101.25</ele>
        <time>2012-01-14T13:43:22Z</time>
      </trkpt>
      <trkpt lat="47.23972" lon="-1.61991">
        <ele>-99</ele>
        <time>2012-01-14T13:43:24Z</time>
      </trkpt>
      <trkpt lat="47.23981" lon="-1.62002">
        <ele>-98.5</ele>
        <time>2012-01-14T13:43:26Z</time>
      </trkpt>
      <trkpt lat="47.23988" lon="-1.62014">
        <ele>-98.75</ele>
        <time>2012-01-14T13:43:29Z</time>
      </trkpt>
      <trkpt lat="47.23993" lon="-1.62025">
        <ele>-99.5</ele>
        <time>2012-01-14T13:43:31Z</time>
      </trkpt>
      <trkpt lat="47.23998" lon="-1.62038">
        <ele>-100</ele>
        <time>2012-01-14T13:43:33Z</time>
      </trkpt>
      <trkpt lat="47.24001" lon="-1.62051">
        <ele>-99</ele>
        <time>2012-01-14T13:43:35Z</time>
      </trkpt>
      <trkpt lat="47.24002" lon="-1.62064">
        <ele>-96.5</ele>
        <time>2012-01-14T13:43:39Z</time>
      </trkpt>
      <trkpt lat="47.24002" lon="-1.62083">
        <ele>-91</ele>
        <time>2012-01-14T13:43:42Z</time>
      </trkpt>
      <trkpt lat="47.24" lon="-1.62099">
        <ele>-86.25</ele>
        <time>2012-01-14T13:43:45Z</time>
      </trkpt>
      <trkpt lat="47.24001" lon="-1.62115">
        <ele>-82.75</ele>
        <time>2012-01-14T13:43:49Z</time>
      </trkpt>
      <trkpt lat="47.24003" lon="-1.6213">
        <ele>-82.5</ele>
        <time>2012-01-14T13:43:52Z</time>
      </trkpt>
      <trkpt lat="47.24003" lon="-1.62145">
        <ele>-81.75</ele>
        <time>2012-01-14T13:43:55Z</time>
      </trkpt>
      <trkpt lat="47.24003" lon="-1.62159">
        <ele>-80.25</ele>
        <time>2012-01-14T13:44:00Z</time>
      </trkpt>
      <trkpt lat="47.24005" lon="-1.62176">
        <ele>-80</ele>
        <time>2012-01-14T13:44:04Z</time>
      </trkpt>
      <trkpt lat="47.24004" lon="-1.62194">
        <ele>-78</ele>
        <time>2012-01-14T13:44:07Z</time>
      </trkpt>
      <trkpt lat="47.24001" lon="-1.62208">
        <ele>-75.75</ele>
        <time>2012-01-14T13:44:10Z</time>
      </trkpt>
      <trkpt lat="47.23999" lon="-1.62225">
        <ele>-73.5</ele>
        <time>2012-01-14T13:44:14Z</time>
      </trkpt>
      <trkpt lat="47.24" lon="-1.62239">
        <ele>-72</ele>
        <time>2012-01-14T13:44:16Z</time>
      </trkpt>
      <trkpt lat="47.24002" lon="-1.62257">
        <ele>-71.75</ele>
        <time>2012-01-14T13:44:19Z</time>
      </trkpt>
      <trkpt lat="47.24001" lon="-1.62272">
        <ele>-73.25</ele>
        <time>2012-01-14T13:44:23Z</time>
      </trkpt>
      <trkpt lat="47.23998" lon="-1.62289">
        <ele>-74.5</ele>
        <time>2012-01-14T13:44:26Z</time>
      </trkpt>
      <trkpt lat="47.24" lon="-1.62308">
        <ele>-74</ele>
        <time>2012-01-14T13:44:29Z</time>
      </trkpt>
      <trkpt lat="47.24005" lon="-1.62325">
        <ele>-74.5</ele>
        <time>2012-01-14T13:44:33Z</time>
      </trkpt>
      <trkpt lat="47.24008" lon="-1.6234">
        <ele>-74.25</ele>
        <time>2012-01-14T13:44:35Z</time>
      </trkpt>
      <trkpt lat="47.24009" lon="-1.62357">
        <ele>-73.75</ele>
        <time>2012-01-14T13:44:37Z</time>
      </trkpt>
      <trkpt lat="47.24009" lon="-1.62371">
        <ele>-74.5</ele>
        <time>2012-01-14T13:44:39Z</time>
      </trkpt>
      <trkpt lat="47.24009" lon="-1.62386">
        <ele>-78</ele>
        <time>2012-01-14T13:44:43Z</time>
      </trkpt>
      <trkpt lat="47.24006" lon="-1.62403">
        <ele>-78.75</ele>
        <time>2012-01-14T13:44:46Z</time>
      </trkpt>
      <trkpt lat="47.24002" lon="-1.6242">
        <ele>-78.75</ele>
        <time>2012-01-14T13:44:49Z</time>
      </trkpt>
      <trkpt lat="47.24007" lon="-1.62436">
        <ele>-81.25</ele>
        <time>2012-01-14T13:44:54Z</time>
      </trkpt>
      <trkpt lat="47.24017" lon="-1.62452">
        <ele>-82</ele>
        <time>2012-01-14T13:44:57Z</time>
      </trkpt>
      <trkpt lat="47.24025" lon="-1.62468">
        <ele>-81.5</ele>
        <time>2012-01-14T13:44:59Z</time>
      </trkpt>
      <trkpt lat="47.24032" lon="-1.62481">
        <ele>-80.25</ele>
        <time>2012-01-14T13:45:02Z</time>
      </trkpt>
      <trkpt lat="47.24039" lon="-1.62493">
        <ele>-77.75</ele>
        <time>2012-01-14T13:45:04Z</time>
      </trkpt>
      <trkpt lat="47.24049" lon="-1.62507">
        <ele>-75.25</ele>
        <time>2012-01-14T13:45:06Z</time>
      </trkpt>
      <trkpt lat="47.24058" lon="-1.62522">
        <ele>-75</ele>
        <time>2012-01-14T13:45:08Z</time>
      </trkpt>
      <trkpt lat="47.24066" lon="-1.62532">
        <ele>-76</ele>
        <time>2012-01-14T13:45:10Z</time>
      </trkpt>
      <trkpt lat="47.24078" lon="-1.6254">
        <ele>-77.5</ele>
        <time>2012-01-14T13:45:14Z</time>
      </trkpt>
      <trkpt lat="47.24089" lon="-1.62549">
        <ele>-78.75</ele>
        <time>2012-01-14T13:45:17Z</time>
      </trkpt>
      <trkpt lat="47.24096" lon="-1.6256">
        <ele>-78.5</ele>
        <time>2012-01-14T13:45:19Z</time>
      </trkpt>
      <trkpt lat="47.241" lon="-1.62574">
        <ele>-76.25</ele>
        <time>2012-01-14T13:45:21Z</time>
      </trkpt>
      <trkpt lat="47.24099" lon="-1.62592">
        <ele>-72.75</ele>
        <time>2012-01-14T13:45:25Z</time>
      </trkpt>
      <trkpt lat="47.24096" lon="-1.62609">
        <ele>-71.75</ele>
        <time>2012-01-14T13:45:28Z</time>
      </trkpt>
      <trkpt lat="47.2409" lon="-1.62623">
        <ele>-73</ele>
        <time>2012-01-14T13:45:31Z</time>
      </trkpt>
      <trkpt lat="47.24085" lon="-1.62635">
        <ele>-75.75</ele>
        <time>2012-01-14T13:45:36Z</time>
      </trkpt>
      <trkpt lat="47.24079" lon="-1.62648">
        <ele>-77.25</ele>
        <time>2012-01-14T13:45:40Z</time>
      </trkpt>
      <trkpt lat="47.24074" lon="-1.62658">
        <ele>-74</ele>
        <time>2012-01-14T13:45:46Z</time>
      </trkpt>
      <trkpt lat="47.24066" lon="-1.62665">
        <ele>-69.5</ele>
        <time>2012-01-14T13:47:05Z</time>
      </trkpt>
      <trkpt lat="47.24067" lon="-1.62679">
        <ele>-72.75</ele>
        <time>2012-01-14T13:47:47Z</time>
      </trkpt>
      <trkpt lat="47.24076" lon="-1.62685">
        <ele>-72.25</ele>
        <time>2012-01-14T13:47:51Z</time>
      </trkpt>
      <trkpt lat="47.24076" lon="-1.62699">
        <ele>-70.5</ele>
        <time>2012-01-14T13:47:59Z</time>
      </trkpt>
      <trkpt lat="47.24084" lon="-1.62705">
        <ele>-71.25</ele>
        <time>2012-01-14T13:48:07Z</time>
      </trkpt>
      <trkpt lat="47.24092" lon="-1.62713">
        <ele>-68.25</ele>
        <time>2012-01-14T13:48:13Z</time>
      </trkpt>
      <trkpt lat="47.24099" lon="-1.62723">
        <ele>-66.5</ele>
        <time>2012-01-14T13:48:16Z</time>
      </trkpt>
      <trkpt lat="47.241" lon="-1.62738">
        <ele>-66.75</ele>
        <time>2012-01-14T13:48:22Z</time>
      </trkpt>
      <trkpt lat="47.24103" lon="-1.62752">
        <ele>-67.75</ele>
        <time>2012-01-14T13:48:31Z</time>
      </trkpt>
      <trkpt lat="47.24101" lon="-1.62765">
        <ele>-65</ele>
        <time>2012-01-14T13:48:53Z</time>
      </trkpt>
      <trkpt lat="47.24111" lon="-1.62766">
        <ele>-73</ele>
        <time>2012-01-14T13:49:29Z</time>
      </trkpt>
      <trkpt lat="47.24117" lon="-1.62778">
        <ele>-77</ele>
        <time>2012-01-14T13:49:33Z</time>
      </trkpt>
      <trkpt lat="47.24123" lon="-1.62789">
        <ele>-79.5</ele>
        <time>2012-01-14T13:49:38Z</time>
      </trkpt>
      <trkpt lat="47.2413" lon="-1.62804">
        <ele>-77.25</ele>
        <time>2012-01-14T13:49:42Z</time>
      </trkpt>
      <trkpt lat="47.24135" lon="-1.62817">
        <ele>-75.75</ele>
        <time>2012-01-14T13:49:45Z</time>
      </trkpt>
      <trkpt lat="47.2414" lon="-1.62828">
        <ele>-78.5</ele>
        <time>2012-01-14T13:49:49Z</time>
      </trkpt>
      <trkpt lat="47.24148" lon="-1.62843">
        <ele>-81.25</ele>
        <time>2012-01-14T13:49:52Z</time>
      </trkpt>
      <trkpt lat="47.24154" lon="-1.62859">
        <ele>-83</ele>
        <time>2012-01-14T13:49:56Z</time>
      </trkpt>
      <trkpt lat="47.24158" lon="-1.62874">
        <ele>-82.5</ele>
        <time>2012-01-14T13:49:59Z</time>
      </trkpt>
      <trkpt lat="47.24163" lon="-1.6289">
        <ele>-83</ele>
        <time>2012-01-14T13:50:02Z</time>
      </trkpt>
      <trkpt lat="47.24169" lon="-1.62907">
        <ele>-84</ele>
        <time>2012-01-14T13:50:05Z</time>
      </trkpt>
      <trkpt lat="47.24175" lon="-1.6292">
        <ele>-81</ele>
        <time>2012-01-14T13:50:09Z</time>
      </trkpt>
      <trkpt lat="47.24179" lon="-1.62932">
        <ele>-78.5</ele>
        <time>2012-01-14T13:50:11Z</time>
      </trkpt>
      <trkpt lat="47.24183" lon="-1.62946">
        <ele>-79.25</ele>
        <time>2012-01-14T13:50:13Z</time>
      </trkpt>
      <trkpt lat="47.24188" lon="-1.6296">
        <ele>-82.5</ele>
        <time>2012-01-14T13:50:16Z</time>
      </trkpt>
      <trkpt lat="47.24191" lon="-1.62974">
        <ele>-84.75</ele>
        <time>2012-01-14T13:50:20Z</time>
      </trkpt>
      <trkpt lat="47.24191" lon="-1.62991">
        <ele>-85.25</ele>
        <time>2012-01-14T13:50:23Z</time>
      </trkpt>
      <trkpt lat="47.24191" lon="-1.63005">
        <ele>-87</ele>
        <time>2012-01-14T13:50:25Z</time>
      </trkpt>
      <trkpt lat="47.24192" lon="-1.63023">
        <ele>-88.75</ele>
        <time>2012-01-14T13:50:29Z</time>
      </trkpt>
      <trkpt lat="47.24192" lon="-1.63036">
        <ele>-90</ele>
        <time>2012-01-14T13:50:31Z</time>
      </trkpt>
      <trkpt lat="47.24193" lon="-1.63051">
        <ele>-91</ele>
        <time>2012-01-14T13:50:33Z</time>
      </trkpt>
      <trkpt lat="47.24195" lon="-1.63065">
        <ele>-92.25</ele>
        <time>2012-01-14T13:50:35Z</time>
      </trkpt>
      <trkpt lat="47.24201" lon="-1.63082">
        <ele>-93.5</ele>
        <time>2012-01-14T13:50:39Z</time>
      </trkpt>
      <trkpt lat="47.24206" lon="-1.63097">
        <ele>-93.75</ele>
        <time>2012-01-14T13:50:41Z</time>
      </trkpt>
      <trkpt lat="47.24212" lon="-1.63112">
        <ele>-93.5</ele>
        <time>2012-01-14T13:50:43Z</time>
      </trkpt>
      <trkpt lat="47.24217" lon="-1.63123">
        <ele>-93.75</ele>
        <time>2012-01-14T13:50:46Z</time>
      </trkpt>
      <trkpt lat="47.24225" lon="-1.6314">
        <ele>-94.75</ele>
        <time>2012-01-14T13:50:49Z</time>
      </trkpt>
      <trkpt lat="47.24232" lon="-1.63152">
        <ele>-96.25</ele>
        <time>2012-01-14T13:50:51Z</time>
      </trkpt>
      <trkpt lat="47.2424" lon="-1.63165">
        <ele>-98</ele>
        <time>2012-01-14T13:50:54Z</time>
      </trkpt>
      <trkpt lat="47.24248" lon="-1.63176">
        <ele>-99.5</ele>
        <time>2012-01-14T13:50:58Z</time>
      </trkpt>
      <trkpt lat="47.24258" lon="-1.63185">
        <ele>-102.5</ele>
        <time>2012-01-14T13:51:01Z</time>
      </trkpt>
      <trkpt lat="47.24267" lon="-1.63198">
        <ele>-105.75</ele>
        <time>2012-01-14T13:51:05Z</time>
      </trkpt>
      <trkpt lat="47.24274" lon="-1.63209">
        <ele>-106.5</ele>
        <time>2012-01-14T13:51:07Z</time>
      </trkpt>
      <trkpt lat="47.24282" lon="-1.63218">
        <ele>-106.25</ele>
        <time>2012-01-14T13:51:09Z</time>
      </trkpt>
      <trkpt lat="47.24292" lon="-1.63225">
        <ele>-106</ele>
        <time>2012-01-14T13:51:13Z</time>
      </trkpt>
      <trkpt lat="47.243" lon="-1.63234">
        <ele>-105.5</ele>
        <time>2012-01-14T13:51:16Z</time>
      </trkpt>
      <trkpt lat="47.24308" lon="-1.63242">
        <ele>-103</ele>
        <time>2012-01-14T13:51:19Z</time>
      </trkpt>
      <trkpt lat="47.24316" lon="-1.63254">
        <ele>-102</ele>
        <time>2012-01-14T13:51:23Z</time>
      </trkpt>
      <trkpt lat="47.24323" lon="-1.63265">
        <ele>-99.75</ele>
        <time>2012-01-14T13:51:27Z</time>
      </trkpt>
      <trkpt lat="47.24331" lon="-1.63277">
        <ele>-101</ele>
        <time>2012-01-14T13:51:31Z</time>
      </trkpt>
      <trkpt lat="47.24339" lon="-1.63285">
        <ele>-104.5</ele>
        <time>2012-01-14T13:51:34Z</time>
      </trkpt>
      <trkpt lat="47.24347" lon="-1.63292">
        <ele>-103.75</ele>
        <time>2012-01-14T13:51:38Z</time>
      </trkpt>
      <trkpt lat="47.24355" lon="-1.63302">
        <ele>-101.25</ele>
        <time>2012-01-14T13:51:41Z</time>
      </trkpt>
      <trkpt lat="47.24361" lon="-1.63313">
        <ele>-101.25</ele>
        <time>2012-01-14T13:51:44Z</time>
      </trkpt>
      <trkpt lat="47.24366" lon="-1.63326">
        <ele>-101.25</ele>
        <time>2012-01-14T13:51:49Z</time>
      </trkpt>
      <trkpt lat="47.24369" lon="-1.6334">
        <ele>-96.75</ele>
        <time>2012-01-14T13:51:53Z</time>
      </trkpt>
      <trkpt lat="47.24375" lon="-1.6335">
        <ele>-89.5</ele>
        <time>2012-01-14T13:52:11Z</time>
      </trkpt>
      <trkpt lat="47.24373" lon="-1.63363">
        <ele>-75.25</ele>
        <time>2012-01-14T13:52:34Z</time>
      </trkpt>
      <trkpt lat="47.24377" lon="-1.63375">
        <ele>-75</ele>
        <time>2012-01-14T13:53:07Z</time>
      </trkpt>
      <trkpt lat="47.24375" lon="-1.63389">
        <ele>-73.5</ele>
        <time>2012-01-14T13:53:10Z</time>
      </trkpt>
      <trkpt lat="47.2437" lon="-1.63404">
        <ele>-70.25</ele>
        <time>2012-01-14T13:53:14Z</time>
      </trkpt>
      <trkpt lat="47.24376" lon="-1.63414">
        <ele>-69</ele>
        <time>2012-01-14T13:53:35Z</time>
      </trkpt>
      <trkpt lat="47.24382" lon="-1.63425">
        <ele>-73.75</ele>
        <time>2012-01-14T13:57:05Z</time>
      </trkpt>
      <trkpt lat="47.24386" lon="-1.63438">
        <ele>-75.25</ele>
        <time>2012-01-14T13:57:09Z</time>
      </trkpt>
      <trkpt lat="47.2439" lon="-1.63452">
        <ele>-76.25</ele>
        <time>2012-01-14T13:57:12Z</time>
      </trkpt>
      <trkpt lat="47.24393" lon="-1.63468">
        <ele>-78</ele>
        <time>2012-01-14T13:57:17Z</time>
      </trkpt>
      <trkpt lat="47.24396" lon="-1.63484">
        <ele>-77</ele>
        <time>2012-01-14T13:57:19Z</time>
      </trkpt>
      <trkpt lat="47.24397" lon="-1.63498">
        <ele>-75.5</ele>
        <time>2012-01-14T13:57:21Z</time>
      </trkpt>
      <trkpt lat="47.24394" lon="-1.63515">
        <ele>-75.5</ele>
        <time>2012-01-14T13:57:26Z</time>
      </trkpt>
      <trkpt lat="47.24388" lon="-1.6353">
        <ele>-73.75</ele>
        <time>2012-01-14T13:57:29Z</time>
      </trkpt>
      <trkpt lat="47.24383" lon="-1.63543">
        <ele>-72.5</ele>
        <time>2012-01-14T13:57:32Z</time>
      </trkpt>
      <trkpt lat="47.24379" lon="-1.63557">
        <ele>-73</ele>
        <time>2012-01-14T13:57:36Z</time>
      </trkpt>
      <trkpt lat="47.2438" lon="-1.6357">
        <ele>-72</ele>
        <time>2012-01-14T13:57:43Z</time>
      </trkpt>
      <trkpt lat="47.24383" lon="-1.63587">
        <ele>-73.5</ele>
        <time>2012-01-14T13:57:47Z</time>
      </trkpt>
      <trkpt lat="47.24386" lon="-1.63602">
        <ele>-78</ele>
        <time>2012-01-14T13:57:49Z</time>
      </trkpt>
      <trkpt lat="47.24389" lon="-1.6362">
        <ele>-80</ele>
        <time>2012-01-14T13:57:53Z</time>
      </trkpt>
      <trkpt lat="47.24389" lon="-1.63638">
        <ele>-81</ele>
        <time>2012-01-14T13:57:56Z</time>
      </trkpt>
      <trkpt lat="47.24389" lon="-1.63658">
        <ele>-83.5</ele>
        <time>2012-01-14T13:57:59Z</time>
      </trkpt>
      <trkpt lat="47.2439" lon="-1.63673">
        <ele>-83.5</ele>
        <time>2012-01-14T13:58:01Z</time>
      </trkpt>
      <trkpt lat="47.24389" lon="-1.63688">
        <ele>-83.5</ele>
        <time>2012-01-14T13:58:04Z</time>
      </trkpt>
      <trkpt lat="47.24389" lon="-1.63704">
        <ele>-84.75</ele>
        <time>2012-01-14T13:58:06Z</time>
      </trkpt>
      <trkpt lat="47.24388" lon="-1.63719">
        <ele>-85.25</ele>
        <time>2012-01-14T13:58:08Z</time>
      </trkpt>
      <trkpt lat="47.2439" lon="-1.63732">
        <ele>-83.5</ele>
        <time>2012-01-14T13:58:12Z</time>
      </trkpt>
      <trkpt lat="47.24395" lon="-1.63743">
        <ele>-80.25</ele>
        <time>2012-01-14T13:58:17Z</time>
      </trkpt>
      <trkpt lat="47.24405" lon="-1.63742">
        <ele>-73</ele>
        <time>2012-01-14T13:58:41Z</time>
      </trkpt>
      <trkpt lat="47.24415" lon="-1.63739">
        <ele>-75.5</ele>
        <time>2012-01-14T13:58:44Z</time>
      </trkpt>
      <trkpt lat="47.24424" lon="-1.63742">
        <ele>-78.75</ele>
        <time>2012-01-14T13:58:47Z</time>
      </trkpt>
      <trkpt lat="47.24434" lon="-1.63747">
        <ele>-84</ele>
        <time>2012-01-14T13:58:52Z</time>
      </trkpt>
      <trkpt lat="47.24446" lon="-1.63753">
        <ele>-84.5</ele>
        <time>2012-01-14T13:58:55Z</time>
      </trkpt>
      <trkpt lat="47.24455" lon="-1.63759">
        <ele>-83.25</ele>
        <time>2012-01-14T13:58:57Z</time>
      </trkpt>
      <trkpt lat="47.24465" lon="-1.63766">
        <ele>-84.5</ele>
        <time>2012-01-14T13:59:01Z</time>
      </trkpt>
      <trkpt lat="47.24474" lon="-1.63771">
        <ele>-84</ele>
        <time>2012-01-14T13:59:03Z</time>
      </trkpt>
      <trkpt lat="47.24483" lon="-1.63778">
        <ele>-82.25</ele>
        <time>2012-01-14T13:59:05Z</time>
      </trkpt>
      <trkpt lat="47.24492" lon="-1.63784">
        <ele>-81.5</ele>
        <time>2012-01-14T13:59:07Z</time>
      </trkpt>
      <trkpt lat="47.24503" lon="-1.6379">
        <ele>-82</ele>
        <time>2012-01-14T13:59:11Z</time>
      </trkpt>
      <trkpt lat="47.24515" lon="-1.63796">
        <ele>-82</ele>
        <time>2012-01-14T13:59:14Z</time>
      </trkpt>
      <trkpt lat="47.24524" lon="-1.63798">
        <ele>-80.5</ele>
        <time>2012-01-14T13:59:16Z</time>
      </trkpt>
      <trkpt lat="47.24535" lon="-1.63799">
        <ele>-79.5</ele>
        <time>2012-01-14T13:59:19Z</time>
      </trkpt>
      <trkpt lat="47.24546" lon="-1.63799">
        <ele>-80</ele>
        <time>2012-01-14T13:59:23Z</time>
      </trkpt>
      <trkpt lat="47.24557" lon="-1.63796">
        <ele>-79.25</ele>
        <time>2012-01-14T13:59:26Z</time>
      </trkpt>
      <trkpt lat="47.24566" lon="-1.63792">
        <ele>-78.25</ele>
        <time>2012-01-14T13:59:29Z</time>
      </trkpt>
      <trkpt lat="47.24574" lon="-1.63787">
        <ele>-79.25</ele>
        <time>2012-01-14T13:59:33Z</time>
      </trkpt>
      <trkpt lat="47.24584" lon="-1.6378">
        <ele>-80.5</ele>
        <time>2012-01-14T13:59:36Z</time>
      </trkpt>
      <trkpt lat="47.24593" lon="-1.63773">
        <ele>-81.75</ele>
        <time>2012-01-14T13:59:41Z</time>
      </trkpt>
      <trkpt lat="47.24601" lon="-1.63767">
        <ele>-83.75</ele>
        <time>2012-01-14T13:59:44Z</time>
      </trkpt>
      <trkpt lat="47.24612" lon="-1.63763">
        <ele>-83.5</ele>
        <time>2012-01-14T13:59:47Z</time>
      </trkpt>
      <trkpt lat="47.24623" lon="-1.63764">
        <ele>-81.75</ele>
        <time>2012-01-14T13:59:52Z</time>
      </trkpt>
      <trkpt lat="47.24635" lon="-1.63769">
        <ele>-85</ele>
        <time>2012-01-14T13:59:55Z</time>
      </trkpt>
      <trkpt lat="47.24645" lon="-1.63774">
        <ele>-89.75</ele>
        <time>2012-01-14T14:00:00Z</time>
      </trkpt>
      <trkpt lat="47.24653" lon="-1.63781">
        <ele>-91.5</ele>
        <time>2012-01-14T14:00:03Z</time>
      </trkpt>
      <trkpt lat="47.24665" lon="-1.63787">
        <ele>-91.75</ele>
        <time>2012-01-14T14:00:06Z</time>
      </trkpt>
      <trkpt lat="47.24676" lon="-1.63787">
        <ele>-92</ele>
        <time>2012-01-14T14:00:09Z</time>
      </trkpt>
      <trkpt lat="47.24685" lon="-1.63785">
        <ele>-91</ele>
        <time>2012-01-14T14:00:14Z</time>
      </trkpt>
      <trkpt lat="47.24694" lon="-1.63775">
        <ele>-89.25</ele>
        <time>2012-01-14T14:00:19Z</time>
      </trkpt>
      <trkpt lat="47.24701" lon="-1.63764">
        <ele>-90</ele>
        <time>2012-01-14T14:00:24Z</time>
      </trkpt>
      <trkpt lat="47.24705" lon="-1.63752">
        <ele>-92.75</ele>
        <time>2012-01-14T14:00:29Z</time>
      </trkpt>
      <trkpt lat="47.24712" lon="-1.63741">
        <ele>-96</ele>
        <time>2012-01-14T14:00:34Z</time>
      </trkpt>
      <trkpt lat="47.24721" lon="-1.63732">
        <ele>-106</ele>
        <time>2012-01-14T14:00:40Z</time>
      </trkpt>
      <trkpt lat="47.2473" lon="-1.63729">
        <ele>-99</ele>
        <time>2012-01-14T14:00:46Z</time>
      </trkpt>
      <trkpt lat="47.24736" lon="-1.63739">
        <ele>-109.75</ele>
        <time>2012-01-14T14:01:04Z</time>
      </trkpt>
      <trkpt lat="47.24734" lon="-1.63752">
        <ele>-97.5</ele>
        <time>2012-01-14T14:01:44Z</time>
      </trkpt>
      <trkpt lat="47.24726" lon="-1.63745">
        <ele>-91.25</ele>
        <time>2012-01-14T14:01:52Z</time>
      </trkpt>
      <trkpt lat="47.24729" lon="-1.63731">
        <ele>-97</ele>
        <time>2012-01-14T14:02:14Z</time>
      </trkpt>
      <trkpt lat="47.24729" lon="-1.63717">
        <ele>-105.75</ele>
        <time>2012-01-14T14:02:17Z</time>
      </trkpt>
      <trkpt lat="47.24733" lon="-1.637">
        <ele>-117.25</ele>
        <time>2012-01-14T14:02:20Z</time>
      </trkpt>
      <trkpt lat="47.24739" lon="-1.63684">
        <ele>-123.75</ele>
        <time>2012-01-14T14:02:24Z</time>
      </trkpt>
      <trkpt lat="47.24747" lon="-1.63671">
        <ele>-131</ele>
        <time>2012-01-14T14:02:27Z</time>
      </trkpt>
      <trkpt lat="47.24755" lon="-1.63659">
        <ele>-141.25</ele>
        <time>2012-01-14T14:02:32Z</time>
      </trkpt>
      <trkpt lat="47.2476" lon="-1.63647">
        <ele>-144.5</ele>
        <time>2012-01-14T14:02:34Z</time>
      </trkpt>
      <trkpt lat="47.24766" lon="-1.63632">
        <ele>-146.5</ele>
        <time>2012-01-14T14:02:36Z</time>
      </trkpt>
      <trkpt lat="47.24771" lon="-1.63621">
        <ele>-148</ele>
        <time>2012-01-14T14:02:38Z</time>
      </trkpt>
      <trkpt lat="47.24776" lon="-1.63607">
        <ele>-142.75</ele>
        <time>2012-01-14T14:02:42Z</time>
      </trkpt>
      <trkpt lat="47.24783" lon="-1.63594">
        <ele>-140</ele>
        <time>2012-01-14T14:02:45Z</time>
      </trkpt>
      <trkpt lat="47.2479" lon="-1.63581">
        <ele>-136.75</ele>
        <time>2012-01-14T14:02:49Z</time>
      </trkpt>
      <trkpt lat="47.24795" lon="-1.63569">
        <ele>-139.5</ele>
        <time>2012-01-14T14:02:54Z</time>
      </trkpt>
      <trkpt lat="47.24798" lon="-1.63555">
        <ele>-133</ele>
        <time>2012-01-14T14:03:00Z</time>
      </trkpt>
      <trkpt lat="47.24801" lon="-1.6354">
        <ele>-128</ele>
        <time>2012-01-14T14:03:07Z</time>
      </trkpt>
      <trkpt lat="47.24804" lon="-1.63526">
        <ele>-114.5</ele>
        <time>2012-01-14T14:03:15Z</time>
      </trkpt>
      <trkpt lat="47.24809" lon="-1.63515">
        <ele>-106.75</ele>
        <time>2012-01-14T14:03:28Z</time>
      </trkpt>
      <trkpt lat="47.24812" lon="-1.635">
        <ele>-105</ele>
        <time>2012-01-14T14:03:36Z</time>
      </trkpt>
      <trkpt lat="47.24821" lon="-1.63487">
        <ele>-103.25</ele>
        <time>2012-01-14T14:03:40Z</time>
      </trkpt>
      <trkpt lat="47.24828" lon="-1.6348">
        <ele>-100.75</ele>
        <time>2012-01-14T14:03:42Z</time>
      </trkpt>
      <trkpt lat="47.24838" lon="-1.63476">
        <ele>-99.75</ele>
        <time>2012-01-14T14:03:46Z</time>
      </trkpt>
      <trkpt lat="47.24848" lon="-1.63475">
        <ele>-101.75</ele>
        <time>2012-01-14T14:03:49Z</time>
      </trkpt>
      <trkpt lat="47.24861" lon="-1.63471">
        <ele>-103.75</ele>
        <time>2012-01-14T14:03:52Z</time>
      </trkpt>
      <trkpt lat="47.24871" lon="-1.63462">
        <ele>-104.25</ele>
        <time>2012-01-14T14:03:55Z</time>
      </trkpt>
      <trkpt lat="47.24882" lon="-1.63454">
        <ele>-103.5</ele>
        <time>2012-01-14T14:03:59Z</time>
      </trkpt>
      <trkpt lat="47.24893" lon="-1.63445">
        <ele>-102.25</ele>
        <time>2012-01-14T14:04:02Z</time>
      </trkpt>
      <trkpt lat="47.24902" lon="-1.63438">
        <ele>-103.25</ele>
        <time>2012-01-14T14:04:04Z</time>
      </trkpt>
      <trkpt lat="47.24912" lon="-1.63429">
        <ele>-104</ele>
        <time>2012-01-14T14:04:06Z</time>
      </trkpt>
      <trkpt lat="47.24921" lon="-1.6342">
        <ele>-105</ele>
        <time>2012-01-14T14:04:08Z</time>
      </trkpt>
      <trkpt lat="47.2493" lon="-1.63413">
        <ele>-106.75</ele>
        <time>2012-01-14T14:04:11Z</time>
      </trkpt>
      <trkpt lat="47.24939" lon="-1.63405">
        <ele>-108</ele>
        <time>2012-01-14T14:04:13Z</time>
      </trkpt>
      <trkpt lat="47.24951" lon="-1.63395">
        <ele>-109.25</ele>
        <time>2012-01-14T14:04:15Z</time>
      </trkpt>
      <trkpt lat="47.24963" lon="-1.63385">
        <ele>-109.25</ele>
        <time>2012-01-14T14:04:17Z</time>
      </trkpt>
      <trkpt lat="47.24973" lon="-1.63378">
        <ele>-108.25</ele>
        <time>2012-01-14T14:04:19Z</time>
      </trkpt>
      <trkpt lat="47.24982" lon="-1.63371">
        <ele>-108</ele>
        <time>2012-01-14T14:04:22Z</time>
      </trkpt>
      <trkpt lat="47.24992" lon="-1.63364">
        <ele>-107.25</ele>
        <time>2012-01-14T14:04:24Z</time>
      </trkpt>
      <trkpt lat="47.25003" lon="-1.63356">
        <ele>-106.5</ele>
        <time>2012-01-14T14:04:26Z</time>
      </trkpt>
      <trkpt lat="47.25012" lon="-1.63348">
        <ele>-106.25</ele>
        <time>2012-01-14T14:04:28Z</time>
      </trkpt>
      <trkpt lat="47.25023" lon="-1.63339">
        <ele>-106</ele>
        <time>2012-01-14T14:04:32Z</time>
      </trkpt>
      <trkpt lat="47.25032" lon="-1.63332">
        <ele>-106</ele>
        <time>2012-01-14T14:04:34Z</time>
      </trkpt>
      <trkpt lat="47.25042" lon="-1.63324">
        <ele>-106</ele>
        <time>2012-01-14T14:04:36Z</time>
      </trkpt>
      <trkpt lat="47.25051" lon="-1.63317">
        <ele>-105.75</ele>
        <time>2012-01-14T14:04:38Z</time>
      </trkpt>
      <trkpt lat="47.25061" lon="-1.63311">
        <ele>-105.75</ele>
        <time>2012-01-14T14:04:41Z</time>
      </trkpt>
      <trkpt lat="47.2507" lon="-1.63305">
        <ele>-106.5</ele>
        <time>2012-01-14T14:04:43Z</time>
      </trkpt>
      <trkpt lat="47.25081" lon="-1.63297">
        <ele>-106.5</ele>
        <time>2012-01-14T14:04:45Z</time>
      </trkpt>
      <trkpt lat="47.25091" lon="-1.63287">
        <ele>-106</ele>
        <time>2012-01-14T14:04:47Z</time>
      </trkpt>
      <trkpt lat="47.25099" lon="-1.6328">
        <ele>-106.25</ele>
        <time>2012-01-14T14:04:49Z</time>
      </trkpt>
      <trkpt lat="47.25107" lon="-1.63272">
        <ele>-106.75</ele>
        <time>2012-01-14T14:04:52Z</time>
      </trkpt>
      <trkpt lat="47.25116" lon="-1.63265">
        <ele>-106.75</ele>
        <time>2012-01-14T14:04:54Z</time>
      </trkpt>
      <trkpt lat="47.25125" lon="-1.63258">
        <ele>-106.75</ele>
        <time>2012-01-14T14:04:56Z</time>
      </trkpt>
      <trkpt lat="47.25134" lon="-1.63252">
        <ele>-106.75</ele>
        <time>2012-01-14T14:04:58Z</time>
      </trkpt>
      <trkpt lat="47.25143" lon="-1.63244">
        <ele>-106</ele>
        <time>2012-01-14T14:05:02Z</time>
      </trkpt>
      <trkpt lat="47.25155" lon="-1.63232">
        <ele>-106</ele>
        <time>2012-01-14T14:05:05Z</time>
      </trkpt>
      <trkpt lat="47.25163" lon="-1.63225">
        <ele>-106</ele>
        <time>2012-01-14T14:05:07Z</time>
      </trkpt>
      <trkpt lat="47.25173" lon="-1.63216">
        <ele>-105.25</ele>
        <time>2012-01-14T14:05:11Z</time>
      </trkpt>
      <trkpt lat="47.25185" lon="-1.63207">
        <ele>-105.25</ele>
        <time>2012-01-14T14:05:14Z</time>
      </trkpt>
      <trkpt lat="47.25195" lon="-1.632">
        <ele>-105.5</ele>
        <time>2012-01-14T14:05:16Z</time>
      </trkpt>
      <trkpt lat="47.25203" lon="-1.63193">
        <ele>-105.75</ele>
        <time>2012-01-14T14:05:18Z</time>
      </trkpt>
      <trkpt lat="47.25214" lon="-1.63185">
        <ele>-106</ele>
        <time>2012-01-14T14:05:22Z</time>
      </trkpt>
      <trkpt lat="47.25224" lon="-1.63178">
        <ele>-106</ele>
        <time>2012-01-14T14:05:24Z</time>
      </trkpt>
      <trkpt lat="47.25234" lon="-1.63169">
        <ele>-106</ele>
        <time>2012-01-14T14:05:26Z</time>
      </trkpt>
      <trkpt lat="47.25242" lon="-1.63161">
        <ele>-106.5</ele>
        <time>2012-01-14T14:05:28Z</time>
      </trkpt>
      <trkpt lat="47.2525" lon="-1.63153">
        <ele>-107</ele>
        <time>2012-01-14T14:05:31Z</time>
      </trkpt>
      <trkpt lat="47.25259" lon="-1.63145">
        <ele>-107</ele>
        <time>2012-01-14T14:05:33Z</time>
      </trkpt>
      <trkpt lat="47.2527" lon="-1.63136">
        <ele>-107</ele>
        <time>2012-01-14T14:05:35Z</time>
      </trkpt>
      <trkpt lat="47.2528" lon="-1.63128">
        <ele>-107</ele>
        <time>2012-01-14T14:05:37Z</time>
      </trkpt>
      <trkpt lat="47.25288" lon="-1.6312">
        <ele>-107</ele>
        <time>2012-01-14T14:05:40Z</time>
      </trkpt>
      <trkpt lat="47.25298" lon="-1.63112">
        <ele>-107.75</ele>
        <time>2012-01-14T14:05:42Z</time>
      </trkpt>
      <trkpt lat="47.25309" lon="-1.63104">
        <ele>-108.5</ele>
        <time>2012-01-14T14:05:44Z</time>
      </trkpt>
      <trkpt lat="47.25319" lon="-1.63096">
        <ele>-108.75</ele>
        <time>2012-01-14T14:05:46Z</time>
      </trkpt>
      <trkpt lat="47.25327" lon="-1.63089">
        <ele>-109.25</ele>
        <time>2012-01-14T14:05:49Z</time>
      </trkpt>
      <trkpt lat="47.25335" lon="-1.63081">
        <ele>-108.75</ele>
        <time>2012-01-14T14:05:51Z</time>
      </trkpt>
      <trkpt lat="47.25344" lon="-1.6307">
        <ele>-107.75</ele>
        <time>2012-01-14T14:05:53Z</time>
      </trkpt>
      <trkpt lat="47.25354" lon="-1.6306">
        <ele>-107.5</ele>
        <time>2012-01-14T14:05:55Z</time>
      </trkpt>
      <trkpt lat="47.25361" lon="-1.63052">
        <ele>-107.75</ele>
        <time>2012-01-14T14:05:57Z</time>
      </trkpt>
      <trkpt lat="47.25369" lon="-1.63044">
        <ele>-108</ele>
        <time>2012-01-14T14:06:00Z</time>
      </trkpt>
      <trkpt lat="47.25378" lon="-1.63035">
        <ele>-108</ele>
        <time>2012-01-14T14:06:02Z</time>
      </trkpt>
      <trkpt lat="47.25388" lon="-1.63026">
        <ele>-108</ele>
        <time>2012-01-14T14:06:05Z</time>
      </trkpt>
      <trkpt lat="47.25396" lon="-1.63018">
        <ele>-108</ele>
        <time>2012-01-14T14:06:07Z</time>
      </trkpt>
      <trkpt lat="47.25405" lon="-1.6301">
        <ele>-107.75</ele>
        <time>2012-01-14T14:06:09Z</time>
      </trkpt>
      <trkpt lat="47.25414" lon="-1.63002">
        <ele>-107.5</ele>
        <time>2012-01-14T14:06:11Z</time>
      </trkpt>
      <trkpt lat="47.25422" lon="-1.62995">
        <ele>-107</ele>
        <time>2012-01-14T14:06:14Z</time>
      </trkpt>
      <trkpt lat="47.25433" lon="-1.62984">
        <ele>-106.75</ele>
        <time>2012-01-14T14:06:17Z</time>
      </trkpt>
      <trkpt lat="47.25442" lon="-1.62978">
        <ele>-106</ele>
        <time>2012-01-14T14:06:20Z</time>
      </trkpt>
      <trkpt lat="47.25446" lon="-1.62966">
        <ele>-107</ele>
        <time>2012-01-14T14:07:31Z</time>
      </trkpt>
      <trkpt lat="47.25438" lon="-1.62954">
        <ele>-108.75</ele>
        <time>2012-01-14T14:07:35Z</time>
      </trkpt>
      <trkpt lat="47.25431" lon="-1.62942">
        <ele>-110.25</ele>
        <time>2012-01-14T14:07:37Z</time>
      </trkpt>
      <trkpt lat="47.25429" lon="-1.62928">
        <ele>-110.5</ele>
        <time>2012-01-14T14:07:39Z</time>
      </trkpt>
      <trkpt lat="47.2543" lon="-1.62913">
        <ele>-109.5</ele>
        <time>2012-01-14T14:07:42Z</time>
      </trkpt>
      <trkpt lat="47.25436" lon="-1.62901">
        <ele>-108.5</ele>
        <time>2012-01-14T14:07:44Z</time>
      </trkpt>
      <trkpt lat="47.25446" lon="-1.62893">
        <ele>-107.75</ele>
        <time>2012-01-14T14:07:46Z</time>
      </trkpt>
      <trkpt lat="47.25456" lon="-1.62891">
        <ele>-107.75</ele>
        <time>2012-01-14T14:07:48Z</time>
      </trkpt>
      <trkpt lat="47.25468" lon="-1.62891">
        <ele>-108</ele>
        <time>2012-01-14T14:07:52Z</time>
      </trkpt>
      <trkpt lat="47.25481" lon="-1.62888">
        <ele>-108</ele>
        <time>2012-01-14T14:07:55Z</time>
      </trkpt>
      <trkpt lat="47.2549" lon="-1.62883">
        <ele>-108</ele>
        <time>2012-01-14T14:07:57Z</time>
      </trkpt>
      <trkpt lat="47.255" lon="-1.62877">
        <ele>-108</ele>
        <time>2012-01-14T14:08:00Z</time>
      </trkpt>
      <trkpt lat="47.25511" lon="-1.6287">
        <ele>-109.5</ele>
        <time>2012-01-14T14:08:03Z</time>
      </trkpt>
      <trkpt lat="47.25521" lon="-1.62864">
        <ele>-110.75</ele>
        <time>2012-01-14T14:08:06Z</time>
      </trkpt>
      <trkpt lat="47.25532" lon="-1.62855">
        <ele>-112</ele>
        <time>2012-01-14T14:08:09Z</time>
      </trkpt>
      <trkpt lat="47.25541" lon="-1.62849">
        <ele>-112.75</ele>
        <time>2012-01-14T14:08:11Z</time>
      </trkpt>
      <trkpt lat="47.2555" lon="-1.62842">
        <ele>-113.75</ele>
        <time>2012-01-14T14:08:13Z</time>
      </trkpt>
      <trkpt lat="47.2556" lon="-1.62835">
        <ele>-113.75</ele>
        <time>2012-01-14T14:08:17Z</time>
      </trkpt>
      <trkpt lat="47.25571" lon="-1.62826">
        <ele>-113.5</ele>
        <time>2012-01-14T14:08:20Z</time>
      </trkpt>
      <trkpt lat="47.25579" lon="-1.62819">
        <ele>-113</ele>
        <time>2012-01-14T14:08:22Z</time>
      </trkpt>
      <trkpt lat="47.25587" lon="-1.62813">
        <ele>-113</ele>
        <time>2012-01-14T14:08:24Z</time>
      </trkpt>
      <trkpt lat="47.25599" lon="-1.62803">
        <ele>-113</ele>
        <time>2012-01-14T14:08:28Z</time>
      </trkpt>
      <trkpt lat="47.25608" lon="-1.62794">
        <ele>-112.5</ele>
        <time>2012-01-14T14:08:30Z</time>
      </trkpt>
      <trkpt lat="47.25617" lon="-1.62785">
        <ele>-112</ele>
        <time>2012-01-14T14:08:32Z</time>
      </trkpt>
      <trkpt lat="47.25627" lon="-1.62775">
        <ele>-112</ele>
        <time>2012-01-14T14:08:36Z</time>
      </trkpt>
      <trkpt lat="47.25639" lon="-1.62764">
        <ele>-112</ele>
        <time>2012-01-14T14:08:39Z</time>
      </trkpt>
      <trkpt lat="47.25647" lon="-1.62756">
        <ele>-112.25</ele>
        <time>2012-01-14T14:08:41Z</time>
      </trkpt>
      <trkpt lat="47.25655" lon="-1.62749">
        <ele>-112.5</ele>
        <time>2012-01-14T14:08:44Z</time>
      </trkpt>
      <trkpt lat="47.25665" lon="-1.62744">
        <ele>-112</ele>
        <time>2012-01-14T14:08:46Z</time>
      </trkpt>
      <trkpt lat="47.25676" lon="-1.6274">
        <ele>-111.75</ele>
        <time>2012-01-14T14:08:48Z</time>
      </trkpt>
      <trkpt lat="47.25683" lon="-1.62729">
        <ele>-112.5</ele>
        <time>2012-01-14T14:08:52Z</time>
      </trkpt>
      <trkpt lat="47.25687" lon="-1.62713">
        <ele>-113</ele>
        <time>2012-01-14T14:08:55Z</time>
      </trkpt>
      <trkpt lat="47.25692" lon="-1.627">
        <ele>-112.5</ele>
        <time>2012-01-14T14:08:57Z</time>
      </trkpt>
      <trkpt lat="47.25698" lon="-1.62688">
        <ele>-111.5</ele>
        <time>2012-01-14T14:08:59Z</time>
      </trkpt>
      <trkpt lat="47.25703" lon="-1.62676">
        <ele>-110.5</ele>
        <time>2012-01-14T14:09:01Z</time>
      </trkpt>
      <trkpt lat="47.25709" lon="-1.62665">
        <ele>-109.75</ele>
        <time>2012-01-14T14:09:04Z</time>
      </trkpt>
      <trkpt lat="47.25715" lon="-1.62652">
        <ele>-109.25</ele>
        <time>2012-01-14T14:09:06Z</time>
      </trkpt>
      <trkpt lat="47.25721" lon="-1.62639">
        <ele>-109</ele>
        <time>2012-01-14T14:09:08Z</time>
      </trkpt>
      <trkpt lat="47.25727" lon="-1.62628">
        <ele>-108.75</ele>
        <time>2012-01-14T14:09:10Z</time>
      </trkpt>
      <trkpt lat="47.25735" lon="-1.62612">
        <ele>-107.5</ele>
        <time>2012-01-14T14:09:14Z</time>
      </trkpt>
      <trkpt lat="47.25742" lon="-1.62601">
        <ele>-106.75</ele>
        <time>2012-01-14T14:09:16Z</time>
      </trkpt>
      <trkpt lat="47.25749" lon="-1.62587">
        <ele>-106.25</ele>
        <time>2012-01-14T14:09:18Z</time>
      </trkpt>
      <trkpt lat="47.25755" lon="-1.62575">
        <ele>-106</ele>
        <time>2012-01-14T14:09:20Z</time>
      </trkpt>
      <trkpt lat="47.25763" lon="-1.62559">
        <ele>-105.25</ele>
        <time>2012-01-14T14:09:24Z</time>
      </trkpt>
      <trkpt lat="47.2577" lon="-1.62546">
        <ele>-105</ele>
        <time>2012-01-14T14:09:26Z</time>
      </trkpt>
      <trkpt lat="47.25778" lon="-1.62534">
        <ele>-105</ele>
        <time>2012-01-14T14:09:28Z</time>
      </trkpt>
      <trkpt lat="47.25786" lon="-1.62519">
        <ele>-104.75</ele>
        <time>2012-01-14T14:09:32Z</time>
      </trkpt>
      <trkpt lat="47.25795" lon="-1.62503">
        <ele>-104.25</ele>
        <time>2012-01-14T14:09:35Z</time>
      </trkpt>
      <trkpt lat="47.25801" lon="-1.62492">
        <ele>-104.75</ele>
        <time>2012-01-14T14:09:37Z</time>
      </trkpt>
      <trkpt lat="47.2581" lon="-1.62481">
        <ele>-105</ele>
        <time>2012-01-14T14:09:41Z</time>
      </trkpt>
      <trkpt lat="47.2582" lon="-1.62481">
        <ele>-105.5</ele>
        <time>2012-01-14T14:09:44Z</time>
      </trkpt>
      <trkpt lat="47.25825" lon="-1.62492">
        <ele>-106.25</ele>
        <time>2012-01-14T14:09:48Z</time>
      </trkpt>
      <trkpt lat="47.25829" lon="-1.62504">
        <ele>-107.25</ele>
        <time>2012-01-14T14:09:53Z</time>
      </trkpt>
      <trkpt lat="47.25834" lon="-1.6252">
        <ele>-108.75</ele>
        <time>2012-01-14T14:09:57Z</time>
      </trkpt>
      <trkpt lat="47.25838" lon="-1.62533">
        <ele>-110</ele>
        <time>2012-01-14T14:10:02Z</time>
      </trkpt>
      <trkpt lat="47.25842" lon="-1.62544">
        <ele>-110.25</ele>
        <time>2012-01-14T14:10:05Z</time>
      </trkpt>
      <trkpt lat="47.25847" lon="-1.62557">
        <ele>-111</ele>
        <time>2012-01-14T14:10:08Z</time>
      </trkpt>
      <trkpt lat="47.25854" lon="-1.62568">
        <ele>-110.5</ele>
        <time>2012-01-14T14:10:14Z</time>
      </trkpt>
      <trkpt lat="47.25865" lon="-1.62573">
        <ele>-109</ele>
        <time>2012-01-14T14:10:18Z</time>
      </trkpt>
      <trkpt lat="47.25873" lon="-1.62577">
        <ele>-108</ele>
        <time>2012-01-14T14:10:23Z</time>
      </trkpt>
      <trkpt lat="47.25885" lon="-1.62582">
        <ele>-108.25</ele>
        <time>2012-01-14T14:10:27Z</time>
      </trkpt>
      <trkpt lat="47.25896" lon="-1.62587">
        <ele>-106.75</ele>
        <time>2012-01-14T14:10:32Z</time>
      </trkpt>
      <trkpt lat="47.25908" lon="-1.62589">
        <ele>-106</ele>
        <time>2012-01-14T14:10:35Z</time>
      </trkpt>
      <trkpt lat="47.25918" lon="-1.62585">
        <ele>-106</ele>
        <time>2012-01-14T14:10:37Z</time>
      </trkpt>
      <trkpt lat="47.25928" lon="-1.62578">
        <ele>-106.25</ele>
        <time>2012-01-14T14:10:39Z</time>
      </trkpt>
      <trkpt lat="47.25939" lon="-1.6257">
        <ele>-107</ele>
        <time>2012-01-14T14:10:43Z</time>
      </trkpt>
      <trkpt lat="47.25951" lon="-1.6256">
        <ele>-108</ele>
        <time>2012-01-14T14:10:46Z</time>
      </trkpt>
      <trkpt lat="47.2596" lon="-1.62552">
        <ele>-108.75</ele>
        <time>2012-01-14T14:10:48Z</time>
      </trkpt>
      <trkpt lat="47.25969" lon="-1.62545">
        <ele>-109</ele>
        <time>2012-01-14T14:10:50Z</time>
      </trkpt>
      <trkpt lat="47.25978" lon="-1.62536">
        <ele>-109</ele>
        <time>2012-01-14T14:10:53Z</time>
      </trkpt>
      <trkpt lat="47.25989" lon="-1.62527">
        <ele>-109</ele>
        <time>2012-01-14T14:10:55Z</time>
      </trkpt>
      <trkpt lat="47.26001" lon="-1.62517">
        <ele>-109</ele>
        <time>2012-01-14T14:10:57Z</time>
      </trkpt>
      <trkpt lat="47.26012" lon="-1.62507">
        <ele>-109.25</ele>
        <time>2012-01-14T14:10:59Z</time>
      </trkpt>
      <trkpt lat="47.26023" lon="-1.62498">
        <ele>-109.75</ele>
        <time>2012-01-14T14:11:02Z</time>
      </trkpt>
      <trkpt lat="47.26033" lon="-1.62489">
        <ele>-110</ele>
        <time>2012-01-14T14:11:04Z</time>
      </trkpt>
      <trkpt lat="47.26043" lon="-1.62479">
        <ele>-110</ele>
        <time>2012-01-14T14:11:06Z</time>
      </trkpt>
      <trkpt lat="47.26053" lon="-1.62469">
        <ele>-109.75</ele>
        <time>2012-01-14T14:11:08Z</time>
      </trkpt>
      <trkpt lat="47.26061" lon="-1.62459">
        <ele>-109.25</ele>
        <time>2012-01-14T14:11:10Z</time>
      </trkpt>
      <trkpt lat="47.26071" lon="-1.62447">
        <ele>-108.25</ele>
        <time>2012-01-14T14:11:14Z</time>
      </trkpt>
      <trkpt lat="47.26079" lon="-1.62439">
        <ele>-107.5</ele>
        <time>2012-01-14T14:11:16Z</time>
      </trkpt>
      <trkpt lat="47.2609" lon="-1.62431">
        <ele>-106.75</ele>
        <time>2012-01-14T14:11:19Z</time>
      </trkpt>
      <trkpt lat="47.26098" lon="-1.62425">
        <ele>-104</ele>
        <time>2012-01-14T14:11:53Z</time>
      </trkpt>
      <trkpt lat="47.26105" lon="-1.62414">
        <ele>-104.75</ele>
        <time>2012-01-14T14:11:58Z</time>
      </trkpt>
      <trkpt lat="47.26114" lon="-1.62422">
        <ele>-105</ele>
        <time>2012-01-14T14:12:05Z</time>
      </trkpt>
      <trkpt lat="47.26114" lon="-1.62437">
        <ele>-105.75</ele>
        <time>2012-01-14T14:12:08Z</time>
      </trkpt>
      <trkpt lat="47.26119" lon="-1.62448">
        <ele>-106</ele>
        <time>2012-01-14T14:12:12Z</time>
      </trkpt>
      <trkpt lat="47.26128" lon="-1.62456">
        <ele>-106.25</ele>
        <time>2012-01-14T14:12:15Z</time>
      </trkpt>
      <trkpt lat="47.26137" lon="-1.62464">
        <ele>-106.75</ele>
        <time>2012-01-14T14:12:19Z</time>
      </trkpt>
      <trkpt lat="47.26146" lon="-1.6247">
        <ele>-108.5</ele>
        <time>2012-01-14T14:12:26Z</time>
      </trkpt>
      <trkpt lat="47.26155" lon="-1.62471">
        <ele>-108.5</ele>
        <time>2012-01-14T14:12:30Z</time>
      </trkpt>
      <trkpt lat="47.26165" lon="-1.62477">
        <ele>-110</ele>
        <time>2012-01-14T14:12:36Z</time>
      </trkpt>
      <trkpt lat="47.26175" lon="-1.62485">
        <ele>-110.25</ele>
        <time>2012-01-14T14:12:40Z</time>
      </trkpt>
      <trkpt lat="47.26186" lon="-1.62492">
        <ele>-110.5</ele>
        <time>2012-01-14T14:12:45Z</time>
      </trkpt>
      <trkpt lat="47.26198" lon="-1.62496">
        <ele>-110.75</ele>
        <time>2012-01-14T14:12:48Z</time>
      </trkpt>
      <trkpt lat="47.2621" lon="-1.62499">
        <ele>-110.75</ele>
        <time>2012-01-14T14:12:51Z</time>
      </trkpt>
      <trkpt lat="47.2622" lon="-1.62501">
        <ele>-110.5</ele>
        <time>2012-01-14T14:12:55Z</time>
      </trkpt>
      <trkpt lat="47.26231" lon="-1.62505">
        <ele>-109</ele>
        <time>2012-01-14T14:12:58Z</time>
      </trkpt>
      <trkpt lat="47.26242" lon="-1.62508">
        <ele>-107.75</ele>
        <time>2012-01-14T14:13:01Z</time>
      </trkpt>
      <trkpt lat="47.26254" lon="-1.62514">
        <ele>-108.5</ele>
        <time>2012-01-14T14:13:05Z</time>
      </trkpt>
      <trkpt lat="47.26264" lon="-1.62519">
        <ele>-110</ele>
        <time>2012-01-14T14:13:07Z</time>
      </trkpt>
      <trkpt lat="47.26272" lon="-1.62522">
        <ele>-111.25</ele>
        <time>2012-01-14T14:13:09Z</time>
      </trkpt>
      <trkpt lat="47.26283" lon="-1.62526">
        <ele>-112.75</ele>
        <time>2012-01-14T14:13:13Z</time>
      </trkpt>
      <trkpt lat="47.26295" lon="-1.62528">
        <ele>-114.25</ele>
        <time>2012-01-14T14:13:16Z</time>
      </trkpt>
      <trkpt lat="47.26304" lon="-1.6253">
        <ele>-116</ele>
        <time>2012-01-14T14:13:27Z</time>
      </trkpt>
      <trkpt lat="47.26314" lon="-1.62535">
        <ele>-115</ele>
        <time>2012-01-14T14:13:44Z</time>
      </trkpt>
      <trkpt lat="47.26323" lon="-1.62537">
        <ele>-116.75</ele>
        <time>2012-01-14T14:13:47Z</time>
      </trkpt>
      <trkpt lat="47.26334" lon="-1.62542">
        <ele>-116.5</ele>
        <time>2012-01-14T14:13:51Z</time>
      </trkpt>
      <trkpt lat="47.26347" lon="-1.62549">
        <ele>-115.75</ele>
        <time>2012-01-14T14:13:54Z</time>
      </trkpt>
      <trkpt lat="47.26357" lon="-1.62553">
        <ele>-116.5</ele>
        <time>2012-01-14T14:13:56Z</time>
      </trkpt>
      <trkpt lat="47.26366" lon="-1.62556">
        <ele>-117.25</ele>
        <time>2012-01-14T14:13:58Z</time>
      </trkpt>
      <trkpt lat="47.26379" lon="-1.62554">
        <ele>-116</ele>
        <time>2012-01-14T14:14:02Z</time>
      </trkpt>
      <trkpt lat="47.26393" lon="-1.62547">
        <ele>-114.75</ele>
        <time>2012-01-14T14:14:05Z</time>
      </trkpt>
      <trkpt lat="47.26402" lon="-1.62541">
        <ele>-115.25</ele>
        <time>2012-01-14T14:14:07Z</time>
      </trkpt>
      <trkpt lat="47.26411" lon="-1.62536">
        <ele>-115.25</ele>
        <time>2012-01-14T14:14:09Z</time>
      </trkpt>
      <trkpt lat="47.2642" lon="-1.62531">
        <ele>-114.75</ele>
        <time>2012-01-14T14:14:12Z</time>
      </trkpt>
      <trkpt lat="47.26432" lon="-1.62523">
        <ele>-113.5</ele>
        <time>2012-01-14T14:14:15Z</time>
      </trkpt>
      <trkpt lat="47.26442" lon="-1.62516">
        <ele>-113</ele>
        <time>2012-01-14T14:14:18Z</time>
      </trkpt>
      <trkpt lat="47.26451" lon="-1.62511">
        <ele>-113.25</ele>
        <time>2012-01-14T14:14:22Z</time>
      </trkpt>
      <trkpt lat="47.26461" lon="-1.625">
        <ele>-111</ele>
        <time>2012-01-14T14:14:25Z</time>
      </trkpt>
      <trkpt lat="47.2647" lon="-1.62493">
        <ele>-109</ele>
        <time>2012-01-14T14:14:27Z</time>
      </trkpt>
      <trkpt lat="47.26479" lon="-1.62488">
        <ele>-107</ele>
        <time>2012-01-14T14:14:33Z</time>
      </trkpt>
      <trkpt lat="47.26485" lon="-1.62475">
        <ele>-110</ele>
        <time>2012-01-14T14:14:47Z</time>
      </trkpt>
      <trkpt lat="47.26486" lon="-1.6246">
        <ele>-119.75</ele>
        <time>2012-01-14T14:15:04Z</time>
      </trkpt>
      <trkpt lat="47.2648" lon="-1.62444">
        <ele>-122.25</ele>
        <time>2012-01-14T14:15:07Z</time>
      </trkpt>
      <trkpt lat="47.26475" lon="-1.62429">
        <ele>-124</ele>
        <time>2012-01-14T14:15:11Z</time>
      </trkpt>
      <trkpt lat="47.26469" lon="-1.62412">
        <ele>-124.25</ele>
        <time>2012-01-14T14:15:14Z</time>
      </trkpt>
      <trkpt lat="47.26465" lon="-1.624">
        <ele>-125.75</ele>
        <time>2012-01-14T14:15:16Z</time>
      </trkpt>
      <trkpt lat="47.26461" lon="-1.62385">
        <ele>-127.75</ele>
        <time>2012-01-14T14:15:20Z</time>
      </trkpt>
      <trkpt lat="47.26458" lon="-1.62371">
        <ele>-129.5</ele>
        <time>2012-01-14T14:15:23Z</time>
      </trkpt>
      <trkpt lat="47.26456" lon="-1.62355">
        <ele>-131.5</ele>
        <time>2012-01-14T14:15:26Z</time>
      </trkpt>
      <trkpt lat="47.26455" lon="-1.62338">
        <ele>-133.25</ele>
        <time>2012-01-14T14:15:30Z</time>
      </trkpt>
      <trkpt lat="47.26454" lon="-1.62322">
        <ele>-133.25</ele>
        <time>2012-01-14T14:15:32Z</time>
      </trkpt>
      <trkpt lat="47.26452" lon="-1.62304">
        <ele>-131.75</ele>
        <time>2012-01-14T14:15:34Z</time>
      </trkpt>
      <trkpt lat="47.2645" lon="-1.62287">
        <ele>-129.5</ele>
        <time>2012-01-14T14:15:36Z</time>
      </trkpt>
      <trkpt lat="47.26449" lon="-1.62272">
        <ele>-127</ele>
        <time>2012-01-14T14:15:39Z</time>
      </trkpt>
      <trkpt lat="47.26447" lon="-1.62257">
        <ele>-125.75</ele>
        <time>2012-01-14T14:15:41Z</time>
      </trkpt>
      <trkpt lat="47.26445" lon="-1.62241">
        <ele>-124.75</ele>
        <time>2012-01-14T14:15:43Z</time>
      </trkpt>
      <trkpt lat="47.26441" lon="-1.62225">
        <ele>-120.25</ele>
        <time>2012-01-14T14:15:46Z</time>
      </trkpt>
      <trkpt lat="47.26436" lon="-1.62211">
        <ele>-116.5</ele>
        <time>2012-01-14T14:15:51Z</time>
      </trkpt>
      <trkpt lat="47.26429" lon="-1.62202">
        <ele>-104.75</ele>
        <time>2012-01-14T14:15:59Z</time>
      </trkpt>
      <trkpt lat="47.26425" lon="-1.6219">
        <ele>-109</ele>
        <time>2012-01-14T14:16:45Z</time>
      </trkpt>
      <trkpt lat="47.26433" lon="-1.62182">
        <ele>-108.75</ele>
        <time>2012-01-14T14:17:05Z</time>
      </trkpt>
      <trkpt lat="47.26443" lon="-1.62177">
        <ele>-112.75</ele>
        <time>2012-01-14T14:17:08Z</time>
      </trkpt>
      <trkpt lat="47.26453" lon="-1.62172">
        <ele>-114</ele>
        <time>2012-01-14T14:17:12Z</time>
      </trkpt>
      <trkpt lat="47.26466" lon="-1.62169">
        <ele>-115.25</ele>
        <time>2012-01-14T14:17:15Z</time>
      </trkpt>
      <trkpt lat="47.26474" lon="-1.62163">
        <ele>-116.5</ele>
        <time>2012-01-14T14:17:17Z</time>
      </trkpt>
      <trkpt lat="47.26485" lon="-1.62155">
        <ele>-115.75</ele>
        <time>2012-01-14T14:17:21Z</time>
      </trkpt>
      <trkpt lat="47.26496" lon="-1.62152">
        <ele>-114.5</ele>
        <time>2012-01-14T14:17:24Z</time>
      </trkpt>
      <trkpt lat="47.26505" lon="-1.62152">
        <ele>-112.75</ele>
        <time>2012-01-14T14:17:26Z</time>
      </trkpt>
      <trkpt lat="47.26514" lon="-1.62151">
        <ele>-111</ele>
        <time>2012-01-14T14:17:28Z</time>
      </trkpt>
      <trkpt lat="47.26527" lon="-1.62151">
        <ele>-109</ele>
        <time>2012-01-14T14:17:32Z</time>
      </trkpt>
      <trkpt lat="47.26538" lon="-1.62151">
        <ele>-107</ele>
        <time>2012-01-14T14:17:34Z</time>
      </trkpt>
      <trkpt lat="47.26548" lon="-1.62151">
        <ele>-104.5</ele>
        <time>2012-01-14T14:17:36Z</time>
      </trkpt>
      <trkpt lat="47.26558" lon="-1.62151">
        <ele>-102.75</ele>
        <time>2012-01-14T14:17:38Z</time>
      </trkpt>
      <trkpt lat="47.26569" lon="-1.6215">
        <ele>-101.75</ele>
        <time>2012-01-14T14:17:42Z</time>
      </trkpt>
      <trkpt lat="47.2658" lon="-1.62146">
        <ele>-101</ele>
        <time>2012-01-14T14:17:46Z</time>
      </trkpt>
      <trkpt lat="47.26591" lon="-1.62146">
        <ele>-99.25</ele>
        <time>2012-01-14T14:17:50Z</time>
      </trkpt>
      <trkpt lat="47.266" lon="-1.62147">
        <ele>-96.5</ele>
        <time>2012-01-14T14:17:52Z</time>
      </trkpt>
      <trkpt lat="47.26609" lon="-1.62151">
        <ele>-93.5</ele>
        <time>2012-01-14T14:17:54Z</time>
      </trkpt>
      <trkpt lat="47.26618" lon="-1.62154">
        <ele>-90</ele>
        <time>2012-01-14T14:17:58Z</time>
      </trkpt>
      <trkpt lat="47.26627" lon="-1.62156">
        <ele>-87.5</ele>
        <time>2012-01-14T14:18:02Z</time>
      </trkpt>
      <trkpt lat="47.26637" lon="-1.62162">
        <ele>-84.75</ele>
        <time>2012-01-14T14:18:05Z</time>
      </trkpt>
      <trkpt lat="47.26647" lon="-1.62165">
        <ele>-80.25</ele>
        <time>2012-01-14T14:18:09Z</time>
      </trkpt>
      <trkpt lat="47.26657" lon="-1.6217">
        <ele>-79.25</ele>
        <time>2012-01-14T14:18:14Z</time>
      </trkpt>
      <trkpt lat="47.26664" lon="-1.62179">
        <ele>-81.5</ele>
        <time>2012-01-14T14:18:18Z</time>
      </trkpt>
      <trkpt lat="47.26669" lon="-1.62192">
        <ele>-83.75</ele>
        <time>2012-01-14T14:18:24Z</time>
      </trkpt>
      <trkpt lat="47.26673" lon="-1.62205">
        <ele>-88.5</ele>
        <time>2012-01-14T14:18:28Z</time>
      </trkpt>
      <trkpt lat="47.2668" lon="-1.62218">
        <ele>-91.5</ele>
        <time>2012-01-14T14:18:33Z</time>
      </trkpt>
      <trkpt lat="47.2669" lon="-1.62231">
        <ele>-94</ele>
        <time>2012-01-14T14:18:36Z</time>
      </trkpt>
      <trkpt lat="47.26696" lon="-1.62242">
        <ele>-90.5</ele>
        <time>2012-01-14T14:18:41Z</time>
      </trkpt>
      <trkpt lat="47.26706" lon="-1.62255">
        <ele>-87.25</ele>
        <time>2012-01-14T14:18:45Z</time>
      </trkpt>
      <trkpt lat="47.26716" lon="-1.62264">
        <ele>-85.25</ele>
        <time>2012-01-14T14:18:47Z</time>
      </trkpt>
      <trkpt lat="47.26728" lon="-1.6227">
        <ele>-85</ele>
        <time>2012-01-14T14:18:50Z</time>
      </trkpt>
      <trkpt lat="47.2674" lon="-1.62275">
        <ele>-85.75</ele>
        <time>2012-01-14T14:18:52Z</time>
      </trkpt>
      <trkpt lat="47.26754" lon="-1.6228">
        <ele>-85.5</ele>
        <time>2012-01-14T14:18:54Z</time>
      </trkpt>
      <trkpt lat="47.26767" lon="-1.62285">
        <ele>-84</ele>
        <time>2012-01-14T14:18:56Z</time>
      </trkpt>
      <trkpt lat="47.26778" lon="-1.6229">
        <ele>-82</ele>
        <time>2012-01-14T14:18:58Z</time>
      </trkpt>
      <trkpt lat="47.26788" lon="-1.62296">
        <ele>-80.75</ele>
        <time>2012-01-14T14:19:00Z</time>
      </trkpt>
      <trkpt lat="47.26798" lon="-1.62304">
        <ele>-79.5</ele>
        <time>2012-01-14T14:19:02Z</time>
      </trkpt>
      <trkpt lat="47.26807" lon="-1.62313">
        <ele>-78</ele>
        <time>2012-01-14T14:19:05Z</time>
      </trkpt>
      <trkpt lat="47.26814" lon="-1.62323">
        <ele>-77.25</ele>
        <time>2012-01-14T14:19:07Z</time>
      </trkpt>
      <trkpt lat="47.2682" lon="-1.62335">
        <ele>-76</ele>
        <time>2012-01-14T14:19:09Z</time>
      </trkpt>
      <trkpt lat="47.26825" lon="-1.62349">
        <ele>-75</ele>
        <time>2012-01-14T14:19:11Z</time>
      </trkpt>
      <trkpt lat="47.26831" lon="-1.62363">
        <ele>-75</ele>
        <time>2012-01-14T14:19:15Z</time>
      </trkpt>
      <trkpt lat="47.26838" lon="-1.62375">
        <ele>-75.25</ele>
        <time>2012-01-14T14:19:18Z</time>
      </trkpt>
      <trkpt lat="47.26845" lon="-1.62386">
        <ele>-76</ele>
        <time>2012-01-14T14:19:21Z</time>
      </trkpt>
      <trkpt lat="47.26852" lon="-1.62397">
        <ele>-76.25</ele>
        <time>2012-01-14T14:19:26Z</time>
      </trkpt>
      <trkpt lat="47.26859" lon="-1.62405">
        <ele>-76</ele>
        <time>2012-01-14T14:19:29Z</time>
      </trkpt>
      <trkpt lat="47.26867" lon="-1.62412">
        <ele>-75.75</ele>
        <time>2012-01-14T14:19:32Z</time>
      </trkpt>
      <trkpt lat="47.26877" lon="-1.62418">
        <ele>-76</ele>
        <time>2012-01-14T14:19:37Z</time>
      </trkpt>
      <trkpt lat="47.26886" lon="-1.62423">
        <ele>-75.5</ele>
        <time>2012-01-14T14:19:40Z</time>
      </trkpt>
      <trkpt lat="47.26895" lon="-1.62425">
        <ele>-77.75</ele>
        <time>2012-01-14T14:19:55Z</time>
      </trkpt>
      <trkpt lat="47.26904" lon="-1.62418">
        <ele>-74</ele>
        <time>2012-01-14T14:21:06Z</time>
      </trkpt>
      <trkpt lat="47.26914" lon="-1.62411">
        <ele>-75.75</ele>
        <time>2012-01-14T14:21:09Z</time>
      </trkpt>
      <trkpt lat="47.26923" lon="-1.62409">
        <ele>-77</ele>
        <time>2012-01-14T14:21:13Z</time>
      </trkpt>
      <trkpt lat="47.26934" lon="-1.62407">
        <ele>-79.25</ele>
        <time>2012-01-14T14:21:17Z</time>
      </trkpt>
      <trkpt lat="47.26946" lon="-1.62402">
        <ele>-82.75</ele>
        <time>2012-01-14T14:21:22Z</time>
      </trkpt>
      <trkpt lat="47.26956" lon="-1.62396">
        <ele>-83.75</ele>
        <time>2012-01-14T14:21:25Z</time>
      </trkpt>
      <trkpt lat="47.26964" lon="-1.6239">
        <ele>-84.75</ele>
        <time>2012-01-14T14:21:27Z</time>
      </trkpt>
      <trkpt lat="47.26975" lon="-1.62383">
        <ele>-86.25</ele>
        <time>2012-01-14T14:21:30Z</time>
      </trkpt>
      <trkpt lat="47.26985" lon="-1.62376">
        <ele>-86</ele>
        <time>2012-01-14T14:21:34Z</time>
      </trkpt>
      <trkpt lat="47.26996" lon="-1.62369">
        <ele>-87.25</ele>
        <time>2012-01-14T14:21:37Z</time>
      </trkpt>
      <trkpt lat="47.27006" lon="-1.62363">
        <ele>-88</ele>
        <time>2012-01-14T14:21:40Z</time>
      </trkpt>
      <trkpt lat="47.27015" lon="-1.62357">
        <ele>-88.25</ele>
        <time>2012-01-14T14:21:44Z</time>
      </trkpt>
      <trkpt lat="47.27023" lon="-1.62351">
        <ele>-89</ele>
        <time>2012-01-14T14:21:47Z</time>
      </trkpt>
      <trkpt lat="47.27033" lon="-1.62344">
        <ele>-89</ele>
        <time>2012-01-14T14:21:50Z</time>
      </trkpt>
      <trkpt lat="47.27042" lon="-1.62339">
        <ele>-90.25</ele>
        <time>2012-01-14T14:21:55Z</time>
      </trkpt>
      <trkpt lat="47.2705" lon="-1.62333">
        <ele>-91</ele>
        <time>2012-01-14T14:21:58Z</time>
      </trkpt>
      <trkpt lat="47.27061" lon="-1.62327">
        <ele>-93.5</ele>
        <time>2012-01-14T14:22:03Z</time>
      </trkpt>
      <trkpt lat="47.27071" lon="-1.6232">
        <ele>-93.75</ele>
        <time>2012-01-14T14:22:07Z</time>
      </trkpt>
      <trkpt lat="47.27076" lon="-1.62308">
        <ele>-96.25</ele>
        <time>2012-01-14T14:22:13Z</time>
      </trkpt>
      <trkpt lat="47.27075" lon="-1.62291">
        <ele>-100.5</ele>
        <time>2012-01-14T14:22:17Z</time>
      </trkpt>
      <trkpt lat="47.27075" lon="-1.62277">
        <ele>-98.75</ele>
        <time>2012-01-14T14:22:20Z</time>
      </trkpt>
      <trkpt lat="47.27074" lon="-1.62262">
        <ele>-96.75</ele>
        <time>2012-01-14T14:22:25Z</time>
      </trkpt>
      <trkpt lat="47.27073" lon="-1.62248">
        <ele>-91</ele>
        <time>2012-01-14T14:22:37Z</time>
      </trkpt>
      <trkpt lat="47.27064" lon="-1.62245">
        <ele>-86.75</ele>
        <time>2012-01-14T14:23:18Z</time>
      </trkpt>
      <trkpt lat="47.27051" lon="-1.62246">
        <ele>-86.75</ele>
        <time>2012-01-14T14:23:22Z</time>
      </trkpt>
      <trkpt lat="47.27039" lon="-1.62246">
        <ele>-86.25</ele>
        <time>2012-01-14T14:23:24Z</time>
      </trkpt>
      <trkpt lat="47.27022" lon="-1.62246">
        <ele>-84</ele>
        <time>2012-01-14T14:23:26Z</time>
      </trkpt>
      <trkpt lat="47.27006" lon="-1.62242">
        <ele>-81.75</ele>
        <time>2012-01-14T14:23:28Z</time>
      </trkpt>
      <trkpt lat="47.26998" lon="-1.62232">
        <ele>-80.75</ele>
        <time>2012-01-14T14:23:30Z</time>
      </trkpt>
      <trkpt lat="47.26994" lon="-1.62216">
        <ele>-80.25</ele>
        <time>2012-01-14T14:23:33Z</time>
      </trkpt>
      <trkpt lat="47.26994" lon="-1.62193">
        <ele>-78.5</ele>
        <time>2012-01-14T14:23:35Z</time>
      </trkpt>
      <trkpt lat="47.26995" lon="-1.62179">
        <ele>-77.75</ele>
        <time>2012-01-14T14:23:36Z</time>
      </trkpt>
      <trkpt lat="47.26996" lon="-1.62166">
        <ele>-77.25</ele>
        <time>2012-01-14T14:23:37Z</time>
      </trkpt>
      <trkpt lat="47.26996" lon="-1.62152">
        <ele>-76.75</ele>
        <time>2012-01-14T14:23:38Z</time>
      </trkpt>
      <trkpt lat="47.26999" lon="-1.6213">
        <ele>-75</ele>
        <time>2012-01-14T14:23:40Z</time>
      </trkpt>
      <trkpt lat="47.27001" lon="-1.62107">
        <ele>-71.25</ele>
        <time>2012-01-14T14:23:43Z</time>
      </trkpt>
      <trkpt lat="47.27002" lon="-1.62085">
        <ele>-69</ele>
        <time>2012-01-14T14:23:45Z</time>
      </trkpt>
      <trkpt lat="47.26998" lon="-1.62064">
        <ele>-68.5</ele>
        <time>2012-01-14T14:23:47Z</time>
      </trkpt>
      <trkpt lat="47.26993" lon="-1.62046">
        <ele>-68.75</ele>
        <time>2012-01-14T14:23:49Z</time>
      </trkpt>
      <trkpt lat="47.26988" lon="-1.62032">
        <ele>-69</ele>
        <time>2012-01-14T14:23:52Z</time>
      </trkpt>
      <trkpt lat="47.26983" lon="-1.62018">
        <ele>-69</ele>
        <time>2012-01-14T14:23:54Z</time>
      </trkpt>
      <trkpt lat="47.26973" lon="-1.62003">
        <ele>-69</ele>
        <time>2012-01-14T14:23:56Z</time>
      </trkpt>
      <trkpt lat="47.26962" lon="-1.61991">
        <ele>-68</ele>
        <time>2012-01-14T14:23:58Z</time>
      </trkpt>
      <trkpt lat="47.2695" lon="-1.61994">
        <ele>-68.5</ele>
        <time>2012-01-14T14:24:02Z</time>
      </trkpt>
      <trkpt lat="47.26942" lon="-1.62005">
        <ele>-72.25</ele>
        <time>2012-01-14T14:24:05Z</time>
      </trkpt>
      <trkpt lat="47.26935" lon="-1.62015">
        <ele>-76.5</ele>
        <time>2012-01-14T14:24:09Z</time>
      </trkpt>
      <trkpt lat="47.26928" lon="-1.62025">
        <ele>-74.75</ele>
        <time>2012-01-14T14:24:16Z</time>
      </trkpt>
      <trkpt lat="47.26921" lon="-1.62036">
        <ele>-81.5</ele>
        <time>2012-01-14T14:25:49Z</time>
      </trkpt>
      <trkpt lat="47.26915" lon="-1.62046">
        <ele>-66.75</ele>
        <time>2012-01-14T14:26:04Z</time>
      </trkpt>
      <trkpt lat="47.26925" lon="-1.62043">
        <ele>-89</ele>
        <time>2012-01-14T14:27:26Z</time>
      </trkpt>
      <trkpt lat="47.26932" lon="-1.62034">
        <ele>-94.75</ele>
        <time>2012-01-14T14:27:29Z</time>
      </trkpt>
      <trkpt lat="47.26934" lon="-1.6202">
        <ele>-98.75</ele>
        <time>2012-01-14T14:27:39Z</time>
      </trkpt>
      <trkpt lat="47.26938" lon="-1.62008">
        <ele>-92.75</ele>
        <time>2012-01-14T14:27:55Z</time>
      </trkpt>
      <trkpt lat="47.2693" lon="-1.62003">
        <ele>-72</ele>
        <time>2012-01-14T14:28:27Z</time>
      </trkpt>
      <trkpt lat="47.26939" lon="-1.61995">
        <ele>-78</ele>
        <time>2012-01-14T14:28:55Z</time>
      </trkpt>
      <trkpt lat="47.26931" lon="-1.62004">
        <ele>-69.5</ele>
        <time>2012-01-14T14:29:26Z</time>
      </trkpt>
      <trkpt lat="47.26937" lon="-1.61993">
        <ele>-77.5</ele>
        <time>2012-01-14T14:29:57Z</time>
      </trkpt>
      <trkpt lat="47.2694" lon="-1.6198">
        <ele>-83.25</ele>
        <time>2012-01-14T14:30:04Z</time>
      </trkpt>
      <trkpt lat="47.2694" lon="-1.61966">
        <ele>-89</ele>
        <time>2012-01-14T14:30:18Z</time>
      </trkpt>
      <trkpt lat="47.26933" lon="-1.61957">
        <ele>-93.25</ele>
        <time>2012-01-14T14:30:40Z</time>
      </trkpt>
      <trkpt lat="47.26923" lon="-1.61953">
        <ele>-92.5</ele>
        <time>2012-01-14T14:30:50Z</time>
      </trkpt>
      <trkpt lat="47.26914" lon="-1.61951">
        <ele>-95.5</ele>
        <time>2012-01-14T14:30:58Z</time>
      </trkpt>
      <trkpt lat="47.26904" lon="-1.61947">
        <ele>-101</ele>
        <time>2012-01-14T14:31:06Z</time>
      </trkpt>
      <trkpt lat="47.26895" lon="-1.61943">
        <ele>-106.5</ele>
        <time>2012-01-14T14:31:15Z</time>
      </trkpt>
      <trkpt lat="47.26885" lon="-1.6194">
        <ele>-107.5</ele>
        <time>2012-01-14T14:31:22Z</time>
      </trkpt>
      <trkpt lat="47.26875" lon="-1.6194">
        <ele>-113</ele>
        <time>2012-01-14T14:31:27Z</time>
      </trkpt>
      <trkpt lat="47.26866" lon="-1.61934">
        <ele>-111</ele>
        <time>2012-01-14T14:31:36Z</time>
      </trkpt>
      <trkpt lat="47.26859" lon="-1.61924">
        <ele>-108</ele>
        <time>2012-01-14T14:31:42Z</time>
      </trkpt>
      <trkpt lat="47.26856" lon="-1.61911">
        <ele>-112.25</ele>
        <time>2012-01-14T14:31:58Z</time>
      </trkpt>
      <trkpt lat="47.26858" lon="-1.61897">
        <ele>-107</ele>
        <time>2012-01-14T14:32:14Z</time>
      </trkpt>
      <trkpt lat="47.26857" lon="-1.61883">
        <ele>-105</ele>
        <time>2012-01-14T14:32:21Z</time>
      </trkpt>
      <trkpt lat="47.26858" lon="-1.61869">
        <ele>-106.25</ele>
        <time>2012-01-14T14:32:26Z</time>
      </trkpt>
      <trkpt lat="47.26865" lon="-1.6186">
        <ele>-109.75</ele>
        <time>2012-01-14T14:32:37Z</time>
      </trkpt>
      <trkpt lat="47.26865" lon="-1.61846">
        <ele>-99.25</ele>
        <time>2012-01-14T14:33:10Z</time>
      </trkpt>
      <trkpt lat="47.26868" lon="-1.61832">
        <ele>-104</ele>
        <time>2012-01-14T14:33:19Z</time>
      </trkpt>
      <trkpt lat="47.26868" lon="-1.61817">
        <ele>-107.5</ele>
        <time>2012-01-14T14:33:32Z</time>
      </trkpt>
      <trkpt lat="47.26867" lon="-1.61804">
        <ele>-110</ele>
        <time>2012-01-14T14:33:39Z</time>
      </trkpt>
      <trkpt lat="47.26871" lon="-1.6179">
        <ele>-115</ele>
        <time>2012-01-14T14:33:45Z</time>
      </trkpt>
      <trkpt lat="47.26872" lon="-1.61774">
        <ele>-120</ele>
        <time>2012-01-14T14:33:53Z</time>
      </trkpt>
      <trkpt lat="47.2687" lon="-1.6176">
        <ele>-118.75</ele>
        <time>2012-01-14T14:33:59Z</time>
      </trkpt>
      <trkpt lat="47.26861" lon="-1.61756">
        <ele>-120.25</ele>
        <time>2012-01-14T14:34:07Z</time>
      </trkpt>
      <trkpt lat="47.26851" lon="-1.61759">
        <ele>-113</ele>
        <time>2012-01-14T14:34:16Z</time>
      </trkpt>
      <trkpt lat="47.26841" lon="-1.61754">
        <ele>-111.25</ele>
        <time>2012-01-14T14:34:27Z</time>
      </trkpt>
      <trkpt lat="47.2683" lon="-1.61752">
        <ele>-110.75</ele>
        <time>2012-01-14T14:34:32Z</time>
      </trkpt>
      <trkpt lat="47.26823" lon="-1.6174">
        <ele>-113.75</ele>
        <time>2012-01-14T14:34:37Z</time>
      </trkpt>
      <trkpt lat="47.26816" lon="-1.61728">
        <ele>-113.25</ele>
        <time>2012-01-14T14:34:43Z</time>
      </trkpt>
      <trkpt lat="47.26811" lon="-1.61715">
        <ele>-111.75</ele>
        <time>2012-01-14T14:34:47Z</time>
      </trkpt>
      <trkpt lat="47.26804" lon="-1.61706">
        <ele>-110.25</ele>
        <time>2012-01-14T14:34:53Z</time>
      </trkpt>
      <trkpt lat="47.26795" lon="-1.61712">
        <ele>-103</ele>
        <time>2012-01-14T14:35:03Z</time>
      </trkpt>
      <trkpt lat="47.26786" lon="-1.61712">
        <ele>-104.25</ele>
        <time>2012-01-14T14:35:11Z</time>
      </trkpt>
      <trkpt lat="47.26779" lon="-1.6172">
        <ele>-97</ele>
        <time>2012-01-14T14:35:22Z</time>
      </trkpt>
      <trkpt lat="47.26773" lon="-1.6173">
        <ele>-93</ele>
        <time>2012-01-14T14:36:24Z</time>
      </trkpt>
      <trkpt lat="47.26781" lon="-1.61721">
        <ele>-91.75</ele>
        <time>2012-01-14T14:39:33Z</time>
      </trkpt>
      <trkpt lat="47.26775" lon="-1.61732">
        <ele>-95.5</ele>
        <time>2012-01-14T14:40:17Z</time>
      </trkpt>
      <trkpt lat="47.26766" lon="-1.61725">
        <ele>-97.75</ele>
        <time>2012-01-14T14:40:35Z</time>
      </trkpt>
      <trkpt lat="47.26758" lon="-1.61716">
        <ele>-96.5</ele>
        <time>2012-01-14T14:40:43Z</time>
      </trkpt>
      <trkpt lat="47.26749" lon="-1.61712">
        <ele>-95.25</ele>
        <time>2012-01-14T14:40:54Z</time>
      </trkpt>
      <trkpt lat="47.26745" lon="-1.61699">
        <ele>-93.25</ele>
        <time>2012-01-14T14:41:08Z</time>
      </trkpt>
      <trkpt lat="47.26741" lon="-1.61687">
        <ele>-94.25</ele>
        <time>2012-01-14T14:41:29Z</time>
      </trkpt>
      <trkpt lat="47.26736" lon="-1.61675">
        <ele>-95</ele>
        <time>2012-01-14T14:41:41Z</time>
      </trkpt>
      <trkpt lat="47.26744" lon="-1.61669">
        <ele>-85</ele>
        <time>2012-01-14T14:42:19Z</time>
      </trkpt>
      <trkpt lat="47.26735" lon="-1.61673">
        <ele>-82.75</ele>
        <time>2012-01-14T14:42:41Z</time>
      </trkpt>
      <trkpt lat="47.26723" lon="-1.61671">
        <ele>-80.75</ele>
        <time>2012-01-14T14:43:39Z</time>
      </trkpt>
      <trkpt lat="47.26714" lon="-1.61668">
        <ele>-83.5</ele>
        <time>2012-01-14T14:43:45Z</time>
      </trkpt>
      <trkpt lat="47.26704" lon="-1.61672">
        <ele>-87.5</ele>
        <time>2012-01-14T14:43:53Z</time>
      </trkpt>
      <trkpt lat="47.26694" lon="-1.61676">
        <ele>-85.5</ele>
        <time>2012-01-14T14:43:57Z</time>
      </trkpt>
      <trkpt lat="47.26684" lon="-1.61677">
        <ele>-85.75</ele>
        <time>2012-01-14T14:44:13Z</time>
      </trkpt>
      <trkpt lat="47.26675" lon="-1.6168">
        <ele>-86.5</ele>
        <time>2012-01-14T14:44:20Z</time>
      </trkpt>
      <trkpt lat="47.26665" lon="-1.61679">
        <ele>-82.5</ele>
        <time>2012-01-14T14:44:23Z</time>
      </trkpt>
      <trkpt lat="47.26656" lon="-1.61675">
        <ele>-80.5</ele>
        <time>2012-01-14T14:44:26Z</time>
      </trkpt>
      <trkpt lat="47.26649" lon="-1.61666">
        <ele>-83.75</ele>
        <time>2012-01-14T14:44:36Z</time>
      </trkpt>
      <trkpt lat="47.26642" lon="-1.61659">
        <ele>-90</ele>
        <time>2012-01-14T14:44:52Z</time>
      </trkpt>
      <trkpt lat="47.2664" lon="-1.61645">
        <ele>-90.5</ele>
        <time>2012-01-14T14:45:16Z</time>
      </trkpt>
      <trkpt lat="47.26641" lon="-1.61632">
        <ele>-90.75</ele>
        <time>2012-01-14T14:45:50Z</time>
      </trkpt>
      <trkpt lat="47.2664" lon="-1.61618">
        <ele>-96.75</ele>
        <time>2012-01-14T14:46:09Z</time>
      </trkpt>
      <trkpt lat="47.26638" lon="-1.61605">
        <ele>-99.75</ele>
        <time>2012-01-14T14:46:19Z</time>
      </trkpt>
      <trkpt lat="47.26631" lon="-1.61589">
        <ele>-103.25</ele>
        <time>2012-01-14T14:46:25Z</time>
      </trkpt>
      <trkpt lat="47.26626" lon="-1.61576">
        <ele>-104.75</ele>
        <time>2012-01-14T14:46:28Z</time>
      </trkpt>
      <trkpt lat="47.26624" lon="-1.61562">
        <ele>-102.25</ele>
        <time>2012-01-14T14:46:37Z</time>
      </trkpt>
      <trkpt lat="47.26623" lon="-1.61547">
        <ele>-102.75</ele>
        <time>2012-01-14T14:46:53Z</time>
      </trkpt>
      <trkpt lat="47.26617" lon="-1.61535">
        <ele>-101.25</ele>
        <time>2012-01-14T14:46:57Z</time>
      </trkpt>
      <trkpt lat="47.26609" lon="-1.61526">
        <ele>-97.5</ele>
        <time>2012-01-14T14:47:04Z</time>
      </trkpt>
      <trkpt lat="47.26599" lon="-1.61522">
        <ele>-97</ele>
        <time>2012-01-14T14:47:09Z</time>
      </trkpt>
      <trkpt lat="47.2659" lon="-1.61519">
        <ele>-96</ele>
        <time>2012-01-14T14:47:14Z</time>
      </trkpt>
      <trkpt lat="47.2658" lon="-1.61516">
        <ele>-95</ele>
        <time>2012-01-14T14:47:18Z</time>
      </trkpt>
      <trkpt lat="47.2657" lon="-1.61519">
        <ele>-94.75</ele>
        <time>2012-01-14T14:47:23Z</time>
      </trkpt>
      <trkpt lat="47.26563" lon="-1.61528">
        <ele>-85.5</ele>
        <time>2012-01-14T14:47:44Z</time>
      </trkpt>
      <trkpt lat="47.26554" lon="-1.61521">
        <ele>-84.5</ele>
        <time>2012-01-14T14:49:14Z</time>
      </trkpt>
      <trkpt lat="47.26549" lon="-1.61508">
        <ele>-85.5</ele>
        <time>2012-01-14T14:49:20Z</time>
      </trkpt>
      <trkpt lat="47.26544" lon="-1.61495">
        <ele>-83</ele>
        <time>2012-01-14T14:49:27Z</time>
      </trkpt>
      <trkpt lat="47.26538" lon="-1.61487">
        <ele>-80.25</ele>
        <time>2012-01-14T14:50:07Z</time>
      </trkpt>
      <trkpt lat="47.26529" lon="-1.6149">
        <ele>-87.75</ele>
        <time>2012-01-14T14:51:06Z</time>
      </trkpt>
      <trkpt lat="47.2652" lon="-1.61494">
        <ele>-87.5</ele>
        <time>2012-01-14T14:51:18Z</time>
      </trkpt>
      <trkpt lat="47.26511" lon="-1.61492">
        <ele>-86.5</ele>
        <time>2012-01-14T14:53:06Z</time>
      </trkpt>
      <trkpt lat="47.26503" lon="-1.61482">
        <ele>-88.75</ele>
        <time>2012-01-14T14:53:13Z</time>
      </trkpt>
      <trkpt lat="47.26497" lon="-1.61473">
        <ele>-91.75</ele>
        <time>2012-01-14T14:53:17Z</time>
      </trkpt>
      <trkpt lat="47.2649" lon="-1.61464">
        <ele>-93.75</ele>
        <time>2012-01-14T14:53:20Z</time>
      </trkpt>
      <trkpt lat="47.26483" lon="-1.61457">
        <ele>-97</ele>
        <time>2012-01-14T14:53:25Z</time>
      </trkpt>
      <trkpt lat="47.26472" lon="-1.61451">
        <ele>-97.5</ele>
        <time>2012-01-14T14:53:29Z</time>
      </trkpt>
      <trkpt lat="47.26462" lon="-1.61448">
        <ele>-93.5</ele>
        <time>2012-01-14T14:53:33Z</time>
      </trkpt>
      <trkpt lat="47.26452" lon="-1.61445">
        <ele>-89.5</ele>
        <time>2012-01-14T14:53:37Z</time>
      </trkpt>
      <trkpt lat="47.26441" lon="-1.61441">
        <ele>-86.75</ele>
        <time>2012-01-14T14:53:42Z</time>
      </trkpt>
      <trkpt lat="47.26431" lon="-1.61438">
        <ele>-83.75</ele>
        <time>2012-01-14T14:53:45Z</time>
      </trkpt>
      <trkpt lat="47.26421" lon="-1.61435">
        <ele>-81.75</ele>
        <time>2012-01-14T14:53:50Z</time>
      </trkpt>
      <trkpt lat="47.26413" lon="-1.61429">
        <ele>-80</ele>
        <time>2012-01-14T14:53:56Z</time>
      </trkpt>
      <trkpt lat="47.26404" lon="-1.61428">
        <ele>-78.25</ele>
        <time>2012-01-14T14:54:00Z</time>
      </trkpt>
      <trkpt lat="47.26394" lon="-1.61422">
        <ele>-77</ele>
        <time>2012-01-14T14:54:03Z</time>
      </trkpt>
      <trkpt lat="47.26385" lon="-1.61412">
        <ele>-75.75</ele>
        <time>2012-01-14T14:54:06Z</time>
      </trkpt>
      <trkpt lat="47.26378" lon="-1.61401">
        <ele>-74.25</ele>
        <time>2012-01-14T14:54:10Z</time>
      </trkpt>
      <trkpt lat="47.26372" lon="-1.6139">
        <ele>-70.5</ele>
        <time>2012-01-14T14:54:14Z</time>
      </trkpt>
      <trkpt lat="47.26369" lon="-1.61378">
        <ele>-63.75</ele>
        <time>2012-01-14T14:54:27Z</time>
      </trkpt>
      <trkpt lat="47.26374" lon="-1.61367">
        <ele>-66</ele>
        <time>2012-01-14T14:55:39Z</time>
      </trkpt>
      <trkpt lat="47.26372" lon="-1.61384">
        <ele>-65.25</ele>
        <time>2012-01-14T14:55:51Z</time>
      </trkpt>
      <trkpt lat="47.26369" lon="-1.61401">
        <ele>-63.5</ele>
        <time>2012-01-14T14:55:55Z</time>
      </trkpt>
      <trkpt lat="47.26366" lon="-1.61419">
        <ele>-65</ele>
        <time>2012-01-14T14:55:58Z</time>
      </trkpt>
      <trkpt lat="47.26367" lon="-1.61435">
        <ele>-67.5</ele>
        <time>2012-01-14T14:56:02Z</time>
      </trkpt>
      <trkpt lat="47.26371" lon="-1.61452">
        <ele>-69</ele>
        <time>2012-01-14T14:56:06Z</time>
      </trkpt>
      <trkpt lat="47.26376" lon="-1.61466">
        <ele>-69.5</ele>
        <time>2012-01-14T14:56:08Z</time>
      </trkpt>
      <trkpt lat="47.26383" lon="-1.61481">
        <ele>-69.75</ele>
        <time>2012-01-14T14:56:10Z</time>
      </trkpt>
      <trkpt lat="47.2639" lon="-1.61493">
        <ele>-70.25</ele>
        <time>2012-01-14T14:56:12Z</time>
      </trkpt>
      <trkpt lat="47.26399" lon="-1.61503">
        <ele>-71</ele>
        <time>2012-01-14T14:56:16Z</time>
      </trkpt>
      <trkpt lat="47.26408" lon="-1.61511">
        <ele>-71</ele>
        <time>2012-01-14T14:56:18Z</time>
      </trkpt>
      <trkpt lat="47.26417" lon="-1.61519">
        <ele>-71.75</ele>
        <time>2012-01-14T14:56:20Z</time>
      </trkpt>
      <trkpt lat="47.26426" lon="-1.61531">
        <ele>-72.5</ele>
        <time>2012-01-14T14:56:23Z</time>
      </trkpt>
      <trkpt lat="47.26434" lon="-1.61548">
        <ele>-72.5</ele>
        <time>2012-01-14T14:56:27Z</time>
      </trkpt>
      <trkpt lat="47.26442" lon="-1.6156">
        <ele>-75.25</ele>
        <time>2012-01-14T14:56:30Z</time>
      </trkpt>
      <trkpt lat="47.26453" lon="-1.61568">
        <ele>-76.75</ele>
        <time>2012-01-14T14:56:35Z</time>
      </trkpt>
      <trkpt lat="47.26463" lon="-1.61575">
        <ele>-75.25</ele>
        <time>2012-01-14T14:56:37Z</time>
      </trkpt>
      <trkpt lat="47.26475" lon="-1.61582">
        <ele>-73.25</ele>
        <time>2012-01-14T14:56:39Z</time>
      </trkpt>
      <trkpt lat="47.26487" lon="-1.61587">
        <ele>-72.5</ele>
        <time>2012-01-14T14:56:43Z</time>
      </trkpt>
      <trkpt lat="47.26496" lon="-1.61591">
        <ele>-72.5</ele>
        <time>2012-01-14T14:56:45Z</time>
      </trkpt>
      <trkpt lat="47.26507" lon="-1.61596">
        <ele>-74</ele>
        <time>2012-01-14T14:56:48Z</time>
      </trkpt>
      <trkpt lat="47.26517" lon="-1.616">
        <ele>-74</ele>
        <time>2012-01-14T14:56:52Z</time>
      </trkpt>
      <trkpt lat="47.26527" lon="-1.61607">
        <ele>-71.5</ele>
        <time>2012-01-14T14:56:54Z</time>
      </trkpt>
      <trkpt lat="47.26538" lon="-1.61618">
        <ele>-68.75</ele>
        <time>2012-01-14T14:56:56Z</time>
      </trkpt>
      <trkpt lat="47.26545" lon="-1.6163">
        <ele>-66.75</ele>
        <time>2012-01-14T14:56:58Z</time>
      </trkpt>
      <trkpt lat="47.2655" lon="-1.61641">
        <ele>-67</ele>
        <time>2012-01-14T14:57:01Z</time>
      </trkpt>
      <trkpt lat="47.26556" lon="-1.61656">
        <ele>-69.75</ele>
        <time>2012-01-14T14:57:04Z</time>
      </trkpt>
      <trkpt lat="47.26562" lon="-1.61669">
        <ele>-70.25</ele>
        <time>2012-01-14T14:57:06Z</time>
      </trkpt>
      <trkpt lat="47.26568" lon="-1.61681">
        <ele>-70.75</ele>
        <time>2012-01-14T14:57:08Z</time>
      </trkpt>
      <trkpt lat="47.26575" lon="-1.61695">
        <ele>-71.25</ele>
        <time>2012-01-14T14:57:12Z</time>
      </trkpt>
      <trkpt lat="47.26582" lon="-1.61707">
        <ele>-71</ele>
        <time>2012-01-14T14:57:14Z</time>
      </trkpt>
      <trkpt lat="47.26589" lon="-1.6172">
        <ele>-71.25</ele>
        <time>2012-01-14T14:57:16Z</time>
      </trkpt>
      <trkpt lat="47.26595" lon="-1.6173">
        <ele>-74.25</ele>
        <time>2012-01-14T14:57:18Z</time>
      </trkpt>
      <trkpt lat="47.26602" lon="-1.61741">
        <ele>-79.25</ele>
        <time>2012-01-14T14:57:22Z</time>
      </trkpt>
      <trkpt lat="47.26611" lon="-1.61748">
        <ele>-82.75</ele>
        <time>2012-01-14T14:57:25Z</time>
      </trkpt>
      <trkpt lat="47.2662" lon="-1.61755">
        <ele>-84.75</ele>
        <time>2012-01-14T14:57:28Z</time>
      </trkpt>
      <trkpt lat="47.26632" lon="-1.61762">
        <ele>-86.5</ele>
        <time>2012-01-14T14:57:32Z</time>
      </trkpt>
      <trkpt lat="47.26641" lon="-1.61767">
        <ele>-87.5</ele>
        <time>2012-01-14T14:57:34Z</time>
      </trkpt>
      <trkpt lat="47.26654" lon="-1.61774">
        <ele>-85.25</ele>
        <time>2012-01-14T14:57:37Z</time>
      </trkpt>
      <trkpt lat="47.26664" lon="-1.61781">
        <ele>-81.75</ele>
        <time>2012-01-14T14:57:41Z</time>
      </trkpt>
      <trkpt lat="47.26673" lon="-1.61787">
        <ele>-79</ele>
        <time>2012-01-14T14:57:43Z</time>
      </trkpt>
      <trkpt lat="47.26685" lon="-1.6179">
        <ele>-77.5</ele>
        <time>2012-01-14T14:57:46Z</time>
      </trkpt>
      <trkpt lat="47.26695" lon="-1.61796">
        <ele>-78</ele>
        <time>2012-01-14T14:57:50Z</time>
      </trkpt>
      <trkpt lat="47.26704" lon="-1.618">
        <ele>-77.5</ele>
        <time>2012-01-14T14:57:53Z</time>
      </trkpt>
      <trkpt lat="47.26714" lon="-1.61805">
        <ele>-75.25</ele>
        <time>2012-01-14T14:57:58Z</time>
      </trkpt>
      <trkpt lat="47.26722" lon="-1.6181">
        <ele>-72.75</ele>
        <time>2012-01-14T14:58:01Z</time>
      </trkpt>
      <trkpt lat="47.26732" lon="-1.61819">
        <ele>-71.75</ele>
        <time>2012-01-14T14:58:05Z</time>
      </trkpt>
      <trkpt lat="47.26742" lon="-1.61831">
        <ele>-72.75</ele>
        <time>2012-01-14T14:58:08Z</time>
      </trkpt>
      <trkpt lat="47.26749" lon="-1.61843">
        <ele>-74.5</ele>
        <time>2012-01-14T14:58:11Z</time>
      </trkpt>
      <trkpt lat="47.26752" lon="-1.61857">
        <ele>-77.5</ele>
        <time>2012-01-14T14:58:16Z</time>
      </trkpt>
      <trkpt lat="47.26748" lon="-1.61872">
        <ele>-80</ele>
        <time>2012-01-14T14:58:19Z</time>
      </trkpt>
      <trkpt lat="47.26743" lon="-1.61886">
        <ele>-79.75</ele>
        <time>2012-01-14T14:58:23Z</time>
      </trkpt>
      <trkpt lat="47.26742" lon="-1.61901">
        <ele>-78</ele>
        <time>2012-01-14T14:58:25Z</time>
      </trkpt>
      <trkpt lat="47.26743" lon="-1.61918">
        <ele>-75.75</ele>
        <time>2012-01-14T14:58:27Z</time>
      </trkpt>
      <trkpt lat="47.26742" lon="-1.61935">
        <ele>-74.75</ele>
        <time>2012-01-14T14:58:31Z</time>
      </trkpt>
      <trkpt lat="47.26739" lon="-1.61952">
        <ele>-75.25</ele>
        <time>2012-01-14T14:58:34Z</time>
      </trkpt>
      <trkpt lat="47.26739" lon="-1.61967">
        <ele>-75</ele>
        <time>2012-01-14T14:58:36Z</time>
      </trkpt>
      <trkpt lat="47.26738" lon="-1.61981">
        <ele>-73.75</ele>
        <time>2012-01-14T14:58:38Z</time>
      </trkpt>
      <trkpt lat="47.26737" lon="-1.61996">
        <ele>-73</ele>
        <time>2012-01-14T14:58:41Z</time>
      </trkpt>
      <trkpt lat="47.26737" lon="-1.62011">
        <ele>-73.25</ele>
        <time>2012-01-14T14:58:43Z</time>
      </trkpt>
      <trkpt lat="47.26737" lon="-1.62028">
        <ele>-73.25</ele>
        <time>2012-01-14T14:58:45Z</time>
      </trkpt>
      <trkpt lat="47.26739" lon="-1.62045">
        <ele>-73.5</ele>
        <time>2012-01-14T14:58:49Z</time>
      </trkpt>
      <trkpt lat="47.26742" lon="-1.6206">
        <ele>-73.75</ele>
        <time>2012-01-14T14:58:52Z</time>
      </trkpt>
      <trkpt lat="47.26746" lon="-1.62073">
        <ele>-74</ele>
        <time>2012-01-14T14:58:54Z</time>
      </trkpt>
      <trkpt lat="47.26746" lon="-1.62089">
        <ele>-77.5</ele>
        <time>2012-01-14T14:58:58Z</time>
      </trkpt>
      <trkpt lat="47.26746" lon="-1.62103">
        <ele>-78.5</ele>
        <time>2012-01-14T14:59:03Z</time>
      </trkpt>
      <trkpt lat="47.26747" lon="-1.62117">
        <ele>-74.75</ele>
        <time>2012-01-14T14:59:11Z</time>
      </trkpt>
      <trkpt lat="47.26749" lon="-1.62131">
        <ele>-75</ele>
        <time>2012-01-14T14:59:24Z</time>
      </trkpt>
      <trkpt lat="47.26748" lon="-1.62147">
        <ele>-80.75</ele>
        <time>2012-01-14T14:59:32Z</time>
      </trkpt>
      <trkpt lat="47.26745" lon="-1.62159">
        <ele>-87</ele>
        <time>2012-01-14T14:59:36Z</time>
      </trkpt>
      <trkpt lat="47.26743" lon="-1.62176">
        <ele>-88.25</ele>
        <time>2012-01-14T14:59:41Z</time>
      </trkpt>
      <trkpt lat="47.2674" lon="-1.6219">
        <ele>-89.25</ele>
        <time>2012-01-14T14:59:44Z</time>
      </trkpt>
      <trkpt lat="47.26741" lon="-1.62204">
        <ele>-90.5</ele>
        <time>2012-01-14T14:59:49Z</time>
      </trkpt>
      <trkpt lat="47.26745" lon="-1.62219">
        <ele>-89</ele>
        <time>2012-01-14T14:59:52Z</time>
      </trkpt>
      <trkpt lat="47.2675" lon="-1.62233">
        <ele>-88.25</ele>
        <time>2012-01-14T14:59:57Z</time>
      </trkpt>
      <trkpt lat="47.26757" lon="-1.62245">
        <ele>-87.25</ele>
        <time>2012-01-14T15:00:02Z</time>
      </trkpt>
      <trkpt lat="47.26763" lon="-1.62256">
        <ele>-84</ele>
        <time>2012-01-14T15:00:07Z</time>
      </trkpt>
      <trkpt lat="47.26763" lon="-1.6227">
        <ele>-79.25</ele>
        <time>2012-01-14T15:00:14Z</time>
      </trkpt>
      <trkpt lat="47.2676" lon="-1.62284">
        <ele>-86</ele>
        <time>2012-01-14T15:00:36Z</time>
      </trkpt>
      <trkpt lat="47.26765" lon="-1.623">
        <ele>-73.25</ele>
        <time>2012-01-14T15:00:42Z</time>
      </trkpt>
      <trkpt lat="47.26771" lon="-1.62314">
        <ele>-73.25</ele>
        <time>2012-01-14T15:00:45Z</time>
      </trkpt>
      <trkpt lat="47.26775" lon="-1.62326">
        <ele>-72.5</ele>
        <time>2012-01-14T15:00:49Z</time>
      </trkpt>
      <trkpt lat="47.2678" lon="-1.62343">
        <ele>-73</ele>
        <time>2012-01-14T15:00:52Z</time>
      </trkpt>
      <trkpt lat="47.26786" lon="-1.62354">
        <ele>-74</ele>
        <time>2012-01-14T15:00:54Z</time>
      </trkpt>
      <trkpt lat="47.26791" lon="-1.6237">
        <ele>-74</ele>
        <time>2012-01-14T15:00:58Z</time>
      </trkpt>
      <trkpt lat="47.26794" lon="-1.62386">
        <ele>-72</ele>
        <time>2012-01-14T15:01:01Z</time>
      </trkpt>
      <trkpt lat="47.26791" lon="-1.62402">
        <ele>-70</ele>
        <time>2012-01-14T15:01:05Z</time>
      </trkpt>
      <trkpt lat="47.26793" lon="-1.62384">
        <ele>-70</ele>
        <time>2012-01-14T15:01:19Z</time>
      </trkpt>
      <trkpt lat="47.26797" lon="-1.62372">
        <ele>-70</ele>
        <time>2012-01-14T15:01:22Z</time>
      </trkpt>
      <trkpt lat="47.26806" lon="-1.62373">
        <ele>-75.5</ele>
        <time>2012-01-14T15:01:59Z</time>
      </trkpt>
      <trkpt lat="47.26815" lon="-1.62382">
        <ele>-76.5</ele>
        <time>2012-01-14T15:02:20Z</time>
      </trkpt>
      <trkpt lat="47.26823" lon="-1.62388">
        <ele>-81</ele>
        <time>2012-01-14T15:02:39Z</time>
      </trkpt>
      <trkpt lat="47.26817" lon="-1.62378">
        <ele>-79</ele>
        <time>2012-01-14T15:03:14Z</time>
      </trkpt>
      <trkpt lat="47.26808" lon="-1.6237">
        <ele>-77.5</ele>
        <time>2012-01-14T15:03:17Z</time>
      </trkpt>
      <trkpt lat="47.26796" lon="-1.62374">
        <ele>-74</ele>
        <time>2012-01-14T15:03:20Z</time>
      </trkpt>
      <trkpt lat="47.26791" lon="-1.62388">
        <ele>-71.75</ele>
        <time>2012-01-14T15:03:24Z</time>
      </trkpt>
      <trkpt lat="47.26789" lon="-1.62403">
        <ele>-71</ele>
        <time>2012-01-14T15:03:27Z</time>
      </trkpt>
      <trkpt lat="47.26787" lon="-1.62419">
        <ele>-70.25</ele>
        <time>2012-01-14T15:03:32Z</time>
      </trkpt>
      <trkpt lat="47.26781" lon="-1.62433">
        <ele>-72.25</ele>
        <time>2012-01-14T15:03:36Z</time>
      </trkpt>
      <trkpt lat="47.26775" lon="-1.62444">
        <ele>-76</ele>
        <time>2012-01-14T15:03:41Z</time>
      </trkpt>
      <trkpt lat="47.26765" lon="-1.62455">
        <ele>-83</ele>
        <time>2012-01-14T15:03:45Z</time>
      </trkpt>
      <trkpt lat="47.26761" lon="-1.62469">
        <ele>-89.5</ele>
        <time>2012-01-14T15:03:50Z</time>
      </trkpt>
      <trkpt lat="47.26758" lon="-1.62483">
        <ele>-94.25</ele>
        <time>2012-01-14T15:03:53Z</time>
      </trkpt>
      <trkpt lat="47.26757" lon="-1.62497">
        <ele>-95.75</ele>
        <time>2012-01-14T15:03:56Z</time>
      </trkpt>
      <trkpt lat="47.26756" lon="-1.6251">
        <ele>-96.25</ele>
        <time>2012-01-14T15:04:00Z</time>
      </trkpt>
      <trkpt lat="47.26752" lon="-1.62525">
        <ele>-97.25</ele>
        <time>2012-01-14T15:04:04Z</time>
      </trkpt>
      <trkpt lat="47.26752" lon="-1.62539">
        <ele>-97.75</ele>
        <time>2012-01-14T15:04:07Z</time>
      </trkpt>
      <trkpt lat="47.26753" lon="-1.62554">
        <ele>-98.25</ele>
        <time>2012-01-14T15:04:10Z</time>
      </trkpt>
      <trkpt lat="47.26754" lon="-1.62568">
        <ele>-98</ele>
        <time>2012-01-14T15:04:14Z</time>
      </trkpt>
      <trkpt lat="47.26751" lon="-1.62582">
        <ele>-100.5</ele>
        <time>2012-01-14T15:04:17Z</time>
      </trkpt>
      <trkpt lat="47.26747" lon="-1.62595">
        <ele>-106.5</ele>
        <time>2012-01-14T15:04:21Z</time>
      </trkpt>
      <trkpt lat="47.26745" lon="-1.6261">
        <ele>-110.25</ele>
        <time>2012-01-14T15:04:25Z</time>
      </trkpt>
      <trkpt lat="47.26742" lon="-1.62628">
        <ele>-115.75</ele>
        <time>2012-01-14T15:04:28Z</time>
      </trkpt>
      <trkpt lat="47.26739" lon="-1.62641">
        <ele>-121</ele>
        <time>2012-01-14T15:04:32Z</time>
      </trkpt>
      <trkpt lat="47.26735" lon="-1.62657">
        <ele>-126.75</ele>
        <time>2012-01-14T15:04:35Z</time>
      </trkpt>
      <trkpt lat="47.26732" lon="-1.62673">
        <ele>-133.5</ele>
        <time>2012-01-14T15:04:38Z</time>
      </trkpt>
      <trkpt lat="47.26733" lon="-1.62688">
        <ele>-138.5</ele>
        <time>2012-01-14T15:04:42Z</time>
      </trkpt>
      <trkpt lat="47.26734" lon="-1.62704">
        <ele>-143.25</ele>
        <time>2012-01-14T15:04:45Z</time>
      </trkpt>
      <trkpt lat="47.26734" lon="-1.62719">
        <ele>-147.25</ele>
        <time>2012-01-14T15:04:48Z</time>
      </trkpt>
      <trkpt lat="47.26734" lon="-1.62732">
        <ele>-150</ele>
        <time>2012-01-14T15:04:52Z</time>
      </trkpt>
      <trkpt lat="47.26736" lon="-1.62748">
        <ele>-154.5</ele>
        <time>2012-01-14T15:04:55Z</time>
      </trkpt>
      <trkpt lat="47.26737" lon="-1.62761">
        <ele>-161.5</ele>
        <time>2012-01-14T15:04:58Z</time>
      </trkpt>
      <trkpt lat="47.2674" lon="-1.62779">
        <ele>-168.75</ele>
        <time>2012-01-14T15:05:03Z</time>
      </trkpt>
      <trkpt lat="47.26741" lon="-1.62793">
        <ele>-173.75</ele>
        <time>2012-01-14T15:05:06Z</time>
      </trkpt>
      <trkpt lat="47.2674" lon="-1.62808">
        <ele>-180.5</ele>
        <time>2012-01-14T15:05:10Z</time>
      </trkpt>
      <trkpt lat="47.26738" lon="-1.62825">
        <ele>-184.5</ele>
        <time>2012-01-14T15:05:15Z</time>
      </trkpt>
      <trkpt lat="47.26737" lon="-1.62841">
        <ele>-187</ele>
        <time>2012-01-14T15:05:18Z</time>
      </trkpt>
      <trkpt lat="47.26738" lon="-1.62857">
        <ele>-184.5</ele>
        <time>2012-01-14T15:05:22Z</time>
      </trkpt>
      <trkpt lat="47.26742" lon="-1.62878">
        <ele>-178</ele>
        <time>2012-01-14T15:05:25Z</time>
      </trkpt>
      <trkpt lat="47.26745" lon="-1.62893">
        <ele>-172</ele>
        <time>2012-01-14T15:05:27Z</time>
      </trkpt>
      <trkpt lat="47.26749" lon="-1.62906">
        <ele>-165.75</ele>
        <time>2012-01-14T15:05:30Z</time>
      </trkpt>
      <trkpt lat="47.26753" lon="-1.62919">
        <ele>-159.25</ele>
        <time>2012-01-14T15:05:32Z</time>
      </trkpt>
      <trkpt lat="47.26758" lon="-1.62931">
        <ele>-153.25</ele>
        <time>2012-01-14T15:05:34Z</time>
      </trkpt>
      <trkpt lat="47.26765" lon="-1.62946">
        <ele>-148</ele>
        <time>2012-01-14T15:05:37Z</time>
      </trkpt>
      <trkpt lat="47.26773" lon="-1.62959">
        <ele>-143.5</ele>
        <time>2012-01-14T15:05:41Z</time>
      </trkpt>
      <trkpt lat="47.26779" lon="-1.62971">
        <ele>-139.5</ele>
        <time>2012-01-14T15:05:44Z</time>
      </trkpt>
      <trkpt lat="47.26784" lon="-1.62983">
        <ele>-134</ele>
        <time>2012-01-14T15:05:50Z</time>
      </trkpt>
      <trkpt lat="47.26791" lon="-1.62993">
        <ele>-123</ele>
        <time>2012-01-14T15:05:53Z</time>
      </trkpt>
      <trkpt lat="47.268" lon="-1.63005">
        <ele>-111.25</ele>
        <time>2012-01-14T15:05:55Z</time>
      </trkpt>
      <trkpt lat="47.26807" lon="-1.63016">
        <ele>-101</ele>
        <time>2012-01-14T15:05:59Z</time>
      </trkpt>
      <trkpt lat="47.26815" lon="-1.63026">
        <ele>-88.75</ele>
        <time>2012-01-14T15:06:03Z</time>
      </trkpt>
      <trkpt lat="47.26819" lon="-1.63038">
        <ele>-85.75</ele>
        <time>2012-01-14T15:06:10Z</time>
      </trkpt>
      <trkpt lat="47.26821" lon="-1.63052">
        <ele>-85.5</ele>
        <time>2012-01-14T15:06:23Z</time>
      </trkpt>
      <trkpt lat="47.26825" lon="-1.63065">
        <ele>-91.5</ele>
        <time>2012-01-14T15:06:38Z</time>
      </trkpt>
      <trkpt lat="47.26826" lon="-1.63079">
        <ele>-95.75</ele>
        <time>2012-01-14T15:06:44Z</time>
      </trkpt>
      <trkpt lat="47.2683" lon="-1.63093">
        <ele>-92.75</ele>
        <time>2012-01-14T15:06:48Z</time>
      </trkpt>
      <trkpt lat="47.26835" lon="-1.63105">
        <ele>-85.5</ele>
        <time>2012-01-14T15:06:54Z</time>
      </trkpt>
      <trkpt lat="47.2684" lon="-1.63116">
        <ele>-87.5</ele>
        <time>2012-01-14T15:07:00Z</time>
      </trkpt>
      <trkpt lat="47.2684" lon="-1.6313">
        <ele>-87.5</ele>
        <time>2012-01-14T15:07:11Z</time>
      </trkpt>
      <trkpt lat="47.26848" lon="-1.63138">
        <ele>-79.5</ele>
        <time>2012-01-14T15:07:20Z</time>
      </trkpt>
      <trkpt lat="47.26852" lon="-1.63154">
        <ele>-82.25</ele>
        <time>2012-01-14T15:08:01Z</time>
      </trkpt>
      <trkpt lat="47.26858" lon="-1.63169">
        <ele>-79.75</ele>
        <time>2012-01-14T15:08:04Z</time>
      </trkpt>
      <trkpt lat="47.2686" lon="-1.63184">
        <ele>-75.25</ele>
        <time>2012-01-14T15:08:10Z</time>
      </trkpt>
      <trkpt lat="47.26862" lon="-1.63198">
        <ele>-78.75</ele>
        <time>2012-01-14T15:08:32Z</time>
      </trkpt>
      <trkpt lat="47.26868" lon="-1.63209">
        <ele>-83.25</ele>
        <time>2012-01-14T15:08:35Z</time>
      </trkpt>
      <trkpt lat="47.26877" lon="-1.63218">
        <ele>-85.5</ele>
        <time>2012-01-14T15:08:40Z</time>
      </trkpt>
      <trkpt lat="47.26887" lon="-1.63227">
        <ele>-86.25</ele>
        <time>2012-01-14T15:08:43Z</time>
      </trkpt>
      <trkpt lat="47.26895" lon="-1.63233">
        <ele>-85.25</ele>
        <time>2012-01-14T15:08:46Z</time>
      </trkpt>
      <trkpt lat="47.26904" lon="-1.63239">
        <ele>-83</ele>
        <time>2012-01-14T15:08:51Z</time>
      </trkpt>
      <trkpt lat="47.26913" lon="-1.63245">
        <ele>-79</ele>
        <time>2012-01-14T15:09:00Z</time>
      </trkpt>
      <trkpt lat="47.26921" lon="-1.63248">
        <ele>-80</ele>
        <time>2012-01-14T15:09:12Z</time>
      </trkpt>
      <trkpt lat="47.2693" lon="-1.63255">
        <ele>-85</ele>
        <time>2012-01-14T15:09:29Z</time>
      </trkpt>
      <trkpt lat="47.26937" lon="-1.63264">
        <ele>-87.75</ele>
        <time>2012-01-14T15:09:40Z</time>
      </trkpt>
      <trkpt lat="47.26948" lon="-1.63269">
        <ele>-86.5</ele>
        <time>2012-01-14T15:09:50Z</time>
      </trkpt>
      <trkpt lat="47.26954" lon="-1.6328">
        <ele>-83</ele>
        <time>2012-01-14T15:09:58Z</time>
      </trkpt>
      <trkpt lat="47.26954" lon="-1.63296">
        <ele>-82.75</ele>
        <time>2012-01-14T15:10:04Z</time>
      </trkpt>
      <trkpt lat="47.26952" lon="-1.6331">
        <ele>-87</ele>
        <time>2012-01-14T15:10:07Z</time>
      </trkpt>
      <trkpt lat="47.26947" lon="-1.63323">
        <ele>-93.75</ele>
        <time>2012-01-14T15:10:12Z</time>
      </trkpt>
      <trkpt lat="47.26941" lon="-1.63336">
        <ele>-97.5</ele>
        <time>2012-01-14T15:10:17Z</time>
      </trkpt>
      <trkpt lat="47.26937" lon="-1.63349">
        <ele>-97</ele>
        <time>2012-01-14T15:10:22Z</time>
      </trkpt>
      <trkpt lat="47.26929" lon="-1.6336">
        <ele>-97.75</ele>
        <time>2012-01-14T15:10:26Z</time>
      </trkpt>
      <trkpt lat="47.26923" lon="-1.63372">
        <ele>-91.5</ele>
        <time>2012-01-14T15:10:32Z</time>
      </trkpt>
      <trkpt lat="47.2691" lon="-1.63372">
        <ele>-86</ele>
        <time>2012-01-14T15:10:36Z</time>
      </trkpt>
      <trkpt lat="47.26898" lon="-1.63371">
        <ele>-83.5</ele>
        <time>2012-01-14T15:10:39Z</time>
      </trkpt>
      <trkpt lat="47.26888" lon="-1.63368">
        <ele>-81.75</ele>
        <time>2012-01-14T15:10:43Z</time>
      </trkpt>
      <trkpt lat="47.26879" lon="-1.63363">
        <ele>-78.75</ele>
        <time>2012-01-14T15:10:47Z</time>
      </trkpt>
      <trkpt lat="47.26869" lon="-1.63366">
        <ele>-79</ele>
        <time>2012-01-14T15:10:50Z</time>
      </trkpt>
      <trkpt lat="47.26867" lon="-1.63381">
        <ele>-82.5</ele>
        <time>2012-01-14T15:10:54Z</time>
      </trkpt>
      <trkpt lat="47.26867" lon="-1.63395">
        <ele>-83.25</ele>
        <time>2012-01-14T15:10:58Z</time>
      </trkpt>
      <trkpt lat="47.26864" lon="-1.63412">
        <ele>-83.5</ele>
        <time>2012-01-14T15:11:01Z</time>
      </trkpt>
      <trkpt lat="47.26862" lon="-1.63429">
        <ele>-83</ele>
        <time>2012-01-14T15:11:04Z</time>
      </trkpt>
      <trkpt lat="47.26859" lon="-1.63441">
        <ele>-82.5</ele>
        <time>2012-01-14T15:11:07Z</time>
      </trkpt>
      <trkpt lat="47.26855" lon="-1.63457">
        <ele>-81.5</ele>
        <time>2012-01-14T15:11:12Z</time>
      </trkpt>
      <trkpt lat="47.26853" lon="-1.63472">
        <ele>-81</ele>
        <time>2012-01-14T15:11:16Z</time>
      </trkpt>
      <trkpt lat="47.26849" lon="-1.63489">
        <ele>-78</ele>
        <time>2012-01-14T15:11:22Z</time>
      </trkpt>
      <trkpt lat="47.26845" lon="-1.63503">
        <ele>-76.25</ele>
        <time>2012-01-14T15:11:25Z</time>
      </trkpt>
      <trkpt lat="47.26839" lon="-1.63518">
        <ele>-76</ele>
        <time>2012-01-14T15:11:30Z</time>
      </trkpt>
      <trkpt lat="47.26832" lon="-1.63532">
        <ele>-76</ele>
        <time>2012-01-14T15:11:33Z</time>
      </trkpt>
      <trkpt lat="47.26824" lon="-1.63544">
        <ele>-76.25</ele>
        <time>2012-01-14T15:11:37Z</time>
      </trkpt>
      <trkpt lat="47.26818" lon="-1.63555">
        <ele>-77.5</ele>
        <time>2012-01-14T15:11:41Z</time>
      </trkpt>
      <trkpt lat="47.26812" lon="-1.63567">
        <ele>-79</ele>
        <time>2012-01-14T15:11:44Z</time>
      </trkpt>
      <trkpt lat="47.26805" lon="-1.63578">
        <ele>-80</ele>
        <time>2012-01-14T15:11:48Z</time>
      </trkpt>
      <trkpt lat="47.26797" lon="-1.6359">
        <ele>-80</ele>
        <time>2012-01-14T15:11:51Z</time>
      </trkpt>
      <trkpt lat="47.26789" lon="-1.63601">
        <ele>-78.5</ele>
        <time>2012-01-14T15:11:54Z</time>
      </trkpt>
      <trkpt lat="47.26782" lon="-1.63611">
        <ele>-76</ele>
        <time>2012-01-14T15:11:58Z</time>
      </trkpt>
      <trkpt lat="47.26775" lon="-1.63621">
        <ele>-75.75</ele>
        <time>2012-01-14T15:12:01Z</time>
      </trkpt>
      <trkpt lat="47.26771" lon="-1.63635">
        <ele>-77</ele>
        <time>2012-01-14T15:12:06Z</time>
      </trkpt>
      <trkpt lat="47.26766" lon="-1.6365">
        <ele>-79.5</ele>
        <time>2012-01-14T15:12:10Z</time>
      </trkpt>
      <trkpt lat="47.26759" lon="-1.63664">
        <ele>-80.75</ele>
        <time>2012-01-14T15:12:14Z</time>
      </trkpt>
      <trkpt lat="47.26749" lon="-1.63682">
        <ele>-81.75</ele>
        <time>2012-01-14T15:12:16Z</time>
      </trkpt>
      <trkpt lat="47.26741" lon="-1.63702">
        <ele>-81.5</ele>
        <time>2012-01-14T15:12:18Z</time>
      </trkpt>
      <trkpt lat="47.26736" lon="-1.6372">
        <ele>-80.5</ele>
        <time>2012-01-14T15:12:20Z</time>
      </trkpt>
      <trkpt lat="47.26732" lon="-1.63738">
        <ele>-79.25</ele>
        <time>2012-01-14T15:12:23Z</time>
      </trkpt>
      <trkpt lat="47.26731" lon="-1.63757">
        <ele>-77.5</ele>
        <time>2012-01-14T15:12:25Z</time>
      </trkpt>
      <trkpt lat="47.2673" lon="-1.63775">
        <ele>-76.25</ele>
        <time>2012-01-14T15:12:27Z</time>
      </trkpt>
      <trkpt lat="47.26729" lon="-1.63789">
        <ele>-76.75</ele>
        <time>2012-01-14T15:12:30Z</time>
      </trkpt>
      <trkpt lat="47.26727" lon="-1.63806">
        <ele>-78.25</ele>
        <time>2012-01-14T15:12:33Z</time>
      </trkpt>
      <trkpt lat="47.26726" lon="-1.63819">
        <ele>-78.75</ele>
        <time>2012-01-14T15:12:35Z</time>
      </trkpt>
      <trkpt lat="47.26726" lon="-1.63835">
        <ele>-79.5</ele>
        <time>2012-01-14T15:12:39Z</time>
      </trkpt>
      <trkpt lat="47.26723" lon="-1.6385">
        <ele>-80</ele>
        <time>2012-01-14T15:12:42Z</time>
      </trkpt>
      <trkpt lat="47.2672" lon="-1.63865">
        <ele>-80.75</ele>
        <time>2012-01-14T15:12:44Z</time>
      </trkpt>
      <trkpt lat="47.26717" lon="-1.6388">
        <ele>-82.5</ele>
        <time>2012-01-14T15:12:46Z</time>
      </trkpt>
      <trkpt lat="47.26713" lon="-1.63896">
        <ele>-86.75</ele>
        <time>2012-01-14T15:12:50Z</time>
      </trkpt>
      <trkpt lat="47.26712" lon="-1.63914">
        <ele>-89</ele>
        <time>2012-01-14T15:12:53Z</time>
      </trkpt>
      <trkpt lat="47.26711" lon="-1.63931">
        <ele>-89.75</ele>
        <time>2012-01-14T15:12:56Z</time>
      </trkpt>
      <trkpt lat="47.2671" lon="-1.63949">
        <ele>-90.25</ele>
        <time>2012-01-14T15:13:01Z</time>
      </trkpt>
      <trkpt lat="47.26712" lon="-1.63963">
        <ele>-89</ele>
        <time>2012-01-14T15:13:04Z</time>
      </trkpt>
      <trkpt lat="47.26715" lon="-1.63977">
        <ele>-84.5</ele>
        <time>2012-01-14T15:13:11Z</time>
      </trkpt>
      <trkpt lat="47.26721" lon="-1.63988">
        <ele>-77.25</ele>
        <time>2012-01-14T15:13:19Z</time>
      </trkpt>
      <trkpt lat="47.26722" lon="-1.64002">
        <ele>-90.25</ele>
        <time>2012-01-14T15:13:41Z</time>
      </trkpt>
      <trkpt lat="47.26719" lon="-1.64017">
        <ele>-93.5</ele>
        <time>2012-01-14T15:13:46Z</time>
      </trkpt>
      <trkpt lat="47.26713" lon="-1.6403">
        <ele>-97.25</ele>
        <time>2012-01-14T15:13:52Z</time>
      </trkpt>
      <trkpt lat="47.26707" lon="-1.64039">
        <ele>-99.75</ele>
        <time>2012-01-14T15:13:56Z</time>
      </trkpt>
      <trkpt lat="47.26704" lon="-1.64053">
        <ele>-100.5</ele>
        <time>2012-01-14T15:14:04Z</time>
      </trkpt>
      <trkpt lat="47.267" lon="-1.64066">
        <ele>-101.25</ele>
        <time>2012-01-14T15:14:11Z</time>
      </trkpt>
      <trkpt lat="47.26694" lon="-1.64077">
        <ele>-104</ele>
        <time>2012-01-14T15:14:16Z</time>
      </trkpt>
      <trkpt lat="47.26692" lon="-1.64093">
        <ele>-100.25</ele>
        <time>2012-01-14T15:14:23Z</time>
      </trkpt>
      <trkpt lat="47.26684" lon="-1.64101">
        <ele>-101</ele>
        <time>2012-01-14T15:14:28Z</time>
      </trkpt>
      <trkpt lat="47.26676" lon="-1.64108">
        <ele>-101</ele>
        <time>2012-01-14T15:14:31Z</time>
      </trkpt>
      <trkpt lat="47.26668" lon="-1.64115">
        <ele>-98.5</ele>
        <time>2012-01-14T15:14:37Z</time>
      </trkpt>
      <trkpt lat="47.26661" lon="-1.64123">
        <ele>-97.75</ele>
        <time>2012-01-14T15:14:46Z</time>
      </trkpt>
      <trkpt lat="47.26651" lon="-1.64122">
        <ele>-99.75</ele>
        <time>2012-01-14T15:14:53Z</time>
      </trkpt>
      <trkpt lat="47.26642" lon="-1.64118">
        <ele>-102.75</ele>
        <time>2012-01-14T15:15:01Z</time>
      </trkpt>
      <trkpt lat="47.26632" lon="-1.64113">
        <ele>-108.75</ele>
        <time>2012-01-14T15:15:09Z</time>
      </trkpt>
      <trkpt lat="47.26624" lon="-1.64107">
        <ele>-114.25</ele>
        <time>2012-01-14T15:15:16Z</time>
      </trkpt>
      <trkpt lat="47.26614" lon="-1.64104">
        <ele>-117.25</ele>
        <time>2012-01-14T15:15:22Z</time>
      </trkpt>
      <trkpt lat="47.26603" lon="-1.64101">
        <ele>-116.25</ele>
        <time>2012-01-14T15:15:27Z</time>
      </trkpt>
      <trkpt lat="47.26592" lon="-1.64098">
        <ele>-116.5</ele>
        <time>2012-01-14T15:15:34Z</time>
      </trkpt>
      <trkpt lat="47.26584" lon="-1.64095">
        <ele>-118</ele>
        <time>2012-01-14T15:15:39Z</time>
      </trkpt>
      <trkpt lat="47.26574" lon="-1.64093">
        <ele>-117.75</ele>
        <time>2012-01-14T15:15:44Z</time>
      </trkpt>
      <trkpt lat="47.26564" lon="-1.64091">
        <ele>-118</ele>
        <time>2012-01-14T15:15:48Z</time>
      </trkpt>
      <trkpt lat="47.26555" lon="-1.6409">
        <ele>-118.5</ele>
        <time>2012-01-14T15:15:54Z</time>
      </trkpt>
      <trkpt lat="47.26545" lon="-1.64087">
        <ele>-121</ele>
        <time>2012-01-14T15:15:58Z</time>
      </trkpt>
      <trkpt lat="47.26536" lon="-1.64085">
        <ele>-123.25</ele>
        <time>2012-01-14T15:16:05Z</time>
      </trkpt>
      <trkpt lat="47.26528" lon="-1.64077">
        <ele>-123.75</ele>
        <time>2012-01-14T15:16:12Z</time>
      </trkpt>
      <trkpt lat="47.2652" lon="-1.64067">
        <ele>-125.75</ele>
        <time>2012-01-14T15:16:16Z</time>
      </trkpt>
      <trkpt lat="47.26512" lon="-1.64057">
        <ele>-126.75</ele>
        <time>2012-01-14T15:16:19Z</time>
      </trkpt>
      <trkpt lat="47.265" lon="-1.64054">
        <ele>-123.75</ele>
        <time>2012-01-14T15:16:23Z</time>
      </trkpt>
      <trkpt lat="47.26491" lon="-1.64054">
        <ele>-121.5</ele>
        <time>2012-01-14T15:16:25Z</time>
      </trkpt>
      <trkpt lat="47.26481" lon="-1.64051">
        <ele>-116.75</ele>
        <time>2012-01-14T15:16:30Z</time>
      </trkpt>
      <trkpt lat="47.26472" lon="-1.64048">
        <ele>-94</ele>
        <time>2012-01-14T15:17:39Z</time>
      </trkpt>
      <trkpt lat="47.26467" lon="-1.6406">
        <ele>-92.25</ele>
        <time>2012-01-14T15:20:23Z</time>
      </trkpt>
      <trkpt lat="47.2646" lon="-1.64072">
        <ele>-94.25</ele>
        <time>2012-01-14T15:20:26Z</time>
      </trkpt>
      <trkpt lat="47.26453" lon="-1.64082">
        <ele>-96</ele>
        <time>2012-01-14T15:20:30Z</time>
      </trkpt>
      <trkpt lat="47.26445" lon="-1.64094">
        <ele>-97.25</ele>
        <time>2012-01-14T15:20:33Z</time>
      </trkpt>
      <trkpt lat="47.26438" lon="-1.64104">
        <ele>-97.75</ele>
        <time>2012-01-14T15:20:35Z</time>
      </trkpt>
      <trkpt lat="47.26432" lon="-1.64114">
        <ele>-98.5</ele>
        <time>2012-01-14T15:20:37Z</time>
      </trkpt>
      <trkpt lat="47.26424" lon="-1.64126">
        <ele>-99.5</ele>
        <time>2012-01-14T15:20:41Z</time>
      </trkpt>
      <trkpt lat="47.26416" lon="-1.6414">
        <ele>-100</ele>
        <time>2012-01-14T15:20:44Z</time>
      </trkpt>
      <trkpt lat="47.26409" lon="-1.64152">
        <ele>-100</ele>
        <time>2012-01-14T15:20:46Z</time>
      </trkpt>
      <trkpt lat="47.26403" lon="-1.64162">
        <ele>-100</ele>
        <time>2012-01-14T15:20:48Z</time>
      </trkpt>
      <trkpt lat="47.26395" lon="-1.64175">
        <ele>-100</ele>
        <time>2012-01-14T15:20:51Z</time>
      </trkpt>
      <trkpt lat="47.26387" lon="-1.64187">
        <ele>-100</ele>
        <time>2012-01-14T15:20:55Z</time>
      </trkpt>
      <trkpt lat="47.2638" lon="-1.64201">
        <ele>-100</ele>
        <time>2012-01-14T15:20:58Z</time>
      </trkpt>
      <trkpt lat="47.26373" lon="-1.64216">
        <ele>-101</ele>
        <time>2012-01-14T15:21:01Z</time>
      </trkpt>
      <trkpt lat="47.26366" lon="-1.6423">
        <ele>-101.5</ele>
        <time>2012-01-14T15:21:05Z</time>
      </trkpt>
      <trkpt lat="47.26359" lon="-1.64241">
        <ele>-101</ele>
        <time>2012-01-14T15:21:07Z</time>
      </trkpt>
      <trkpt lat="47.26351" lon="-1.64248">
        <ele>-101</ele>
        <time>2012-01-14T15:21:09Z</time>
      </trkpt>
      <trkpt lat="47.26338" lon="-1.64254">
        <ele>-101.25</ele>
        <time>2012-01-14T15:21:13Z</time>
      </trkpt>
      <trkpt lat="47.26324" lon="-1.64259">
        <ele>-101.75</ele>
        <time>2012-01-14T15:21:15Z</time>
      </trkpt>
      <trkpt lat="47.26308" lon="-1.64265">
        <ele>-101.75</ele>
        <time>2012-01-14T15:21:17Z</time>
      </trkpt>
      <trkpt lat="47.26299" lon="-1.64269">
        <ele>-101.75</ele>
        <time>2012-01-14T15:21:18Z</time>
      </trkpt>
      <trkpt lat="47.26285" lon="-1.64274">
        <ele>-101.25</ele>
        <time>2012-01-14T15:21:21Z</time>
      </trkpt>
      <trkpt lat="47.26273" lon="-1.6428">
        <ele>-101</ele>
        <time>2012-01-14T15:21:23Z</time>
      </trkpt>
      <trkpt lat="47.2626" lon="-1.64288">
        <ele>-101</ele>
        <time>2012-01-14T15:21:25Z</time>
      </trkpt>
      <trkpt lat="47.26246" lon="-1.64295">
        <ele>-101.5</ele>
        <time>2012-01-14T15:21:27Z</time>
      </trkpt>
      <trkpt lat="47.26234" lon="-1.64302">
        <ele>-102</ele>
        <time>2012-01-14T15:21:29Z</time>
      </trkpt>
      <trkpt lat="47.26225" lon="-1.64308">
        <ele>-102</ele>
        <time>2012-01-14T15:21:32Z</time>
      </trkpt>
      <trkpt lat="47.26215" lon="-1.64314">
        <ele>-102.5</ele>
        <time>2012-01-14T15:21:34Z</time>
      </trkpt>
      <trkpt lat="47.26205" lon="-1.6432">
        <ele>-103</ele>
        <time>2012-01-14T15:21:36Z</time>
      </trkpt>
      <trkpt lat="47.26196" lon="-1.64325">
        <ele>-103</ele>
        <time>2012-01-14T15:21:38Z</time>
      </trkpt>
      <trkpt lat="47.26186" lon="-1.64331">
        <ele>-103</ele>
        <time>2012-01-14T15:21:42Z</time>
      </trkpt>
      <trkpt lat="47.26177" lon="-1.64337">
        <ele>-102.75</ele>
        <time>2012-01-14T15:21:45Z</time>
      </trkpt>
      <trkpt lat="47.26165" lon="-1.64345">
        <ele>-103</ele>
        <time>2012-01-14T15:21:48Z</time>
      </trkpt>
      <trkpt lat="47.26156" lon="-1.64351">
        <ele>-103.5</ele>
        <time>2012-01-14T15:21:50Z</time>
      </trkpt>
      <trkpt lat="47.26144" lon="-1.64358">
        <ele>-104.75</ele>
        <time>2012-01-14T15:21:54Z</time>
      </trkpt>
      <trkpt lat="47.26135" lon="-1.64363">
        <ele>-105</ele>
        <time>2012-01-14T15:21:56Z</time>
      </trkpt>
      <trkpt lat="47.26125" lon="-1.64368">
        <ele>-105.25</ele>
        <time>2012-01-14T15:21:58Z</time>
      </trkpt>
      <trkpt lat="47.26116" lon="-1.64374">
        <ele>-105</ele>
        <time>2012-01-14T15:22:01Z</time>
      </trkpt>
      <trkpt lat="47.26106" lon="-1.6438">
        <ele>-105.75</ele>
        <time>2012-01-14T15:22:05Z</time>
      </trkpt>
      <trkpt lat="47.26097" lon="-1.64394">
        <ele>-106</ele>
        <time>2012-01-14T15:22:08Z</time>
      </trkpt>
      <trkpt lat="47.26087" lon="-1.64404">
        <ele>-106</ele>
        <time>2012-01-14T15:22:12Z</time>
      </trkpt>
      <trkpt lat="47.26075" lon="-1.64404">
        <ele>-106</ele>
        <time>2012-01-14T15:22:15Z</time>
      </trkpt>
      <trkpt lat="47.26065" lon="-1.64404">
        <ele>-106</ele>
        <time>2012-01-14T15:22:17Z</time>
      </trkpt>
      <trkpt lat="47.26056" lon="-1.64408">
        <ele>-105.5</ele>
        <time>2012-01-14T15:22:19Z</time>
      </trkpt>
      <trkpt lat="47.26044" lon="-1.64414">
        <ele>-105</ele>
        <time>2012-01-14T15:22:23Z</time>
      </trkpt>
      <trkpt lat="47.26036" lon="-1.64419">
        <ele>-105.25</ele>
        <time>2012-01-14T15:22:25Z</time>
      </trkpt>
      <trkpt lat="47.26026" lon="-1.64424">
        <ele>-105.75</ele>
        <time>2012-01-14T15:22:27Z</time>
      </trkpt>
      <trkpt lat="47.26017" lon="-1.6443">
        <ele>-106.25</ele>
        <time>2012-01-14T15:22:29Z</time>
      </trkpt>
      <trkpt lat="47.26008" lon="-1.64435">
        <ele>-106.25</ele>
        <time>2012-01-14T15:22:32Z</time>
      </trkpt>
      <trkpt lat="47.25999" lon="-1.6444">
        <ele>-106</ele>
        <time>2012-01-14T15:22:34Z</time>
      </trkpt>
      <trkpt lat="47.25989" lon="-1.64445">
        <ele>-106</ele>
        <time>2012-01-14T15:22:36Z</time>
      </trkpt>
      <trkpt lat="47.25979" lon="-1.64451">
        <ele>-106.5</ele>
        <time>2012-01-14T15:22:38Z</time>
      </trkpt>
      <trkpt lat="47.2597" lon="-1.64456">
        <ele>-107.25</ele>
        <time>2012-01-14T15:22:41Z</time>
      </trkpt>
      <trkpt lat="47.25961" lon="-1.64461">
        <ele>-108</ele>
        <time>2012-01-14T15:22:43Z</time>
      </trkpt>
      <trkpt lat="47.25953" lon="-1.64466">
        <ele>-108.75</ele>
        <time>2012-01-14T15:22:45Z</time>
      </trkpt>
      <trkpt lat="47.25941" lon="-1.64472">
        <ele>-109.25</ele>
        <time>2012-01-14T15:22:49Z</time>
      </trkpt>
      <trkpt lat="47.25931" lon="-1.64477">
        <ele>-109</ele>
        <time>2012-01-14T15:22:51Z</time>
      </trkpt>
      <trkpt lat="47.2592" lon="-1.64482">
        <ele>-109</ele>
        <time>2012-01-14T15:22:53Z</time>
      </trkpt>
      <trkpt lat="47.2591" lon="-1.64487">
        <ele>-109</ele>
        <time>2012-01-14T15:22:57Z</time>
      </trkpt>
      <trkpt lat="47.25901" lon="-1.64493">
        <ele>-109</ele>
        <time>2012-01-14T15:23:01Z</time>
      </trkpt>
      <trkpt lat="47.25891" lon="-1.64499">
        <ele>-109</ele>
        <time>2012-01-14T15:23:04Z</time>
      </trkpt>
      <trkpt lat="47.25879" lon="-1.64506">
        <ele>-109.5</ele>
        <time>2012-01-14T15:23:07Z</time>
      </trkpt>
      <trkpt lat="47.2587" lon="-1.64512">
        <ele>-110.75</ele>
        <time>2012-01-14T15:23:11Z</time>
      </trkpt>
      <trkpt lat="47.25861" lon="-1.64518">
        <ele>-111.75</ele>
        <time>2012-01-14T15:23:14Z</time>
      </trkpt>
      <trkpt lat="47.25848" lon="-1.64525">
        <ele>-111.25</ele>
        <time>2012-01-14T15:23:17Z</time>
      </trkpt>
      <trkpt lat="47.2584" lon="-1.6453">
        <ele>-111</ele>
        <time>2012-01-14T15:23:21Z</time>
      </trkpt>
      <trkpt lat="47.25831" lon="-1.64535">
        <ele>-110.25</ele>
        <time>2012-01-14T15:23:24Z</time>
      </trkpt>
      <trkpt lat="47.25822" lon="-1.64541">
        <ele>-109.75</ele>
        <time>2012-01-14T15:23:28Z</time>
      </trkpt>
      <trkpt lat="47.25814" lon="-1.64548">
        <ele>-112.75</ele>
        <time>2012-01-14T15:24:32Z</time>
      </trkpt>
      <trkpt lat="47.25804" lon="-1.64551">
        <ele>-112</ele>
        <time>2012-01-14T15:24:41Z</time>
      </trkpt>
      <trkpt lat="47.25794" lon="-1.64552">
        <ele>-111.75</ele>
        <time>2012-01-14T15:24:47Z</time>
      </trkpt>
      <trkpt lat="47.25782" lon="-1.64542">
        <ele>-112</ele>
        <time>2012-01-14T15:24:50Z</time>
      </trkpt>
      <trkpt lat="47.25776" lon="-1.64532">
        <ele>-112</ele>
        <time>2012-01-14T15:24:52Z</time>
      </trkpt>
      <trkpt lat="47.2577" lon="-1.64518">
        <ele>-112</ele>
        <time>2012-01-14T15:24:56Z</time>
      </trkpt>
      <trkpt lat="47.25762" lon="-1.64502">
        <ele>-112</ele>
        <time>2012-01-14T15:24:59Z</time>
      </trkpt>
      <trkpt lat="47.25756" lon="-1.6449">
        <ele>-112</ele>
        <time>2012-01-14T15:25:01Z</time>
      </trkpt>
      <trkpt lat="47.25749" lon="-1.64478">
        <ele>-112</ele>
        <time>2012-01-14T15:25:05Z</time>
      </trkpt>
      <trkpt lat="47.25742" lon="-1.64469">
        <ele>-112</ele>
        <time>2012-01-14T15:25:07Z</time>
      </trkpt>
      <trkpt lat="47.25735" lon="-1.64459">
        <ele>-111.75</ele>
        <time>2012-01-14T15:25:09Z</time>
      </trkpt>
      <trkpt lat="47.25726" lon="-1.64448">
        <ele>-111</ele>
        <time>2012-01-14T15:25:13Z</time>
      </trkpt>
      <trkpt lat="47.25719" lon="-1.6444">
        <ele>-111</ele>
        <time>2012-01-14T15:25:15Z</time>
      </trkpt>
      <trkpt lat="47.2571" lon="-1.64431">
        <ele>-111</ele>
        <time>2012-01-14T15:25:17Z</time>
      </trkpt>
      <trkpt lat="47.25701" lon="-1.64421">
        <ele>-111</ele>
        <time>2012-01-14T15:25:19Z</time>
      </trkpt>
      <trkpt lat="47.2569" lon="-1.64413">
        <ele>-110.75</ele>
        <time>2012-01-14T15:25:22Z</time>
      </trkpt>
      <trkpt lat="47.25676" lon="-1.64403">
        <ele>-109.75</ele>
        <time>2012-01-14T15:25:24Z</time>
      </trkpt>
      <trkpt lat="47.25661" lon="-1.64394">
        <ele>-109</ele>
        <time>2012-01-14T15:25:26Z</time>
      </trkpt>
      <trkpt lat="47.2565" lon="-1.64388">
        <ele>-109.25</ele>
        <time>2012-01-14T15:25:28Z</time>
      </trkpt>
      <trkpt lat="47.25638" lon="-1.64383">
        <ele>-110.25</ele>
        <time>2012-01-14T15:25:31Z</time>
      </trkpt>
      <trkpt lat="47.25628" lon="-1.6438">
        <ele>-111.5</ele>
        <time>2012-01-14T15:25:33Z</time>
      </trkpt>
      <trkpt lat="47.25628" lon="-1.64366">
        <ele>-113</ele>
        <time>2012-01-14T15:25:37Z</time>
      </trkpt>
      <trkpt lat="47.2562" lon="-1.64356">
        <ele>-118</ele>
        <time>2012-01-14T15:25:41Z</time>
      </trkpt>
      <trkpt lat="47.25606" lon="-1.64355">
        <ele>-118.5</ele>
        <time>2012-01-14T15:25:44Z</time>
      </trkpt>
      <trkpt lat="47.25593" lon="-1.6435">
        <ele>-119</ele>
        <time>2012-01-14T15:25:46Z</time>
      </trkpt>
      <trkpt lat="47.25579" lon="-1.64343">
        <ele>-119.5</ele>
        <time>2012-01-14T15:25:48Z</time>
      </trkpt>
      <trkpt lat="47.25567" lon="-1.64333">
        <ele>-120.5</ele>
        <time>2012-01-14T15:25:50Z</time>
      </trkpt>
      <trkpt lat="47.25556" lon="-1.64325">
        <ele>-120.75</ele>
        <time>2012-01-14T15:25:53Z</time>
      </trkpt>
      <trkpt lat="47.25546" lon="-1.64316">
        <ele>-119.5</ele>
        <time>2012-01-14T15:25:55Z</time>
      </trkpt>
      <trkpt lat="47.25535" lon="-1.64307">
        <ele>-117.5</ele>
        <time>2012-01-14T15:25:57Z</time>
      </trkpt>
      <trkpt lat="47.25526" lon="-1.643">
        <ele>-115.75</ele>
        <time>2012-01-14T15:25:59Z</time>
      </trkpt>
      <trkpt lat="47.25514" lon="-1.64292">
        <ele>-115.25</ele>
        <time>2012-01-14T15:26:03Z</time>
      </trkpt>
      <trkpt lat="47.25506" lon="-1.64287">
        <ele>-115.75</ele>
        <time>2012-01-14T15:26:05Z</time>
      </trkpt>
      <trkpt lat="47.25496" lon="-1.64283">
        <ele>-115.75</ele>
        <time>2012-01-14T15:26:07Z</time>
      </trkpt>
      <trkpt lat="47.25486" lon="-1.64281">
        <ele>-115</ele>
        <time>2012-01-14T15:26:09Z</time>
      </trkpt>
      <trkpt lat="47.25473" lon="-1.64281">
        <ele>-113.75</ele>
        <time>2012-01-14T15:26:13Z</time>
      </trkpt>
      <trkpt lat="47.25462" lon="-1.64284">
        <ele>-113.25</ele>
        <time>2012-01-14T15:26:15Z</time>
      </trkpt>
      <trkpt lat="47.2545" lon="-1.64287">
        <ele>-113</ele>
        <time>2012-01-14T15:26:17Z</time>
      </trkpt>
      <trkpt lat="47.2544" lon="-1.6429">
        <ele>-112.5</ele>
        <time>2012-01-14T15:26:19Z</time>
      </trkpt>
      <trkpt lat="47.25429" lon="-1.64293">
        <ele>-112</ele>
        <time>2012-01-14T15:26:22Z</time>
      </trkpt>
      <trkpt lat="47.25414" lon="-1.64296">
        <ele>-112.5</ele>
        <time>2012-01-14T15:26:24Z</time>
      </trkpt>
      <trkpt lat="47.254" lon="-1.643">
        <ele>-112.75</ele>
        <time>2012-01-14T15:26:26Z</time>
      </trkpt>
      <trkpt lat="47.2539" lon="-1.64304">
        <ele>-111.75</ele>
        <time>2012-01-14T15:26:29Z</time>
      </trkpt>
      <trkpt lat="47.25378" lon="-1.64307">
        <ele>-111</ele>
        <time>2012-01-14T15:26:31Z</time>
      </trkpt>
      <trkpt lat="47.25363" lon="-1.64312">
        <ele>-110.5</ele>
        <time>2012-01-14T15:26:33Z</time>
      </trkpt>
      <trkpt lat="47.25349" lon="-1.64317">
        <ele>-109.75</ele>
        <time>2012-01-14T15:26:35Z</time>
      </trkpt>
      <trkpt lat="47.25338" lon="-1.64322">
        <ele>-109</ele>
        <time>2012-01-14T15:26:38Z</time>
      </trkpt>
      <trkpt lat="47.25326" lon="-1.64328">
        <ele>-108.25</ele>
        <time>2012-01-14T15:26:40Z</time>
      </trkpt>
      <trkpt lat="47.25313" lon="-1.64337">
        <ele>-108.5</ele>
        <time>2012-01-14T15:26:42Z</time>
      </trkpt>
      <trkpt lat="47.25301" lon="-1.64347">
        <ele>-109</ele>
        <time>2012-01-14T15:26:44Z</time>
      </trkpt>
      <trkpt lat="47.2529" lon="-1.64356">
        <ele>-109.25</ele>
        <time>2012-01-14T15:26:47Z</time>
      </trkpt>
      <trkpt lat="47.25278" lon="-1.64367">
        <ele>-109.75</ele>
        <time>2012-01-14T15:26:49Z</time>
      </trkpt>
      <trkpt lat="47.25264" lon="-1.64379">
        <ele>-109.75</ele>
        <time>2012-01-14T15:26:51Z</time>
      </trkpt>
      <trkpt lat="47.25249" lon="-1.64393">
        <ele>-108.5</ele>
        <time>2012-01-14T15:26:53Z</time>
      </trkpt>
      <trkpt lat="47.25235" lon="-1.64406">
        <ele>-107</ele>
        <time>2012-01-14T15:26:55Z</time>
      </trkpt>
      <trkpt lat="47.25223" lon="-1.64417">
        <ele>-105.5</ele>
        <time>2012-01-14T15:26:58Z</time>
      </trkpt>
      <trkpt lat="47.25213" lon="-1.64426">
        <ele>-103.75</ele>
        <time>2012-01-14T15:27:00Z</time>
      </trkpt>
      <trkpt lat="47.25199" lon="-1.64437">
        <ele>-102.25</ele>
        <time>2012-01-14T15:27:02Z</time>
      </trkpt>
      <trkpt lat="47.25186" lon="-1.64448">
        <ele>-101</ele>
        <time>2012-01-14T15:27:05Z</time>
      </trkpt>
      <trkpt lat="47.25174" lon="-1.64456">
        <ele>-100</ele>
        <time>2012-01-14T15:27:07Z</time>
      </trkpt>
      <trkpt lat="47.25162" lon="-1.64466">
        <ele>-99.25</ele>
        <time>2012-01-14T15:27:09Z</time>
      </trkpt>
      <trkpt lat="47.2515" lon="-1.64474">
        <ele>-99</ele>
        <time>2012-01-14T15:27:11Z</time>
      </trkpt>
      <trkpt lat="47.25139" lon="-1.64481">
        <ele>-98.5</ele>
        <time>2012-01-14T15:27:14Z</time>
      </trkpt>
      <trkpt lat="47.25128" lon="-1.6449">
        <ele>-97.75</ele>
        <time>2012-01-14T15:27:16Z</time>
      </trkpt>
      <trkpt lat="47.25114" lon="-1.64502">
        <ele>-96.5</ele>
        <time>2012-01-14T15:27:18Z</time>
      </trkpt>
      <trkpt lat="47.251" lon="-1.64516">
        <ele>-95</ele>
        <time>2012-01-14T15:27:20Z</time>
      </trkpt>
      <trkpt lat="47.25089" lon="-1.64527">
        <ele>-94.25</ele>
        <time>2012-01-14T15:27:23Z</time>
      </trkpt>
      <trkpt lat="47.25079" lon="-1.64537">
        <ele>-93.5</ele>
        <time>2012-01-14T15:27:25Z</time>
      </trkpt>
      <trkpt lat="47.25066" lon="-1.6455">
        <ele>-92.75</ele>
        <time>2012-01-14T15:27:27Z</time>
      </trkpt>
      <trkpt lat="47.25055" lon="-1.64562">
        <ele>-92.25</ele>
        <time>2012-01-14T15:27:29Z</time>
      </trkpt>
      <trkpt lat="47.25045" lon="-1.64571">
        <ele>-92</ele>
        <time>2012-01-14T15:27:33Z</time>
      </trkpt>
      <trkpt lat="47.25036" lon="-1.64578">
        <ele>-92.75</ele>
        <time>2012-01-14T15:27:36Z</time>
      </trkpt>
      <trkpt lat="47.25026" lon="-1.64582">
        <ele>-93.5</ele>
        <time>2012-01-14T15:27:39Z</time>
      </trkpt>
      <trkpt lat="47.25014" lon="-1.6457">
        <ele>-93.25</ele>
        <time>2012-01-14T15:27:43Z</time>
      </trkpt>
      <trkpt lat="47.2501" lon="-1.64556">
        <ele>-94.5</ele>
        <time>2012-01-14T15:27:45Z</time>
      </trkpt>
      <trkpt lat="47.25007" lon="-1.64543">
        <ele>-96</ele>
        <time>2012-01-14T15:27:47Z</time>
      </trkpt>
      <trkpt lat="47.25003" lon="-1.64531">
        <ele>-97</ele>
        <time>2012-01-14T15:27:50Z</time>
      </trkpt>
      <trkpt lat="47.24999" lon="-1.64514">
        <ele>-98.75</ele>
        <time>2012-01-14T15:27:53Z</time>
      </trkpt>
      <trkpt lat="47.24995" lon="-1.645">
        <ele>-99</ele>
        <time>2012-01-14T15:27:55Z</time>
      </trkpt>
      <trkpt lat="47.24991" lon="-1.64486">
        <ele>-99</ele>
        <time>2012-01-14T15:27:57Z</time>
      </trkpt>
      <trkpt lat="47.24987" lon="-1.64471">
        <ele>-99.75</ele>
        <time>2012-01-14T15:28:01Z</time>
      </trkpt>
      <trkpt lat="47.24983" lon="-1.64457">
        <ele>-102</ele>
        <time>2012-01-14T15:28:04Z</time>
      </trkpt>
      <trkpt lat="47.24978" lon="-1.64445">
        <ele>-102.5</ele>
        <time>2012-01-14T15:28:07Z</time>
      </trkpt>
      <trkpt lat="47.24975" lon="-1.64432">
        <ele>-103</ele>
        <time>2012-01-14T15:28:11Z</time>
      </trkpt>
      <trkpt lat="47.24971" lon="-1.64418">
        <ele>-105.5</ele>
        <time>2012-01-14T15:28:14Z</time>
      </trkpt>
      <trkpt lat="47.24966" lon="-1.64402">
        <ele>-106.25</ele>
        <time>2012-01-14T15:28:18Z</time>
      </trkpt>
      <trkpt lat="47.24961" lon="-1.6439">
        <ele>-105</ele>
        <time>2012-01-14T15:28:20Z</time>
      </trkpt>
      <trkpt lat="47.24958" lon="-1.64375">
        <ele>-104.5</ele>
        <time>2012-01-14T15:28:22Z</time>
      </trkpt>
      <trkpt lat="47.24955" lon="-1.64361">
        <ele>-104.75</ele>
        <time>2012-01-14T15:28:24Z</time>
      </trkpt>
      <trkpt lat="47.24951" lon="-1.64341">
        <ele>-105.25</ele>
        <time>2012-01-14T15:28:28Z</time>
      </trkpt>
      <trkpt lat="47.24948" lon="-1.64325">
        <ele>-105.25</ele>
        <time>2012-01-14T15:28:30Z</time>
      </trkpt>
      <trkpt lat="47.24944" lon="-1.64312">
        <ele>-105.5</ele>
        <time>2012-01-14T15:28:32Z</time>
      </trkpt>
      <trkpt lat="47.2494" lon="-1.64298">
        <ele>-106</ele>
        <time>2012-01-14T15:28:35Z</time>
      </trkpt>
      <trkpt lat="47.24934" lon="-1.64283">
        <ele>-106.75</ele>
        <time>2012-01-14T15:28:40Z</time>
      </trkpt>
      <trkpt lat="47.2493" lon="-1.6427">
        <ele>-107.75</ele>
        <time>2012-01-14T15:28:43Z</time>
      </trkpt>
      <trkpt lat="47.24928" lon="-1.64257">
        <ele>-107.5</ele>
        <time>2012-01-14T15:28:46Z</time>
      </trkpt>
      <trkpt lat="47.24926" lon="-1.64241">
        <ele>-106.5</ele>
        <time>2012-01-14T15:28:52Z</time>
      </trkpt>
      <trkpt lat="47.24923" lon="-1.64225">
        <ele>-105.25</ele>
        <time>2012-01-14T15:28:55Z</time>
      </trkpt>
      <trkpt lat="47.24921" lon="-1.64212">
        <ele>-103.75</ele>
        <time>2012-01-14T15:28:59Z</time>
      </trkpt>
      <trkpt lat="47.2492" lon="-1.64196">
        <ele>-102</ele>
        <time>2012-01-14T15:29:02Z</time>
      </trkpt>
      <trkpt lat="47.2492" lon="-1.64182">
        <ele>-103.5</ele>
        <time>2012-01-14T15:29:05Z</time>
      </trkpt>
      <trkpt lat="47.24915" lon="-1.64165">
        <ele>-104.75</ele>
        <time>2012-01-14T15:29:10Z</time>
      </trkpt>
      <trkpt lat="47.2491" lon="-1.64148">
        <ele>-102.5</ele>
        <time>2012-01-14T15:29:13Z</time>
      </trkpt>
      <trkpt lat="47.24906" lon="-1.64133">
        <ele>-100</ele>
        <time>2012-01-14T15:29:16Z</time>
      </trkpt>
      <trkpt lat="47.24902" lon="-1.64119">
        <ele>-99.75</ele>
        <time>2012-01-14T15:29:20Z</time>
      </trkpt>
      <trkpt lat="47.24897" lon="-1.64105">
        <ele>-100</ele>
        <time>2012-01-14T15:29:23Z</time>
      </trkpt>
      <trkpt lat="47.2489" lon="-1.64093">
        <ele>-98.25</ele>
        <time>2012-01-14T15:29:26Z</time>
      </trkpt>
      <trkpt lat="47.24885" lon="-1.64079">
        <ele>-99</ele>
        <time>2012-01-14T15:29:31Z</time>
      </trkpt>
      <trkpt lat="47.24884" lon="-1.64063">
        <ele>-98.5</ele>
        <time>2012-01-14T15:29:35Z</time>
      </trkpt>
      <trkpt lat="47.24887" lon="-1.64047">
        <ele>-99</ele>
        <time>2012-01-14T15:29:40Z</time>
      </trkpt>
      <trkpt lat="47.24888" lon="-1.64033">
        <ele>-102</ele>
        <time>2012-01-14T15:29:48Z</time>
      </trkpt>
      <trkpt lat="47.24889" lon="-1.6402">
        <ele>-94.5</ele>
        <time>2012-01-14T15:30:08Z</time>
      </trkpt>
      <trkpt lat="47.24886" lon="-1.64008">
        <ele>-93.25</ele>
        <time>2012-01-14T15:30:35Z</time>
      </trkpt>
      <trkpt lat="47.24879" lon="-1.63996">
        <ele>-95.75</ele>
        <time>2012-01-14T15:30:40Z</time>
      </trkpt>
      <trkpt lat="47.24872" lon="-1.63984">
        <ele>-99.75</ele>
        <time>2012-01-14T15:30:43Z</time>
      </trkpt>
      <trkpt lat="47.24863" lon="-1.63969">
        <ele>-103.5</ele>
        <time>2012-01-14T15:30:46Z</time>
      </trkpt>
      <trkpt lat="47.24857" lon="-1.63959">
        <ele>-105</ele>
        <time>2012-01-14T15:30:49Z</time>
      </trkpt>
      <trkpt lat="47.2485" lon="-1.63946">
        <ele>-106.5</ele>
        <time>2012-01-14T15:30:51Z</time>
      </trkpt>
      <trkpt lat="47.24843" lon="-1.63932">
        <ele>-108.5</ele>
        <time>2012-01-14T15:30:53Z</time>
      </trkpt>
      <trkpt lat="47.24835" lon="-1.6392">
        <ele>-109.75</ele>
        <time>2012-01-14T15:30:55Z</time>
      </trkpt>
      <trkpt lat="47.24827" lon="-1.63907">
        <ele>-109.75</ele>
        <time>2012-01-14T15:30:58Z</time>
      </trkpt>
      <trkpt lat="47.2482" lon="-1.63893">
        <ele>-109.75</ele>
        <time>2012-01-14T15:31:00Z</time>
      </trkpt>
      <trkpt lat="47.24814" lon="-1.6388">
        <ele>-110</ele>
        <time>2012-01-14T15:31:02Z</time>
      </trkpt>
      <trkpt lat="47.24808" lon="-1.63868">
        <ele>-110.25</ele>
        <time>2012-01-14T15:31:05Z</time>
      </trkpt>
      <trkpt lat="47.24802" lon="-1.63855">
        <ele>-110.5</ele>
        <time>2012-01-14T15:31:07Z</time>
      </trkpt>
      <trkpt lat="47.24794" lon="-1.63841">
        <ele>-111</ele>
        <time>2012-01-14T15:31:09Z</time>
      </trkpt>
      <trkpt lat="47.24787" lon="-1.6383">
        <ele>-111.5</ele>
        <time>2012-01-14T15:31:11Z</time>
      </trkpt>
      <trkpt lat="47.24776" lon="-1.63816">
        <ele>-111.5</ele>
        <time>2012-01-14T15:31:15Z</time>
      </trkpt>
      <trkpt lat="47.24767" lon="-1.63803">
        <ele>-112.5</ele>
        <time>2012-01-14T15:31:18Z</time>
      </trkpt>
      <trkpt lat="47.24761" lon="-1.63793">
        <ele>-112.5</ele>
        <time>2012-01-14T15:31:22Z</time>
      </trkpt>
      <trkpt lat="47.24754" lon="-1.63782">
        <ele>-112.5</ele>
        <time>2012-01-14T15:31:25Z</time>
      </trkpt>
      <trkpt lat="47.24746" lon="-1.6377">
        <ele>-112.5</ele>
        <time>2012-01-14T15:31:28Z</time>
      </trkpt>
      <trkpt lat="47.2474" lon="-1.63759">
        <ele>-111.25</ele>
        <time>2012-01-14T15:31:32Z</time>
      </trkpt>
      <trkpt lat="47.24735" lon="-1.63744">
        <ele>-111.5</ele>
        <time>2012-01-14T15:31:35Z</time>
      </trkpt>
      <trkpt lat="47.24734" lon="-1.63731">
        <ele>-114</ele>
        <time>2012-01-14T15:31:39Z</time>
      </trkpt>
      <trkpt lat="47.24733" lon="-1.63715">
        <ele>-114.5</ele>
        <time>2012-01-14T15:31:49Z</time>
      </trkpt>
      <trkpt lat="47.24728" lon="-1.63699">
        <ele>-118.75</ele>
        <time>2012-01-14T15:31:54Z</time>
      </trkpt>
      <trkpt lat="47.24721" lon="-1.63691">
        <ele>-118.5</ele>
        <time>2012-01-14T15:31:56Z</time>
      </trkpt>
      <trkpt lat="47.24713" lon="-1.63682">
        <ele>-118.25</ele>
        <time>2012-01-14T15:31:58Z</time>
      </trkpt>
      <trkpt lat="47.24704" lon="-1.63669">
        <ele>-118</ele>
        <time>2012-01-14T15:32:01Z</time>
      </trkpt>
      <trkpt lat="47.24698" lon="-1.63658">
        <ele>-117</ele>
        <time>2012-01-14T15:32:04Z</time>
      </trkpt>
      <trkpt lat="47.24691" lon="-1.63649">
        <ele>-118.25</ele>
        <time>2012-01-14T15:32:06Z</time>
      </trkpt>
      <trkpt lat="47.24686" lon="-1.63638">
        <ele>-123.25</ele>
        <time>2012-01-14T15:32:08Z</time>
      </trkpt>
      <trkpt lat="47.24679" lon="-1.63624">
        <ele>-128</ele>
        <time>2012-01-14T15:32:11Z</time>
      </trkpt>
      <trkpt lat="47.24673" lon="-1.63611">
        <ele>-130.5</ele>
        <time>2012-01-14T15:32:15Z</time>
      </trkpt>
      <trkpt lat="47.24666" lon="-1.63599">
        <ele>-136.25</ele>
        <time>2012-01-14T15:32:18Z</time>
      </trkpt>
      <trkpt lat="47.24656" lon="-1.63593">
        <ele>-142.75</ele>
        <time>2012-01-14T15:32:21Z</time>
      </trkpt>
      <trkpt lat="47.24644" lon="-1.6359">
        <ele>-145.25</ele>
        <time>2012-01-14T15:32:25Z</time>
      </trkpt>
      <trkpt lat="47.2463" lon="-1.63592">
        <ele>-147.5</ele>
        <time>2012-01-14T15:32:28Z</time>
      </trkpt>
      <trkpt lat="47.24618" lon="-1.63588">
        <ele>-150.75</ele>
        <time>2012-01-14T15:32:31Z</time>
      </trkpt>
      <trkpt lat="47.24607" lon="-1.63583">
        <ele>-153.75</ele>
        <time>2012-01-14T15:32:35Z</time>
      </trkpt>
      <trkpt lat="47.24594" lon="-1.63579">
        <ele>-157</ele>
        <time>2012-01-14T15:32:38Z</time>
      </trkpt>
      <trkpt lat="47.24585" lon="-1.63572">
        <ele>-159</ele>
        <time>2012-01-14T15:32:41Z</time>
      </trkpt>
      <trkpt lat="47.24574" lon="-1.63572">
        <ele>-159.75</ele>
        <time>2012-01-14T15:32:46Z</time>
      </trkpt>
      <trkpt lat="47.24564" lon="-1.63576">
        <ele>-158</ele>
        <time>2012-01-14T15:32:49Z</time>
      </trkpt>
      <trkpt lat="47.24555" lon="-1.63578">
        <ele>-155.25</ele>
        <time>2012-01-14T15:32:51Z</time>
      </trkpt>
      <trkpt lat="47.24545" lon="-1.63581">
        <ele>-152</ele>
        <time>2012-01-14T15:32:53Z</time>
      </trkpt>
      <trkpt lat="47.24535" lon="-1.63584">
        <ele>-145.75</ele>
        <time>2012-01-14T15:32:55Z</time>
      </trkpt>
      <trkpt lat="47.24524" lon="-1.63588">
        <ele>-139.25</ele>
        <time>2012-01-14T15:32:58Z</time>
      </trkpt>
      <trkpt lat="47.24513" lon="-1.63595">
        <ele>-134</ele>
        <time>2012-01-14T15:33:00Z</time>
      </trkpt>
      <trkpt lat="47.24502" lon="-1.63604">
        <ele>-127.5</ele>
        <time>2012-01-14T15:33:02Z</time>
      </trkpt>
      <trkpt lat="47.24491" lon="-1.63613">
        <ele>-123</ele>
        <time>2012-01-14T15:33:04Z</time>
      </trkpt>
      <trkpt lat="47.24481" lon="-1.63621">
        <ele>-118.5</ele>
        <time>2012-01-14T15:33:07Z</time>
      </trkpt>
      <trkpt lat="47.24471" lon="-1.63626">
        <ele>-110.75</ele>
        <time>2012-01-14T15:33:09Z</time>
      </trkpt>
      <trkpt lat="47.24461" lon="-1.63633">
        <ele>-100.5</ele>
        <time>2012-01-14T15:33:12Z</time>
      </trkpt>
      <trkpt lat="47.24453" lon="-1.63645">
        <ele>-93.75</ele>
        <time>2012-01-14T15:33:17Z</time>
      </trkpt>
      <trkpt lat="47.24445" lon="-1.63654">
        <ele>-90.25</ele>
        <time>2012-01-14T15:33:19Z</time>
      </trkpt>
      <trkpt lat="47.24436" lon="-1.63665">
        <ele>-88</ele>
        <time>2012-01-14T15:33:21Z</time>
      </trkpt>
      <trkpt lat="47.24429" lon="-1.63677">
        <ele>-87.5</ele>
        <time>2012-01-14T15:33:23Z</time>
      </trkpt>
      <trkpt lat="47.24425" lon="-1.63689">
        <ele>-87.75</ele>
        <time>2012-01-14T15:33:26Z</time>
      </trkpt>
      <trkpt lat="47.2442" lon="-1.63705">
        <ele>-87.5</ele>
        <time>2012-01-14T15:33:29Z</time>
      </trkpt>
      <trkpt lat="47.24417" lon="-1.63718">
        <ele>-86.5</ele>
        <time>2012-01-14T15:33:33Z</time>
      </trkpt>
      <trkpt lat="47.24421" lon="-1.6373">
        <ele>-81</ele>
        <time>2012-01-14T15:33:51Z</time>
      </trkpt>
      <trkpt lat="47.24412" lon="-1.63731">
        <ele>-78.25</ele>
        <time>2012-01-14T15:34:18Z</time>
      </trkpt>
      <trkpt lat="47.24405" lon="-1.63741">
        <ele>-74</ele>
        <time>2012-01-14T15:34:38Z</time>
      </trkpt>
      <trkpt lat="47.24396" lon="-1.63747">
        <ele>-75</ele>
        <time>2012-01-14T15:34:44Z</time>
      </trkpt>
      <trkpt lat="47.24392" lon="-1.63731">
        <ele>-76</ele>
        <time>2012-01-14T15:34:50Z</time>
      </trkpt>
      <trkpt lat="47.24394" lon="-1.63717">
        <ele>-75.5</ele>
        <time>2012-01-14T15:34:53Z</time>
      </trkpt>
      <trkpt lat="47.24396" lon="-1.63701">
        <ele>-76</ele>
        <time>2012-01-14T15:34:56Z</time>
      </trkpt>
      <trkpt lat="47.24397" lon="-1.63686">
        <ele>-76</ele>
        <time>2012-01-14T15:34:59Z</time>
      </trkpt>
      <trkpt lat="47.24398" lon="-1.63669">
        <ele>-76</ele>
        <time>2012-01-14T15:35:03Z</time>
      </trkpt>
      <trkpt lat="47.24397" lon="-1.6365">
        <ele>-76</ele>
        <time>2012-01-14T15:35:06Z</time>
      </trkpt>
      <trkpt lat="47.24396" lon="-1.63633">
        <ele>-76</ele>
        <time>2012-01-14T15:35:09Z</time>
      </trkpt>
      <trkpt lat="47.24393" lon="-1.63619">
        <ele>-76.75</ele>
        <time>2012-01-14T15:35:13Z</time>
      </trkpt>
      <trkpt lat="47.24389" lon="-1.63606">
        <ele>-75.5</ele>
        <time>2012-01-14T15:35:15Z</time>
      </trkpt>
      <trkpt lat="47.24382" lon="-1.63586">
        <ele>-71</ele>
        <time>2012-01-14T15:35:17Z</time>
      </trkpt>
      <trkpt lat="47.24379" lon="-1.63565">
        <ele>-67.5</ele>
        <time>2012-01-14T15:35:19Z</time>
      </trkpt>
      <trkpt lat="47.24379" lon="-1.6355">
        <ele>-67.25</ele>
        <time>2012-01-14T15:35:22Z</time>
      </trkpt>
      <trkpt lat="47.2438" lon="-1.63536">
        <ele>-68.25</ele>
        <time>2012-01-14T15:35:24Z</time>
      </trkpt>
      <trkpt lat="47.24386" lon="-1.6352">
        <ele>-70.5</ele>
        <time>2012-01-14T15:35:27Z</time>
      </trkpt>
      <trkpt lat="47.24392" lon="-1.63508">
        <ele>-72.75</ele>
        <time>2012-01-14T15:35:31Z</time>
      </trkpt>
      <trkpt lat="47.24394" lon="-1.63489">
        <ele>-74.5</ele>
        <time>2012-01-14T15:35:34Z</time>
      </trkpt>
      <trkpt lat="47.24395" lon="-1.63474">
        <ele>-77.25</ele>
        <time>2012-01-14T15:35:36Z</time>
      </trkpt>
      <trkpt lat="47.24394" lon="-1.63457">
        <ele>-80</ele>
        <time>2012-01-14T15:35:40Z</time>
      </trkpt>
      <trkpt lat="47.24391" lon="-1.63438">
        <ele>-84.75</ele>
        <time>2012-01-14T15:35:43Z</time>
      </trkpt>
      <trkpt lat="47.24386" lon="-1.63424">
        <ele>-85.5</ele>
        <time>2012-01-14T15:35:47Z</time>
      </trkpt>
      <trkpt lat="47.24379" lon="-1.63414">
        <ele>-85.25</ele>
        <time>2012-01-14T15:35:50Z</time>
      </trkpt>
      <trkpt lat="47.24371" lon="-1.63406">
        <ele>-84.5</ele>
        <time>2012-01-14T15:35:53Z</time>
      </trkpt>
      <trkpt lat="47.24372" lon="-1.63391">
        <ele>-83</ele>
        <time>2012-01-14T15:35:58Z</time>
      </trkpt>
      <trkpt lat="47.24377" lon="-1.63378">
        <ele>-83</ele>
        <time>2012-01-14T15:36:02Z</time>
      </trkpt>
      <trkpt lat="47.24379" lon="-1.63362">
        <ele>-83</ele>
        <time>2012-01-14T15:36:05Z</time>
      </trkpt>
      <trkpt lat="47.24377" lon="-1.63348">
        <ele>-86</ele>
        <time>2012-01-14T15:36:08Z</time>
      </trkpt>
      <trkpt lat="47.24372" lon="-1.63336">
        <ele>-87.75</ele>
        <time>2012-01-14T15:36:12Z</time>
      </trkpt>
      <trkpt lat="47.24366" lon="-1.63322">
        <ele>-89</ele>
        <time>2012-01-14T15:36:15Z</time>
      </trkpt>
      <trkpt lat="47.24359" lon="-1.63308">
        <ele>-91</ele>
        <time>2012-01-14T15:36:20Z</time>
      </trkpt>
      <trkpt lat="47.24348" lon="-1.63298">
        <ele>-93.25</ele>
        <time>2012-01-14T15:36:23Z</time>
      </trkpt>
      <trkpt lat="47.24341" lon="-1.6329">
        <ele>-94.25</ele>
        <time>2012-01-14T15:36:25Z</time>
      </trkpt>
      <trkpt lat="47.24334" lon="-1.63281">
        <ele>-93.75</ele>
        <time>2012-01-14T15:36:28Z</time>
      </trkpt>
      <trkpt lat="47.24326" lon="-1.63269">
        <ele>-93.25</ele>
        <time>2012-01-14T15:36:30Z</time>
      </trkpt>
      <trkpt lat="47.24318" lon="-1.63255">
        <ele>-94.5</ele>
        <time>2012-01-14T15:36:32Z</time>
      </trkpt>
      <trkpt lat="47.24311" lon="-1.63243">
        <ele>-95.25</ele>
        <time>2012-01-14T15:36:34Z</time>
      </trkpt>
      <trkpt lat="47.24304" lon="-1.63226">
        <ele>-95.75</ele>
        <time>2012-01-14T15:36:38Z</time>
      </trkpt>
      <trkpt lat="47.24298" lon="-1.63214">
        <ele>-96.75</ele>
        <time>2012-01-14T15:36:40Z</time>
      </trkpt>
      <trkpt lat="47.24289" lon="-1.63203">
        <ele>-101</ele>
        <time>2012-01-14T15:36:43Z</time>
      </trkpt>
      <trkpt lat="47.24278" lon="-1.63193">
        <ele>-105.25</ele>
        <time>2012-01-14T15:36:47Z</time>
      </trkpt>
      <trkpt lat="47.24268" lon="-1.63181">
        <ele>-105.25</ele>
        <time>2012-01-14T15:36:49Z</time>
      </trkpt>
      <trkpt lat="47.24257" lon="-1.63168">
        <ele>-105</ele>
        <time>2012-01-14T15:36:51Z</time>
      </trkpt>
      <trkpt lat="47.24248" lon="-1.63158">
        <ele>-104.5</ele>
        <time>2012-01-14T15:36:53Z</time>
      </trkpt>
      <trkpt lat="47.2424" lon="-1.63148">
        <ele>-103.5</ele>
        <time>2012-01-14T15:36:56Z</time>
      </trkpt>
      <trkpt lat="47.24231" lon="-1.63134">
        <ele>-102</ele>
        <time>2012-01-14T15:36:58Z</time>
      </trkpt>
      <trkpt lat="47.24226" lon="-1.63119">
        <ele>-101.5</ele>
        <time>2012-01-14T15:37:00Z</time>
      </trkpt>
      <trkpt lat="47.24222" lon="-1.63101">
        <ele>-104.5</ele>
        <time>2012-01-14T15:37:04Z</time>
      </trkpt>
      <trkpt lat="47.2422" lon="-1.63087">
        <ele>-107.5</ele>
        <time>2012-01-14T15:37:06Z</time>
      </trkpt>
      <trkpt lat="47.24218" lon="-1.63071">
        <ele>-108.5</ele>
        <time>2012-01-14T15:37:08Z</time>
      </trkpt>
      <trkpt lat="47.24217" lon="-1.63056">
        <ele>-107.25</ele>
        <time>2012-01-14T15:37:11Z</time>
      </trkpt>
      <trkpt lat="47.24215" lon="-1.6304">
        <ele>-105.75</ele>
        <time>2012-01-14T15:37:14Z</time>
      </trkpt>
      <trkpt lat="47.24212" lon="-1.63028">
        <ele>-103</ele>
        <time>2012-01-14T15:37:16Z</time>
      </trkpt>
      <trkpt lat="47.24207" lon="-1.63015">
        <ele>-98</ele>
        <time>2012-01-14T15:37:18Z</time>
      </trkpt>
      <trkpt lat="47.24203" lon="-1.63002">
        <ele>-91.5</ele>
        <time>2012-01-14T15:37:21Z</time>
      </trkpt>
      <trkpt lat="47.24197" lon="-1.62986">
        <ele>-84.5</ele>
        <time>2012-01-14T15:37:27Z</time>
      </trkpt>
      <trkpt lat="47.24193" lon="-1.62973">
        <ele>-81</ele>
        <time>2012-01-14T15:37:29Z</time>
      </trkpt>
      <trkpt lat="47.24188" lon="-1.62961">
        <ele>-78.25</ele>
        <time>2012-01-14T15:37:31Z</time>
      </trkpt>
      <trkpt lat="47.24183" lon="-1.6295">
        <ele>-76</ele>
        <time>2012-01-14T15:37:33Z</time>
      </trkpt>
      <trkpt lat="47.24178" lon="-1.62937">
        <ele>-73</ele>
        <time>2012-01-14T15:37:36Z</time>
      </trkpt>
      <trkpt lat="47.24173" lon="-1.62925">
        <ele>-70</ele>
        <time>2012-01-14T15:37:38Z</time>
      </trkpt>
      <trkpt lat="47.24168" lon="-1.62909">
        <ele>-66.75</ele>
        <time>2012-01-14T15:37:40Z</time>
      </trkpt>
      <trkpt lat="47.24164" lon="-1.62895">
        <ele>-65.25</ele>
        <time>2012-01-14T15:37:42Z</time>
      </trkpt>
      <trkpt lat="47.24159" lon="-1.62876">
        <ele>-66.75</ele>
        <time>2012-01-14T15:37:45Z</time>
      </trkpt>
      <trkpt lat="47.24156" lon="-1.62863">
        <ele>-68</ele>
        <time>2012-01-14T15:37:48Z</time>
      </trkpt>
      <trkpt lat="47.2415" lon="-1.62848">
        <ele>-68.25</ele>
        <time>2012-01-14T15:37:50Z</time>
      </trkpt>
      <trkpt lat="47.24141" lon="-1.62833">
        <ele>-66.25</ele>
        <time>2012-01-14T15:37:52Z</time>
      </trkpt>
      <trkpt lat="47.24134" lon="-1.6282">
        <ele>-65.25</ele>
        <time>2012-01-14T15:37:54Z</time>
      </trkpt>
      <trkpt lat="47.24131" lon="-1.62802">
        <ele>-67.5</ele>
        <time>2012-01-14T15:37:58Z</time>
      </trkpt>
      <trkpt lat="47.24127" lon="-1.62786">
        <ele>-71.25</ele>
        <time>2012-01-14T15:38:01Z</time>
      </trkpt>
      <trkpt lat="47.2412" lon="-1.62775">
        <ele>-71</ele>
        <time>2012-01-14T15:38:03Z</time>
      </trkpt>
      <trkpt lat="47.24113" lon="-1.62764">
        <ele>-70.25</ele>
        <time>2012-01-14T15:38:05Z</time>
      </trkpt>
      <trkpt lat="47.24106" lon="-1.62752">
        <ele>-71.25</ele>
        <time>2012-01-14T15:38:09Z</time>
      </trkpt>
      <trkpt lat="47.241" lon="-1.62741">
        <ele>-72.5</ele>
        <time>2012-01-14T15:38:13Z</time>
      </trkpt>
      <trkpt lat="47.24107" lon="-1.62732">
        <ele>-78.5</ele>
        <time>2012-01-14T15:39:13Z</time>
      </trkpt>
      <trkpt lat="47.24099" lon="-1.62722">
        <ele>-78</ele>
        <time>2012-01-14T15:39:27Z</time>
      </trkpt>
      <trkpt lat="47.24091" lon="-1.62714">
        <ele>-81.25</ele>
        <time>2012-01-14T15:39:40Z</time>
      </trkpt>
      <trkpt lat="47.24083" lon="-1.62708">
        <ele>-80</ele>
        <time>2012-01-14T15:39:49Z</time>
      </trkpt>
      <trkpt lat="47.24081" lon="-1.62692">
        <ele>-69.75</ele>
        <time>2012-01-14T15:40:06Z</time>
      </trkpt>
      <trkpt lat="47.24076" lon="-1.6268">
        <ele>-73</ele>
        <time>2012-01-14T15:40:09Z</time>
      </trkpt>
      <trkpt lat="47.2407" lon="-1.6267">
        <ele>-71.75</ele>
        <time>2012-01-14T15:40:14Z</time>
      </trkpt>
      <trkpt lat="47.24071" lon="-1.62657">
        <ele>-71</ele>
        <time>2012-01-14T15:40:20Z</time>
      </trkpt>
      <trkpt lat="47.24075" lon="-1.62642">
        <ele>-71.5</ele>
        <time>2012-01-14T15:40:25Z</time>
      </trkpt>
      <trkpt lat="47.2408" lon="-1.62631">
        <ele>-70.25</ele>
        <time>2012-01-14T15:40:28Z</time>
      </trkpt>
      <trkpt lat="47.24085" lon="-1.62619">
        <ele>-71.25</ele>
        <time>2012-01-14T15:40:33Z</time>
      </trkpt>
      <trkpt lat="47.2409" lon="-1.62603">
        <ele>-73</ele>
        <time>2012-01-14T15:40:38Z</time>
      </trkpt>
      <trkpt lat="47.24094" lon="-1.62589">
        <ele>-73.25</ele>
        <time>2012-01-14T15:40:43Z</time>
      </trkpt>
      <trkpt lat="47.24098" lon="-1.62577">
        <ele>-72.25</ele>
        <time>2012-01-14T15:40:46Z</time>
      </trkpt>
      <trkpt lat="47.24102" lon="-1.62565">
        <ele>-74.25</ele>
        <time>2012-01-14T15:40:56Z</time>
      </trkpt>
      <trkpt lat="47.24097" lon="-1.62552">
        <ele>-79.5</ele>
        <time>2012-01-14T15:41:34Z</time>
      </trkpt>
      <trkpt lat="47.24088" lon="-1.62547">
        <ele>-76</ele>
        <time>2012-01-14T15:41:38Z</time>
      </trkpt>
      <trkpt lat="47.24075" lon="-1.62541">
        <ele>-74.5</ele>
        <time>2012-01-14T15:41:41Z</time>
      </trkpt>
      <trkpt lat="47.24067" lon="-1.62531">
        <ele>-75.75</ele>
        <time>2012-01-14T15:41:45Z</time>
      </trkpt>
      <trkpt lat="47.24062" lon="-1.62521">
        <ele>-76.25</ele>
        <time>2012-01-14T15:41:47Z</time>
      </trkpt>
      <trkpt lat="47.24054" lon="-1.62508">
        <ele>-74.5</ele>
        <time>2012-01-14T15:41:49Z</time>
      </trkpt>
      <trkpt lat="47.24047" lon="-1.62497">
        <ele>-72.5</ele>
        <time>2012-01-14T15:41:51Z</time>
      </trkpt>
      <trkpt lat="47.2404" lon="-1.62484">
        <ele>-74.25</ele>
        <time>2012-01-14T15:41:54Z</time>
      </trkpt>
      <trkpt lat="47.24037" lon="-1.62472">
        <ele>-83.25</ele>
        <time>2012-01-14T15:41:59Z</time>
      </trkpt>
      <trkpt lat="47.2403" lon="-1.62461">
        <ele>-87.75</ele>
        <time>2012-01-14T15:42:02Z</time>
      </trkpt>
      <trkpt lat="47.24024" lon="-1.62448">
        <ele>-90.75</ele>
        <time>2012-01-14T15:42:05Z</time>
      </trkpt>
      <trkpt lat="47.24023" lon="-1.62434">
        <ele>-91.25</ele>
        <time>2012-01-14T15:42:09Z</time>
      </trkpt>
      <trkpt lat="47.24021" lon="-1.62416">
        <ele>-88.25</ele>
        <time>2012-01-14T15:42:12Z</time>
      </trkpt>
      <trkpt lat="47.24018" lon="-1.62404">
        <ele>-87</ele>
        <time>2012-01-14T15:42:14Z</time>
      </trkpt>
      <trkpt lat="47.24016" lon="-1.62387">
        <ele>-85.5</ele>
        <time>2012-01-14T15:42:17Z</time>
      </trkpt>
      <trkpt lat="47.24009" lon="-1.62377">
        <ele>-89.5</ele>
        <time>2012-01-14T15:42:25Z</time>
      </trkpt>
      <trkpt lat="47.24002" lon="-1.62358">
        <ele>-83</ele>
        <time>2012-01-14T15:42:29Z</time>
      </trkpt>
      <trkpt lat="47.24004" lon="-1.62337">
        <ele>-82.5</ele>
        <time>2012-01-14T15:42:31Z</time>
      </trkpt>
      <trkpt lat="47.24007" lon="-1.62318">
        <ele>-82</ele>
        <time>2012-01-14T15:42:33Z</time>
      </trkpt>
      <trkpt lat="47.24008" lon="-1.62299">
        <ele>-81</ele>
        <time>2012-01-14T15:42:37Z</time>
      </trkpt>
      <trkpt lat="47.24009" lon="-1.62285">
        <ele>-79.25</ele>
        <time>2012-01-14T15:42:39Z</time>
      </trkpt>
      <trkpt lat="47.24011" lon="-1.6227">
        <ele>-77.25</ele>
        <time>2012-01-14T15:42:41Z</time>
      </trkpt>
      <trkpt lat="47.24011" lon="-1.62252">
        <ele>-75.25</ele>
        <time>2012-01-14T15:42:45Z</time>
      </trkpt>
      <trkpt lat="47.24012" lon="-1.62234">
        <ele>-74.25</ele>
        <time>2012-01-14T15:42:48Z</time>
      </trkpt>
      <trkpt lat="47.24013" lon="-1.62219">
        <ele>-72.5</ele>
        <time>2012-01-14T15:42:50Z</time>
      </trkpt>
      <trkpt lat="47.24013" lon="-1.62205">
        <ele>-70.75</ele>
        <time>2012-01-14T15:42:52Z</time>
      </trkpt>
      <trkpt lat="47.24014" lon="-1.62187">
        <ele>-71.5</ele>
        <time>2012-01-14T15:42:56Z</time>
      </trkpt>
      <trkpt lat="47.24014" lon="-1.62174">
        <ele>-72.75</ele>
        <time>2012-01-14T15:42:58Z</time>
      </trkpt>
      <trkpt lat="47.24014" lon="-1.62158">
        <ele>-74</ele>
        <time>2012-01-14T15:43:02Z</time>
      </trkpt>
      <trkpt lat="47.24013" lon="-1.62141">
        <ele>-74.5</ele>
        <time>2012-01-14T15:43:05Z</time>
      </trkpt>
      <trkpt lat="47.24009" lon="-1.62126">
        <ele>-75</ele>
        <time>2012-01-14T15:43:08Z</time>
      </trkpt>
      <trkpt lat="47.24007" lon="-1.62113">
        <ele>-75.75</ele>
        <time>2012-01-14T15:43:11Z</time>
      </trkpt>
      <trkpt lat="47.24008" lon="-1.62094">
        <ele>-76.25</ele>
        <time>2012-01-14T15:43:15Z</time>
      </trkpt>
      <trkpt lat="47.24009" lon="-1.62081">
        <ele>-77</ele>
        <time>2012-01-14T15:43:17Z</time>
      </trkpt>
      <trkpt lat="47.24009" lon="-1.62061">
        <ele>-79.25</ele>
        <time>2012-01-14T15:43:21Z</time>
      </trkpt>
      <trkpt lat="47.24005" lon="-1.62046">
        <ele>-79.5</ele>
        <time>2012-01-14T15:43:24Z</time>
      </trkpt>
      <trkpt lat="47.24" lon="-1.62035">
        <ele>-78.5</ele>
        <time>2012-01-14T15:43:26Z</time>
      </trkpt>
      <trkpt lat="47.23992" lon="-1.62022">
        <ele>-78</ele>
        <time>2012-01-14T15:43:29Z</time>
      </trkpt>
      <trkpt lat="47.23985" lon="-1.62011">
        <ele>-80.25</ele>
        <time>2012-01-14T15:43:33Z</time>
      </trkpt>
      <trkpt lat="47.23976" lon="-1.61998">
        <ele>-83</ele>
        <time>2012-01-14T15:43:36Z</time>
      </trkpt>
      <trkpt lat="47.23966" lon="-1.61986">
        <ele>-82.5</ele>
        <time>2012-01-14T15:43:40Z</time>
      </trkpt>
      <trkpt lat="47.23957" lon="-1.61977">
        <ele>-80</ele>
        <time>2012-01-14T15:43:42Z</time>
      </trkpt>
      <trkpt lat="47.23949" lon="-1.61971">
        <ele>-79</ele>
        <time>2012-01-14T15:43:44Z</time>
      </trkpt>
      <trkpt lat="47.2394" lon="-1.61967">
        <ele>-77.75</ele>
        <time>2012-01-14T15:43:48Z</time>
      </trkpt>
      <trkpt lat="47.23928" lon="-1.61966">
        <ele>-78.25</ele>
        <time>2012-01-14T15:43:51Z</time>
      </trkpt>
      <trkpt lat="47.23916" lon="-1.61966">
        <ele>-77.25</ele>
        <time>2012-01-14T15:43:54Z</time>
      </trkpt>
      <trkpt lat="47.23904" lon="-1.61962">
        <ele>-78.5</ele>
        <time>2012-01-14T15:43:58Z</time>
      </trkpt>
      <trkpt lat="47.23892" lon="-1.61958">
        <ele>-79</ele>
        <time>2012-01-14T15:44:01Z</time>
      </trkpt>
      <trkpt lat="47.23878" lon="-1.61951">
        <ele>-78.25</ele>
        <time>2012-01-14T15:44:05Z</time>
      </trkpt>
      <trkpt lat="47.23866" lon="-1.61945">
        <ele>-76</ele>
        <time>2012-01-14T15:44:07Z</time>
      </trkpt>
      <trkpt lat="47.23855" lon="-1.61938">
        <ele>-72.5</ele>
        <time>2012-01-14T15:44:09Z</time>
      </trkpt>
      <trkpt lat="47.23847" lon="-1.6193">
        <ele>-75</ele>
        <time>2012-01-14T15:44:16Z</time>
      </trkpt>
      <trkpt lat="47.23838" lon="-1.61924">
        <ele>-84.5</ele>
        <time>2012-01-14T15:45:09Z</time>
      </trkpt>
      <trkpt lat="47.23831" lon="-1.61915">
        <ele>-83</ele>
        <time>2012-01-14T15:45:13Z</time>
      </trkpt>
      <trkpt lat="47.23821" lon="-1.61902">
        <ele>-81.25</ele>
        <time>2012-01-14T15:45:15Z</time>
      </trkpt>
      <trkpt lat="47.23812" lon="-1.61888">
        <ele>-79.75</ele>
        <time>2012-01-14T15:45:17Z</time>
      </trkpt>
      <trkpt lat="47.23806" lon="-1.61877">
        <ele>-79.5</ele>
        <time>2012-01-14T15:45:20Z</time>
      </trkpt>
      <trkpt lat="47.238" lon="-1.61864">
        <ele>-79.5</ele>
        <time>2012-01-14T15:45:22Z</time>
      </trkpt>
      <trkpt lat="47.23793" lon="-1.61851">
        <ele>-80.5</ele>
        <time>2012-01-14T15:45:24Z</time>
      </trkpt>
      <trkpt lat="47.23787" lon="-1.6184">
        <ele>-82.5</ele>
        <time>2012-01-14T15:45:26Z</time>
      </trkpt>
      <trkpt lat="47.23779" lon="-1.61824">
        <ele>-83.75</ele>
        <time>2012-01-14T15:45:30Z</time>
      </trkpt>
      <trkpt lat="47.23773" lon="-1.6181">
        <ele>-82.5</ele>
        <time>2012-01-14T15:45:32Z</time>
      </trkpt>
      <trkpt lat="47.23768" lon="-1.61796">
        <ele>-83</ele>
        <time>2012-01-14T15:45:34Z</time>
      </trkpt>
      <trkpt lat="47.23763" lon="-1.61783">
        <ele>-83.75</ele>
        <time>2012-01-14T15:45:36Z</time>
      </trkpt>
      <trkpt lat="47.23759" lon="-1.6177">
        <ele>-83.5</ele>
        <time>2012-01-14T15:45:39Z</time>
      </trkpt>
      <trkpt lat="47.23756" lon="-1.61754">
        <ele>-83.25</ele>
        <time>2012-01-14T15:45:41Z</time>
      </trkpt>
      <trkpt lat="47.23752" lon="-1.61737">
        <ele>-82.5</ele>
        <time>2012-01-14T15:45:43Z</time>
      </trkpt>
      <trkpt lat="47.23748" lon="-1.61724">
        <ele>-82</ele>
        <time>2012-01-14T15:45:46Z</time>
      </trkpt>
      <trkpt lat="47.23746" lon="-1.61707">
        <ele>-83.5</ele>
        <time>2012-01-14T15:45:49Z</time>
      </trkpt>
      <trkpt lat="47.23746" lon="-1.61693">
        <ele>-85.5</ele>
        <time>2012-01-14T15:45:51Z</time>
      </trkpt>
      <trkpt lat="47.23747" lon="-1.61674">
        <ele>-86.5</ele>
        <time>2012-01-14T15:45:54Z</time>
      </trkpt>
      <trkpt lat="47.23751" lon="-1.61658">
        <ele>-87.25</ele>
        <time>2012-01-14T15:45:58Z</time>
      </trkpt>
      <trkpt lat="47.23753" lon="-1.61644">
        <ele>-86.25</ele>
        <time>2012-01-14T15:46:01Z</time>
      </trkpt>
      <trkpt lat="47.23758" lon="-1.61627">
        <ele>-84</ele>
        <time>2012-01-14T15:46:05Z</time>
      </trkpt>
      <trkpt lat="47.23757" lon="-1.61613">
        <ele>-82.25</ele>
        <time>2012-01-14T15:46:07Z</time>
      </trkpt>
      <trkpt lat="47.23754" lon="-1.61599">
        <ele>-82.25</ele>
        <time>2012-01-14T15:46:09Z</time>
      </trkpt>
      <trkpt lat="47.23751" lon="-1.61581">
        <ele>-82.25</ele>
        <time>2012-01-14T15:46:12Z</time>
      </trkpt>
      <trkpt lat="47.23753" lon="-1.61565">
        <ele>-79.25</ele>
        <time>2012-01-14T15:46:16Z</time>
      </trkpt>
      <trkpt lat="47.23754" lon="-1.61543">
        <ele>-76.25</ele>
        <time>2012-01-14T15:46:19Z</time>
      </trkpt>
      <trkpt lat="47.23754" lon="-1.61527">
        <ele>-73.75</ele>
        <time>2012-01-14T15:46:21Z</time>
      </trkpt>
      <trkpt lat="47.23756" lon="-1.61512">
        <ele>-71</ele>
        <time>2012-01-14T15:46:23Z</time>
      </trkpt>
      <trkpt lat="47.23762" lon="-1.61495">
        <ele>-71.25</ele>
        <time>2012-01-14T15:46:27Z</time>
      </trkpt>
      <trkpt lat="47.23766" lon="-1.6148">
        <ele>-71.5</ele>
        <time>2012-01-14T15:46:29Z</time>
      </trkpt>
      <trkpt lat="47.2377" lon="-1.61462">
        <ele>-72.5</ele>
        <time>2012-01-14T15:46:31Z</time>
      </trkpt>
      <trkpt lat="47.23773" lon="-1.61446">
        <ele>-73.5</ele>
        <time>2012-01-14T15:46:33Z</time>
      </trkpt>
      <trkpt lat="47.23775" lon="-1.6143">
        <ele>-73.25</ele>
        <time>2012-01-14T15:46:35Z</time>
      </trkpt>
      <trkpt lat="47.2378" lon="-1.61415">
        <ele>-73</ele>
        <time>2012-01-14T15:46:37Z</time>
      </trkpt>
      <trkpt lat="47.23783" lon="-1.61401">
        <ele>-73</ele>
        <time>2012-01-14T15:46:40Z</time>
      </trkpt>
      <trkpt lat="47.23786" lon="-1.61386">
        <ele>-73.5</ele>
        <time>2012-01-14T15:46:42Z</time>
      </trkpt>
      <trkpt lat="47.23785" lon="-1.61371">
        <ele>-73.75</ele>
        <time>2012-01-14T15:46:44Z</time>
      </trkpt>
      <trkpt lat="47.23778" lon="-1.61359">
        <ele>-73.25</ele>
        <time>2012-01-14T15:46:48Z</time>
      </trkpt>
      <trkpt lat="47.23771" lon="-1.6135">
        <ele>-74.75</ele>
        <time>2012-01-14T15:46:50Z</time>
      </trkpt>
      <trkpt lat="47.23765" lon="-1.61339">
        <ele>-76.5</ele>
        <time>2012-01-14T15:46:52Z</time>
      </trkpt>
      <trkpt lat="47.23756" lon="-1.61327">
        <ele>-77</ele>
        <time>2012-01-14T15:46:55Z</time>
      </trkpt>
      <trkpt lat="47.23745" lon="-1.61316">
        <ele>-77.25</ele>
        <time>2012-01-14T15:46:58Z</time>
      </trkpt>
      <trkpt lat="47.23736" lon="-1.61309">
        <ele>-78.5</ele>
        <time>2012-01-14T15:47:02Z</time>
      </trkpt>
      <trkpt lat="47.23724" lon="-1.61306">
        <ele>-80.5</ele>
        <time>2012-01-14T15:47:06Z</time>
      </trkpt>
      <trkpt lat="47.23714" lon="-1.61298">
        <ele>-81.5</ele>
        <time>2012-01-14T15:47:09Z</time>
      </trkpt>
      <trkpt lat="47.23704" lon="-1.61286">
        <ele>-80.5</ele>
        <time>2012-01-14T15:47:13Z</time>
      </trkpt>
      <trkpt lat="47.23696" lon="-1.61276">
        <ele>-78.5</ele>
        <time>2012-01-14T15:47:15Z</time>
      </trkpt>
      <trkpt lat="47.2369" lon="-1.61266">
        <ele>-77.25</ele>
        <time>2012-01-14T15:47:17Z</time>
      </trkpt>
      <trkpt lat="47.23685" lon="-1.61255">
        <ele>-77</ele>
        <time>2012-01-14T15:47:21Z</time>
      </trkpt>
      <trkpt lat="47.23682" lon="-1.61241">
        <ele>-78.5</ele>
        <time>2012-01-14T15:47:25Z</time>
      </trkpt>
      <trkpt lat="47.23692" lon="-1.61239">
        <ele>-80</ele>
        <time>2012-01-14T15:47:32Z</time>
      </trkpt>
      <trkpt lat="47.23698" lon="-1.61229">
        <ele>-80.5</ele>
        <time>2012-01-14T15:47:36Z</time>
      </trkpt>
      <trkpt lat="47.237" lon="-1.61213">
        <ele>-83.5</ele>
        <time>2012-01-14T15:47:41Z</time>
      </trkpt>
      <trkpt lat="47.23701" lon="-1.61199">
        <ele>-85.75</ele>
        <time>2012-01-14T15:47:47Z</time>
      </trkpt>
      <trkpt lat="47.237" lon="-1.61193">
        <ele>-74.75</ele>
        <time>2012-01-14T15:48:03Z</time>
      </trkpt>
      <trkpt lat="47.237" lon="-1.61188">
        <ele>-76.75</ele>
        <time>2012-01-14T15:48:12Z</time>
      </trkpt>
      <trkpt lat="47.237" lon="-1.61188">
        <ele>-76.75</ele>
        <time>2012-01-14T15:48:12Z</time>
      </trkpt>
    </trkseg>
  </trk>
</gpx>